Provisional Data: Hammond Creek near Millerton, PA


Please select a monitoring station.
Please select start date.
Please select start date.
Historical Station - Data Range: 01/27/2010 - 03/01/2017

Toggle Unit: C/F Toggle Unit: C/F
Sample Time Temperature (C) Temperature (F) Specific Conductivity (mS/cm) pH   Turbidity (NTU+) DO (mg/L)
2/1/2017 12:00:00 AM 0.22 32.396 0.145 7.19 3.7 13.87
2/1/2017 12:15:00 AM 0.22 32.396 0.145 7.19 3.4 13.87
2/1/2017 12:30:00 AM 0.22 32.396 0.145 7.2 3.6 13.87
2/1/2017 12:45:00 AM 0.23 32.414 0.145 7.2 3.5 13.87
2/1/2017 1:00:00 AM 0.25 32.45 0.144 7.19 4.1 13.87
2/1/2017 1:15:00 AM 0.23 32.414 0.143 7.2 3.5 13.86
2/1/2017 1:30:00 AM 0.2 32.36 0.143 7.23 3.8 13.85
2/1/2017 1:45:00 AM 0.21 32.378 0.143 7.2 3.7 13.87
2/1/2017 2:00:00 AM 0.21 32.378 0.143 7.21 3.6 13.88
2/1/2017 2:15:00 AM 0.23 32.414 0.143 7.21 3.4 13.87
2/1/2017 2:30:00 AM 0.24 32.432 0.143 7.2 3.6 13.87
2/1/2017 2:45:00 AM 0.25 32.45 0.143 7.2 3.5 13.87
2/1/2017 3:00:00 AM 0.27 32.486 0.143 7.2 3.3 13.87
2/1/2017 3:15:00 AM 0.29 32.522 0.143 7.21 3.6 13.87
2/1/2017 3:30:00 AM 0.3 32.54 0.144 7.2 3.5 13.86
2/1/2017 3:45:00 AM 0.31 32.558 0.145 7.2 3.4 13.85
2/1/2017 4:00:00 AM 0.33 32.594 0.145 7.21 3.6 13.86
2/1/2017 4:15:00 AM 0.33 32.594 0.145 7.2 3.6 13.85
2/1/2017 4:30:00 AM 0.34 32.612 0.146 7.21 3.3 13.85
2/1/2017 4:45:00 AM 0.35 32.63 0.146 7.21 3.5 13.85
2/1/2017 5:00:00 AM 0.35 32.63 0.145 7.2 3.5 13.85
2/1/2017 5:15:00 AM 0.33 32.594 0.145 7.24 3.5 13.85
2/1/2017 5:30:00 AM 0.34 32.612 0.146 7.21 3.7 13.85
2/1/2017 5:45:00 AM 0.33 32.594 0.145 7.21 3.4 13.86
2/1/2017 6:00:00 AM 0.33 32.594 0.145 7.21 3.8 13.86
2/1/2017 6:15:00 AM 0.32 32.576 0.144 7.2 3.6 13.86
2/1/2017 6:30:00 AM 0.3 32.54 0.143 7.2 3.4 13.87
2/1/2017 6:45:00 AM 0.27 32.486 0.143 7.2 3.4 13.88
2/1/2017 7:00:00 AM 0.24 32.432 0.143 7.2 3.4 13.89
2/1/2017 7:15:00 AM 0.2 32.36 0.143 7.22 3.5 13.9
2/1/2017 7:30:00 AM 0.16 32.288 0.143 7.22 3.4 13.93
2/1/2017 7:45:00 AM 0.14 32.252 0.143 7.21 3.3 13.98
2/1/2017 8:00:00 AM 0.12 32.216 0.143 7.24 3.5 14.05
2/1/2017 8:15:00 AM 0.11 32.198 0.143 7.25 3.4 14.15
2/1/2017 8:30:00 AM 0.12 32.216 0.143 7.28 3.4 14.26
2/1/2017 8:45:00 AM 0.14 32.252 0.143 7.31 3.7 14.35
2/1/2017 9:00:00 AM 0.16 32.288 0.143 7.35 3.4 14.42
2/1/2017 9:15:00 AM 0.2 32.36 0.143 7.36 3.2 14.48
2/1/2017 9:30:00 AM 0.22 32.396 0.144 7.37 3.6 14.53
2/1/2017 9:45:00 AM 0.27 32.486 0.145 7.4 3.4 14.57
2/1/2017 10:00:00 AM 0.34 32.612 0.145 7.43 3 14.6
2/1/2017 10:15:00 AM 0.41 32.738 0.144 7.46 3.2 14.62
2/1/2017 10:30:00 AM 0.53 32.954 0.143 7.48 3.1 14.63
2/1/2017 10:45:00 AM 0.63 33.134 0.143 7.49 3.2 14.63
2/1/2017 11:00:00 AM 0.72 33.296 0.143 7.5 3.4 14.62
2/1/2017 11:15:00 AM 0.79 33.422 0.143 7.53 3.3 14.59
2/1/2017 11:30:00 AM 0.84 33.512 0.143 7.53 3.5 14.58
2/1/2017 11:45:00 AM 0.93 33.674 0.143 7.54 3.3 14.58
2/1/2017 12:00:00 PM 1.02 33.836 0.143 7.57 3.2 14.56
2/1/2017 12:15:00 PM 1.08 33.944 0.143 7.58 3.3 14.54
2/1/2017 12:30:00 PM 1.23 34.214 0.142 7.59 3.1 14.5
2/1/2017 12:45:00 PM 1.33 34.394 0.143 7.62 3.3 14.49
2/1/2017 1:00:00 PM 1.51 34.718 0.143 7.62 3.2 14.44
2/1/2017 1:15:00 PM 1.61 34.898 0.143 7.62 3.2 14.4
2/1/2017 1:30:00 PM 1.68 35.024 0.143 7.63 3.5 14.38
2/1/2017 1:45:00 PM 1.7 35.06 0.143 7.65 3.1 14.37
2/1/2017 2:00:00 PM 1.75 35.15 0.143 7.65 3.3 14.34
2/1/2017 2:15:00 PM 1.78 35.204 0.143 7.66 3.4 14.32
2/1/2017 2:30:00 PM 1.81 35.258 0.143 7.65 3.3 14.31
2/1/2017 2:45:00 PM 1.83 35.294 0.143 7.67 3.2 14.26
2/1/2017 3:00:00 PM 1.88 35.384 0.143 7.67 3.1 14.25
2/1/2017 3:15:00 PM 1.85 35.33 0.143 7.65 3.2 14.22
2/1/2017 3:30:00 PM 1.81 35.258 0.143 7.63 3.6 14.17
2/1/2017 3:45:00 PM 1.75 35.15 0.143 7.63 3.6 14.09
2/1/2017 4:00:00 PM 1.71 35.078 0.143 7.59 3.4 14.06
2/1/2017 4:15:00 PM 1.67 35.006 0.143 7.56 3.5 14.05
2/1/2017 4:30:00 PM 1.59 34.862 0.144 7.56 3.5 14.05
2/1/2017 4:45:00 PM 1.53 34.754 0.144 7.51 3.2 14
2/1/2017 5:00:00 PM 1.47 34.646 0.144 7.49 3.3 13.97
2/1/2017 5:15:00 PM 1.4 34.52 0.144 7.45 3.4 13.9
2/1/2017 5:30:00 PM 1.34 34.412 0.144 7.42 3.3 13.83
2/1/2017 5:45:00 PM 1.27 34.286 0.145 7.38 3.4 13.77
2/1/2017 6:00:00 PM 1.19 34.142 0.145 7.36 3.4 13.73
2/1/2017 6:15:00 PM 1.11 33.998 0.145 7.33 3.7 13.71
2/1/2017 6:30:00 PM 1.04 33.872 0.145 7.3 3.7 13.71
2/1/2017 6:45:00 PM 0.97 33.746 0.145 7.29 3.6 13.71
2/1/2017 7:00:00 PM 0.9 33.62 0.145 7.28 3.8 13.72
2/1/2017 7:15:00 PM 0.83 33.494 0.145 7.26 3.9 13.73
2/1/2017 7:30:00 PM 0.75 33.35 0.146 7.27 3.6 13.76
2/1/2017 7:45:00 PM 0.67 33.206 0.146 7.26 4.1 13.77
2/1/2017 8:00:00 PM 0.59 33.062 0.146 7.28 3.7 13.82
2/1/2017 8:15:00 PM 0.49 32.882 0.146 7.27 3.8 13.85
2/1/2017 8:30:00 PM 0.42 32.756 0.146 7.23 3.6 13.86
2/1/2017 8:45:00 PM 0.34 32.612 0.146 7.24 3.7 13.88
2/1/2017 9:00:00 PM 0.26 32.468 0.146 7.22 3.6 13.92
2/1/2017 9:15:00 PM 0.18 32.324 0.146 7.23 3.3 13.95
2/1/2017 9:30:00 PM 0.11 32.198 0.147 7.22 3.4 13.98
2/1/2017 9:45:00 PM 0.04 32.072 0.147 7.21 3.7 14.01
2/1/2017 10:00:00 PM -0.02 31.964 0.147 7.21 3.5 14.03
2/1/2017 10:15:00 PM -0.08 31.856 0.147 7.21 3.5 14.05
2/1/2017 10:30:00 PM -0.14 31.748 0.147 7.24 3.5 14.07
2/1/2017 10:45:00 PM -0.18 31.676 0.147 7.21 3.3 14.09
2/1/2017 11:00:00 PM -0.22 31.604 0.147 7.2 3.6 14.11
2/1/2017 11:15:00 PM -0.23 31.586 0.147 7.2 3.3 14.13
2/1/2017 11:30:00 PM -0.22 31.604 0.147 7.24 3.6 14.15
2/1/2017 11:45:00 PM -0.21 31.622 0.148 7.22 3.5 14.15
2/2/2017 12:00:00 AM -0.22 31.604 0.148 7.22 3.3 14.15
2/2/2017 12:15:00 AM -0.21 31.622 0.148 7.21 2.8 14.15
2/2/2017 12:30:00 AM -0.2 31.64 0.148 7.2 3.5 14.15
2/2/2017 12:45:00 AM -0.2 31.64 0.148 7.2 3.2 14.14
2/2/2017 1:00:00 AM -0.21 31.622 0.148 7.2 3.2 14.16
2/2/2017 1:15:00 AM -0.22 31.604 0.149 7.21 3.2 14.14
2/2/2017 1:30:00 AM -0.21 31.622 0.149 7.2 3.2 14.13
2/2/2017 1:45:00 AM -0.2 31.64 0.149 7.2 3.5 14.14
2/2/2017 2:00:00 AM -0.2 31.64 0.149 7.2 3.5 14.15
2/2/2017 2:15:00 AM -0.2 31.64 0.149 7.21 3.2 14.14
2/2/2017 2:30:00 AM -0.21 31.622 0.149 7.21 3.1 14.13
2/2/2017 2:45:00 AM -0.21 31.622 0.15 7.21 3.3 14.13
2/2/2017 3:00:00 AM -0.2 31.64 0.15 7.21 3 14.13
2/2/2017 3:15:00 AM -0.2 31.64 0.15 7.21 3.1 14.13
2/2/2017 3:30:00 AM -0.2 31.64 0.15 7.21 3.3 14.12
2/2/2017 3:45:00 AM -0.2 31.64 0.151 7.23 3.1 14.12
2/2/2017 4:00:00 AM -0.2 31.64 0.151 7.2 2.9 14.12
2/2/2017 4:15:00 AM -0.2 31.64 0.151 7.21 3.1 14.11
2/2/2017 4:30:00 AM -0.2 31.64 0.151 7.2 3.1 14.1
2/2/2017 4:45:00 AM -0.19 31.658 0.151 7.21 3.1 14.1
2/2/2017 5:00:00 AM -0.19 31.658 0.151 7.2 3.1 14.11
2/2/2017 5:15:00 AM -0.19 31.658 0.151 7.2 2.7 14.1
2/2/2017 5:30:00 AM -0.2 31.64 0.151 7.22 2.9 14.1
2/2/2017 5:45:00 AM -0.2 31.64 0.151 7.22 2.9 14.1
2/2/2017 6:00:00 AM -0.19 31.658 0.152 7.21 3.5 14.11
2/2/2017 6:15:00 AM -0.19 31.658 0.151 7.2 3.1 14.1
2/2/2017 6:30:00 AM -0.2 31.64 0.151 7.21 2.9 14.1
2/2/2017 6:45:00 AM -0.2 31.64 0.15 7.2 2.9 14.1
2/2/2017 7:00:00 AM -0.2 31.64 0.15 7.22 3 14.11
2/2/2017 7:15:00 AM -0.2 31.64 0.149 7.21 3.1 14.12
2/2/2017 7:30:00 AM -0.21 31.622 0.149 7.25 2.9 14.14
2/2/2017 7:45:00 AM -0.19 31.658 0.149 7.23 3.3 14.17
2/2/2017 8:00:00 AM -0.19 31.658 0.148 7.23 3 14.21
2/2/2017 8:15:00 AM -0.19 31.658 0.148 7.24 3.1 14.27
2/2/2017 8:30:00 AM -0.18 31.676 0.148 7.26 3 14.34
2/2/2017 8:45:00 AM -0.16 31.712 0.148 7.27 3.1 14.41
2/2/2017 9:00:00 AM -0.15 31.73 0.148 7.29 3 14.5
2/2/2017 9:15:00 AM -0.13 31.766 0.148 7.33 3 14.59
2/2/2017 9:30:00 AM -0.1 31.82 0.148 7.36 3 14.65
2/2/2017 9:45:00 AM -0.09 31.838 0.148 7.38 3 14.71
2/2/2017 10:00:00 AM -0.06 31.892 0.148 7.4 3.1 14.75
2/2/2017 10:15:00 AM -0.02 31.964 0.148 7.42 3 14.79
2/2/2017 10:30:00 AM 0.04 32.072 0.148 7.45 3 14.81
2/2/2017 10:45:00 AM 0.12 32.216 0.148 7.47 3 14.83
2/2/2017 11:00:00 AM 0.22 32.396 0.148 7.53 3.2 14.85
2/2/2017 11:15:00 AM 0.29 32.522 0.148 7.55 3 14.85
2/2/2017 11:30:00 AM 0.36 32.648 0.148 7.54 2.9 14.83
2/2/2017 11:45:00 AM 0.43 32.774 0.148 7.55 3.1 14.81
2/2/2017 12:00:00 PM 0.58 33.044 0.148 7.57 2.8 14.81
2/2/2017 12:15:00 PM 0.63 33.134 0.147 7.58 2.6 14.82
2/2/2017 12:30:00 PM 0.69 33.242 0.146 7.6 2.6 14.78
2/2/2017 12:45:00 PM 0.75 33.35 0.146 7.61 2.8 14.76
2/2/2017 1:00:00 PM 0.81 33.458 0.146 7.62 2.8 14.73
2/2/2017 1:15:00 PM 0.85 33.53 0.146 7.62 2.8 14.7
2/2/2017 1:30:00 PM 0.84 33.512 0.147 7.62 2.8 14.65
2/2/2017 1:45:00 PM 0.82 33.476 0.147 7.61 2.8 14.63
2/2/2017 2:00:00 PM 0.84 33.512 0.148 7.6 2.9 14.61
2/2/2017 2:15:00 PM 0.87 33.566 0.148 7.62 2.9 14.62
2/2/2017 2:30:00 PM 0.91 33.638 0.148 7.63 2.9 14.65
2/2/2017 2:45:00 PM 0.99 33.782 0.148 7.64 2.7 14.63
2/2/2017 3:00:00 PM 1.03 33.854 0.148 7.67 2.9 14.62
2/2/2017 3:15:00 PM 1.1 33.98 0.148 7.65 3.2 14.61
2/2/2017 3:30:00 PM 1.11 33.998 0.148 7.66 2.8 14.61
2/2/2017 3:45:00 PM 1.05 33.89 0.148 7.68 2.9 14.61
2/2/2017 4:00:00 PM 1.01 33.818 0.148 7.64 2.9 14.59
2/2/2017 4:15:00 PM 0.97 33.746 0.148 7.64 2.9 14.6
2/2/2017 4:30:00 PM 0.9 33.62 0.148 7.66 2.9 14.6
2/2/2017 4:45:00 PM 0.82 33.476 0.149 7.62 2.9 14.59
2/2/2017 5:00:00 PM 0.72 33.296 0.149 7.59 2.9 14.52
2/2/2017 5:15:00 PM 0.62 33.116 0.149 7.55 3.1 14.42
2/2/2017 5:30:00 PM 0.53 32.954 0.148 7.49 3 14.32
2/2/2017 5:45:00 PM 0.46 32.828 0.15 7.44 2.9 14.24
2/2/2017 6:00:00 PM 0.37 32.666 0.15 7.4 2.9 14.18
2/2/2017 6:15:00 PM 0.29 32.522 0.149 7.38 2.9 14.15
2/2/2017 6:30:00 PM 0.21 32.378 0.149 7.35 3 14.13
2/2/2017 6:45:00 PM 0.13 32.234 0.15 7.36 3 14.13
2/2/2017 7:00:00 PM 0.07 32.126 0.15 7.33 3 14.14
2/2/2017 7:15:00 PM 0 32 0.15 7.3 3.3 14.15
2/2/2017 7:30:00 PM -0.07 31.874 0.15 7.29 2.9 14.16
2/2/2017 7:45:00 PM -0.15 31.73 0.15 7.29 2.8 14.19
2/2/2017 8:00:00 PM -0.21 31.622 0.151 7.29 2.9 14.2
2/2/2017 8:15:00 PM -0.24 31.568 0.151 7.28 2.8 14.22
2/2/2017 8:30:00 PM -0.23 31.586 0.151 7.29 5.5 14.24
2/2/2017 8:45:00 PM -0.22 31.604 0.151 7.27 4.5 14.26
2/2/2017 9:00:00 PM -0.22 31.604 0.151 7.27 4.5 14.25
2/2/2017 9:15:00 PM -0.22 31.604 0.151 7.28 5.1 14.25
2/2/2017 9:30:00 PM -0.22 31.604 0.151 7.27 5.4 14.25
2/2/2017 9:45:00 PM -0.22 31.604 0.151 7.26 5.2 14.24
2/2/2017 10:00:00 PM -0.22 31.604 0.151 7.27 5.4 14.24
2/2/2017 10:15:00 PM -0.22 31.604 0.151 7.26 5.6 14.24
2/2/2017 10:30:00 PM -0.23 31.586 0.152 7.28 2.8 14.24
2/2/2017 10:45:00 PM -0.22 31.604 0.153 7.27 2.8 14.24
2/2/2017 11:00:00 PM -0.22 31.604 0.153 7.25 3.3 14.24
2/2/2017 11:15:00 PM -0.22 31.604 0.153 7.26 3 14.23
2/2/2017 11:30:00 PM -0.22 31.604 0.154 7.26 3.1 14.22
2/2/2017 11:45:00 PM -0.22 31.604 0.153 7.27 3.1 14.22
2/3/2017 12:00:00 AM -0.22 31.604 0.154 7.25 2.8 14.22
2/3/2017 12:15:00 AM -0.22 31.604 0.155 7.26 2.8 14.22
2/3/2017 12:30:00 AM -0.22 31.604 0.155 7.27 2.9 14.21
2/3/2017 12:45:00 AM -0.22 31.604 0.155 7.26 2.7 14.2
2/3/2017 1:00:00 AM -0.22 31.604 0.155 7.26 2.9 14.2
2/3/2017 1:15:00 AM -0.22 31.604 0.156 7.25 2.7 14.2
2/3/2017 1:30:00 AM -0.22 31.604 0.156 7.24 2.6 14.19
2/3/2017 1:45:00 AM -0.21 31.622 0.156 7.25 2.7 14.18
2/3/2017 2:00:00 AM -0.21 31.622 0.155 7.25 2.7 14.18
2/3/2017 2:15:00 AM -0.22 31.604 0.156 7.27 2.7 14.18
2/3/2017 2:30:00 AM -0.21 31.622 0.156 7.26 2.6 14.17
2/3/2017 2:45:00 AM -0.21 31.622 0.158 7.24 2.8 14.18
2/3/2017 3:00:00 AM -0.21 31.622 0.158 7.27 2.5 14.16
2/3/2017 3:15:00 AM -0.21 31.622 0.158 7.26 2.8 14.16
2/3/2017 3:30:00 AM -0.21 31.622 0.158 7.25 2.9 14.16
2/3/2017 3:45:00 AM -0.21 31.622 0.158 7.25 2.8 14.15
2/3/2017 4:00:00 AM -0.21 31.622 0.158 7.25 2.6 14.15
2/3/2017 4:15:00 AM -0.21 31.622 0.157 7.24 2.6 14.15
2/3/2017 4:30:00 AM -0.21 31.622 0.157 7.24 2.6 14.14
2/3/2017 4:45:00 AM -0.21 31.622 0.157 7.24 2.5 14.14
2/3/2017 5:00:00 AM -0.21 31.622 0.157 7.24 2.5 14.14
2/3/2017 5:15:00 AM -0.21 31.622 0.157 7.25 2.5 14.14
2/3/2017 5:30:00 AM -0.21 31.622 0.156 7.23 2.6 14.13
2/3/2017 5:45:00 AM -0.21 31.622 0.156 7.23 2.6 14.13
2/3/2017 6:00:00 AM -0.22 31.604 0.157 7.26 2.7 14.14
2/3/2017 6:15:00 AM -0.21 31.622 0.157 7.25 3.1 14.13
2/3/2017 6:30:00 AM -0.21 31.622 0.157 7.25 2.4 14.14
2/3/2017 6:45:00 AM -0.22 31.604 0.157 7.23 2.5 14.14
2/3/2017 7:00:00 AM -0.22 31.604 0.157 7.23 2.7 14.14
2/3/2017 7:15:00 AM -0.22 31.604 0.157 7.25 2.7 14.15
2/3/2017 7:30:00 AM -0.22 31.604 0.157 7.23 2.6 14.16
2/3/2017 7:45:00 AM -0.22 31.604 0.158 7.25 2.8 14.21
2/3/2017 8:00:00 AM -0.21 31.622 0.158 7.25 2.6 14.24
2/3/2017 8:15:00 AM -0.21 31.622 0.159 7.26 2.5 14.34
2/3/2017 8:30:00 AM -0.21 31.622 0.159 7.28 2.4 14.41
2/3/2017 8:45:00 AM -0.2 31.64 0.159 7.3 2.6 14.52
2/3/2017 9:00:00 AM -0.21 31.622 0.159 7.34 2.3 14.62
2/3/2017 9:15:00 AM -0.2 31.64 0.159 7.35 2.3 14.73
2/3/2017 9:30:00 AM -0.18 31.676 0.158 7.38 2.5 14.8
2/3/2017 9:45:00 AM -0.19 31.658 0.157 7.44 2.7 14.86
2/3/2017 10:00:00 AM -0.17 31.694 0.157 7.43 2.5 14.92
2/3/2017 10:15:00 AM -0.19 31.658 0.156 7.49 2.7 14.95
2/3/2017 10:30:00 AM -0.17 31.694 0.156 7.49 2.7 14.99
2/3/2017 10:45:00 AM -0.18 31.676 0.157 7.51 2.6 15.01
2/3/2017 11:00:00 AM -0.18 31.676 0.157 7.53 2.6 15.02
2/3/2017 11:15:00 AM -0.18 31.676 0.158 7.55 2.6 15.05
2/3/2017 11:30:00 AM -0.17 31.694 0.158 7.55 2.6 15.06
2/3/2017 11:45:00 AM -0.17 31.694 0.159 7.57 2.7 15.08
2/3/2017 12:00:00 PM -0.15 31.73 0.159 7.6 2.8 15.08
2/3/2017 12:15:00 PM -0.16 31.712 0.159 7.61 2.9 15.09
2/3/2017 12:30:00 PM -0.16 31.712 0.158 7.64 2.8 15.09
2/3/2017 12:45:00 PM -0.17 31.694 0.158 7.62 3.4 15.06
2/3/2017 1:00:00 PM -0.15 31.73 0.157 7.64 3.6 15.06
2/3/2017 1:15:00 PM -0.12 31.784 0.157 7.65 3.3 15.06
2/3/2017 1:30:00 PM -0.06 31.892 0.155 7.68 3.1 15.07
2/3/2017 1:45:00 PM 0.05 32.09 0.154 7.66 2.8 15.06
2/3/2017 2:00:00 PM 0.08 32.144 0.153 7.67 2.9 15.05
2/3/2017 2:15:00 PM 0.16 32.288 0.152 7.67 2.9 15.04
2/3/2017 2:30:00 PM 0.12 32.216 0.152 7.66 3.5 15.02
2/3/2017 2:45:00 PM 0.09 32.162 0.151 7.66 3 15.02
2/3/2017 3:00:00 PM 0.05 32.09 0.151 7.67 2.9 15.01
2/3/2017 3:15:00 PM 0.01 32.018 0.151 7.65 3.1 15
2/3/2017 3:30:00 PM 0 32 0.151 7.66 2.7 14.97
2/3/2017 3:45:00 PM -0.02 31.964 0.151 7.65 3 14.96
2/3/2017 4:00:00 PM 0 32 0.151 7.64 2.8 14.93
2/3/2017 4:15:00 PM 0.01 32.018 0.15 7.64 2.8 14.9
2/3/2017 4:30:00 PM 0 32 0.151 7.61 2.9 14.86
2/3/2017 4:45:00 PM -0.01 31.982 0.151 7.6 2.7 14.82
2/3/2017 5:00:00 PM -0.04 31.928 0.151 7.57 3 14.74
2/3/2017 5:15:00 PM -0.06 31.892 0.151 7.55 3 14.65
2/3/2017 5:30:00 PM -0.08 31.856 0.151 7.49 2.9 14.58
2/3/2017 5:45:00 PM -0.12 31.784 0.151 7.44 2.9 14.49
2/3/2017 6:00:00 PM -0.15 31.73 0.151 7.4 3 14.42
2/3/2017 6:15:00 PM -0.19 31.658 0.152 7.41 3.1 14.38
2/3/2017 6:30:00 PM -0.22 31.604 0.152 7.35 2.9 14.35
2/3/2017 6:45:00 PM -0.24 31.568 0.152 7.34 3.1 14.34
2/3/2017 7:00:00 PM -0.23 31.586 0.152 7.33 3.2 14.32
2/3/2017 7:15:00 PM -0.22 31.604 0.151 7.33 3.7 14.32
2/3/2017 7:30:00 PM -0.22 31.604 0.152 7.34 3.1 14.34
2/3/2017 7:45:00 PM -0.22 31.604 0.152 7.33 2.9 14.31
2/3/2017 8:00:00 PM -0.22 31.604 0.152 7.31 3.3 14.31
2/3/2017 8:15:00 PM -0.22 31.604 0.152 7.3 3.2 14.31
2/3/2017 8:30:00 PM -0.22 31.604 0.153 7.31 3.3 14.32
2/3/2017 8:45:00 PM -0.22 31.604 0.153 7.3 3.2 14.31
2/3/2017 9:00:00 PM -0.23 31.586 0.153 7.32 3.1 14.33
2/3/2017 9:15:00 PM -0.22 31.604 0.153 7.31 2.8 14.31
2/3/2017 9:30:00 PM -0.22 31.604 0.154 7.29 3.1 14.32
2/3/2017 9:45:00 PM -0.22 31.604 0.154 7.3 3.1 14.3
2/3/2017 10:00:00 PM -0.22 31.604 0.154 7.33 3.1 14.32
2/3/2017 10:15:00 PM -0.22 31.604 0.154 7.31 2.9 14.29
2/3/2017 10:30:00 PM -0.22 31.604 0.154 7.29 2.8 14.31
2/3/2017 10:45:00 PM -0.22 31.604 0.155 7.29 2.7 14.28
2/3/2017 11:00:00 PM -0.22 31.604 0.155 7.3 3 14.28
2/3/2017 11:15:00 PM -0.22 31.604 0.155 7.3 3.1 14.28
2/3/2017 11:30:00 PM -0.22 31.604 0.155 7.3 3 14.25
2/3/2017 11:45:00 PM -0.22 31.604 0.155 7.3 2.9 14.26
2/4/2017 12:00:00 AM -0.22 31.604 0.155 7.29 3.3 14.25
2/4/2017 12:15:00 AM -0.22 31.604 0.155 7.29 3.2 14.24
2/4/2017 12:30:00 AM -0.22 31.604 0.155 7.28 3.4 14.24
2/4/2017 12:45:00 AM -0.23 31.586 0.155 7.31 4.2 14.25
2/4/2017 1:00:00 AM -0.22 31.604 0.155 7.27 4.1 14.23
2/4/2017 1:15:00 AM -0.22 31.604 0.156 7.27 4.2 14.23
2/4/2017 1:30:00 AM -0.22 31.604 0.156 7.27 4.1 14.22
2/4/2017 1:45:00 AM -0.22 31.604 0.156 7.28 4.2 14.21
2/4/2017 2:00:00 AM -0.22 31.604 0.156 7.27 4.2 14.2
2/4/2017 2:15:00 AM -0.22 31.604 0.157 7.28 4.2 14.18
2/4/2017 2:30:00 AM -0.22 31.604 0.157 7.28 4.3 14.18
2/4/2017 2:45:00 AM -0.22 31.604 0.158 7.28 4.3 14.16
2/4/2017 3:00:00 AM -0.22 31.604 0.158 7.27 4.4 14.16
2/4/2017 3:15:00 AM -0.22 31.604 0.158 7.28 4.5 14.15
2/4/2017 3:30:00 AM -0.22 31.604 0.158 7.28 4.4 14.17
2/4/2017 3:45:00 AM -0.22 31.604 0.159 7.28 4.5 14.15
2/4/2017 4:00:00 AM -0.22 31.604 0.159 7.27 4.5 14.14
2/4/2017 4:15:00 AM -0.22 31.604 0.159 7.28 4.8 14.14
2/4/2017 4:30:00 AM -0.23 31.586 0.159 7.29 4.5 14.14
2/4/2017 4:45:00 AM -0.22 31.604 0.159 7.27 4.5 14.13
2/4/2017 5:00:00 AM -0.22 31.604 0.159 7.27 4.6 14.13
2/4/2017 5:15:00 AM -0.22 31.604 0.159 7.27 4.5 14.12
2/4/2017 5:30:00 AM -0.22 31.604 0.159 7.27 4.4 14.12
2/4/2017 5:45:00 AM -0.22 31.604 0.159 7.28 4.5 14.11
2/4/2017 6:00:00 AM -0.22 31.604 0.159 7.28 4.6 14.11
2/4/2017 6:15:00 AM -0.22 31.604 0.159 7.28 4.7 14.1
2/4/2017 6:30:00 AM -0.22 31.604 0.159 7.28 4.9 14.09
2/4/2017 6:45:00 AM -0.22 31.604 0.16 7.27 5.1 14.1
2/4/2017 7:00:00 AM -0.22 31.604 0.16 7.26 5 14.09
2/4/2017 7:15:00 AM -0.22 31.604 0.16 7.26 4.9 14.09
2/4/2017 7:30:00 AM -0.22 31.604 0.16 7.28 5 14.1
2/4/2017 7:45:00 AM -0.22 31.604 0.16 7.28 4.9 14.12
2/4/2017 8:00:00 AM -0.22 31.604 0.161 7.29 5 14.17
2/4/2017 8:15:00 AM -0.23 31.586 0.161 7.31 5.1 14.21
2/4/2017 8:30:00 AM -0.22 31.604 0.161 7.31 4.7 14.27
2/4/2017 8:45:00 AM -0.22 31.604 0.161 7.3 4.6 14.34
2/4/2017 9:00:00 AM -0.22 31.604 0.162 7.33 4.4 14.41
2/4/2017 9:15:00 AM -0.22 31.604 0.162 7.34 4.3 14.49
2/4/2017 9:30:00 AM -0.22 31.604 0.163 7.35 5.6 14.59
2/4/2017 9:45:00 AM -0.22 31.604 0.164 7.38 7.3 14.67
2/4/2017 10:00:00 AM -0.21 31.622 0.165 7.37 7.9 14.79
2/4/2017 10:15:00 AM -0.19 31.658 0.166 7.41 6 14.85
2/4/2017 10:30:00 AM -0.18 31.676 0.17 7.44 2.2 14.99
2/4/2017 10:45:00 AM -0.17 31.694 0.17 7.47 2.3 15.05
2/4/2017 11:00:00 AM -0.17 31.694 0.171 7.5 2.1 15.12
2/4/2017 11:15:00 AM -0.16 31.712 0.171 7.52 2.2 15.16
2/4/2017 11:30:00 AM -0.14 31.748 0.171 7.55 2.1 15.19
2/4/2017 11:45:00 AM -0.14 31.748 0.171 7.58 2.3 15.22
2/4/2017 12:00:00 PM -0.14 31.748 0.17 7.63 2.3 15.23
2/4/2017 12:15:00 PM -0.13 31.766 0.169 7.62 2.2 15.25
2/4/2017 12:30:00 PM -0.14 31.748 0.168 7.65 2.2 15.25
2/4/2017 12:45:00 PM -0.14 31.748 0.167 7.65 2.6 15.24
2/4/2017 1:00:00 PM -0.14 31.748 0.166 7.65 2.5 15.24
2/4/2017 1:15:00 PM -0.15 31.73 0.165 7.66 2.5 15.22
2/4/2017 1:30:00 PM -0.15 31.73 0.165 7.67 2.5 15.21
2/4/2017 1:45:00 PM -0.15 31.73 0.165 7.69 3 15.19
2/4/2017 2:00:00 PM -0.16 31.712 0.166 7.68 2.7 15.18
2/4/2017 2:15:00 PM -0.17 31.694 0.167 7.68 2.9 15.16
2/4/2017 2:30:00 PM -0.17 31.694 0.167 7.68 2.9 15.16
2/4/2017 2:45:00 PM -0.18 31.676 0.166 7.69 3 15.13
2/4/2017 3:00:00 PM -0.18 31.676 0.165 7.68 3.2 15.13
2/4/2017 3:15:00 PM -0.19 31.658 0.163 7.67 3.5 15.12
2/4/2017 3:30:00 PM -0.19 31.658 0.162 7.67 3.3 15.11
2/4/2017 3:45:00 PM -0.2 31.64 0.16 7.7 3.2 15.12
2/4/2017 4:00:00 PM -0.2 31.64 0.159 7.67 3.1 15.11
2/4/2017 4:15:00 PM -0.21 31.622 0.158 7.66 3.2 15.08
2/4/2017 4:30:00 PM -0.21 31.622 0.158 7.63 3.1 15.03
2/4/2017 4:45:00 PM -0.21 31.622 0.157 7.63 3.1 14.96
2/4/2017 5:00:00 PM -0.21 31.622 0.157 7.56 3.4 14.9
2/4/2017 5:15:00 PM -0.22 31.604 0.157 7.53 3.1 14.83
2/4/2017 5:30:00 PM -0.22 31.604 0.156 7.5 3.7 14.73
2/4/2017 5:45:00 PM -0.22 31.604 0.156 7.45 3.2 14.64
2/4/2017 6:00:00 PM -0.22 31.604 0.156 7.43 3.3 14.55
2/4/2017 6:15:00 PM -0.22 31.604 0.156 7.39 3.3 14.48
2/4/2017 6:30:00 PM -0.22 31.604 0.156 7.36 3.2 14.44
2/4/2017 6:45:00 PM -0.22 31.604 0.156 7.35 3.3 14.41
2/4/2017 7:00:00 PM -0.22 31.604 0.157 7.33 3 14.38
2/4/2017 7:15:00 PM -0.22 31.604 0.157 7.32 3.4 14.35
2/4/2017 7:30:00 PM -0.23 31.586 0.157 7.34 3.4 14.33
2/4/2017 7:45:00 PM -0.21 31.622 0.158 7.3 3.2 14.3
2/4/2017 8:00:00 PM -0.21 31.622 0.158 7.3 3.3 14.3
2/4/2017 8:15:00 PM -0.21 31.622 0.158 7.3 3 14.27
2/4/2017 8:30:00 PM -0.21 31.622 0.159 7.28 3.2 14.26
2/4/2017 8:45:00 PM -0.21 31.622 0.159 7.28 3.2 14.25
2/4/2017 9:00:00 PM -0.21 31.622 0.159 7.27 3 14.24
2/4/2017 9:15:00 PM -0.21 31.622 0.16 7.28 3.1 14.22
2/4/2017 9:30:00 PM -0.21 31.622 0.16 7.27 3.2 14.21
2/4/2017 9:45:00 PM -0.21 31.622 0.16 7.26 3 14.2
2/4/2017 10:00:00 PM -0.21 31.622 0.161 7.27 3.2 14.19
2/4/2017 10:15:00 PM -0.21 31.622 0.161 7.28 3.2 14.18
2/4/2017 10:30:00 PM -0.21 31.622 0.161 7.26 3 14.17
2/4/2017 10:45:00 PM -0.21 31.622 0.161 7.27 3 14.17
2/4/2017 11:00:00 PM -0.21 31.622 0.161 7.27 3.1 14.16
2/4/2017 11:15:00 PM -0.22 31.604 0.162 7.28 3 14.16
2/4/2017 11:30:00 PM -0.21 31.622 0.162 7.27 2.9 14.16
2/4/2017 11:45:00 PM -0.21 31.622 0.162 7.27 2.7 14.15
2/5/2017 12:00:00 AM -0.21 31.622 0.162 7.25 2.9 14.15
2/5/2017 12:15:00 AM -0.21 31.622 0.162 7.27 3 14.14
2/5/2017 12:30:00 AM -0.21 31.622 0.162 7.25 2.7 14.14
2/5/2017 12:45:00 AM -0.21 31.622 0.162 7.26 2.8 14.13
2/5/2017 1:00:00 AM -0.21 31.622 0.162 7.26 2.6 14.13
2/5/2017 1:15:00 AM -0.21 31.622 0.162 7.26 2.6 14.12
2/5/2017 1:30:00 AM -0.21 31.622 0.163 7.26 2.6 14.11
2/5/2017 1:45:00 AM -0.21 31.622 0.163 7.25 2.7 14.12
2/5/2017 2:00:00 AM -0.21 31.622 0.163 7.26 2.7 14.1
2/5/2017 2:15:00 AM -0.21 31.622 0.163 7.25 2.6 14.1
2/5/2017 2:30:00 AM -0.21 31.622 0.163 7.25 2.3 14.09
2/5/2017 2:45:00 AM -0.21 31.622 0.163 7.25 2.6 14.09
2/5/2017 3:00:00 AM -0.22 31.604 0.163 7.28 2.6 14.07
2/5/2017 3:15:00 AM -0.21 31.622 0.163 7.25 2.6 14.07
2/5/2017 3:30:00 AM -0.21 31.622 0.163 7.26 2.6 14.07
2/5/2017 3:45:00 AM -0.21 31.622 0.163 7.24 2.4 14.06
2/5/2017 4:00:00 AM -0.21 31.622 0.163 7.26 2.4 14.06
2/5/2017 4:15:00 AM -0.21 31.622 0.163 7.24 2.5 14.05
2/5/2017 4:30:00 AM -0.21 31.622 0.163 7.24 2.6 14.06
2/5/2017 4:45:00 AM -0.21 31.622 0.162 7.24 2.4 14.04
2/5/2017 5:00:00 AM -0.21 31.622 0.162 7.24 2.5 14.03
2/5/2017 5:15:00 AM -0.21 31.622 0.161 7.25 2.6 14.03
2/5/2017 5:30:00 AM -0.21 31.622 0.161 7.24 2.6 14.04
2/5/2017 5:45:00 AM -0.21 31.622 0.16 7.25 2.5 14.02
2/5/2017 6:00:00 AM -0.2 31.64 0.16 7.26 2.3 14.02
2/5/2017 6:15:00 AM -0.2 31.64 0.16 7.26 2.3 14.01
2/5/2017 6:30:00 AM -0.21 31.622 0.159 7.25 2.2 14.02
2/5/2017 6:45:00 AM -0.21 31.622 0.159 7.28 2.4 14.02
2/5/2017 7:00:00 AM -0.21 31.622 0.159 7.25 2.4 14.01
2/5/2017 7:15:00 AM -0.2 31.64 0.159 7.24 2.4 14.01
2/5/2017 7:30:00 AM -0.2 31.64 0.159 7.25 2.5 14.01
2/5/2017 7:45:00 AM -0.2 31.64 0.159 7.26 2.3 14.03
2/5/2017 8:00:00 AM -0.2 31.64 0.159 7.27 2.5 14.1
2/5/2017 8:15:00 AM -0.19 31.658 0.159 7.28 2.5 14.2
2/5/2017 8:30:00 AM -0.19 31.658 0.159 7.32 2.5 14.34
2/5/2017 8:45:00 AM -0.18 31.676 0.16 7.35 2.6 14.49
2/5/2017 9:00:00 AM -0.18 31.676 0.16 7.39 2.5 14.63
2/5/2017 9:15:00 AM -0.16 31.712 0.16 7.42 2.5 14.75
2/5/2017 9:30:00 AM -0.16 31.712 0.16 7.47 2.6 14.85
2/5/2017 9:45:00 AM -0.17 31.694 0.16 7.52 2.5 14.92
2/5/2017 10:00:00 AM -0.17 31.694 0.16 7.55 2.6 14.92
2/5/2017 10:15:00 AM -0.17 31.694 0.16 7.57 2.4 14.93
2/5/2017 10:30:00 AM -0.16 31.712 0.16 7.6 2.7 14.89
2/5/2017 10:45:00 AM -0.13 31.766 0.16 7.6 2.6 14.93
2/5/2017 11:00:00 AM -0.14 31.748 0.16 7.62 3.1 14.97
2/5/2017 11:15:00 AM -0.11 31.802 0.16 7.65 2.7 15.02
2/5/2017 11:30:00 AM -0.08 31.856 0.159 7.67 2.5 15.03
2/5/2017 11:45:00 AM -0.07 31.874 0.159 7.7 2.6 15.05
2/5/2017 12:00:00 PM -0.02 31.964 0.159 7.76 2.4 15.07
2/5/2017 12:15:00 PM -0.03 31.946 0.158 7.74 2.7 15.06
2/5/2017 12:30:00 PM -0.04 31.928 0.158 7.75 2.5 15.04
2/5/2017 12:45:00 PM -0.05 31.91 0.158 7.74 2.6 15
2/5/2017 1:00:00 PM -0.06 31.892 0.158 7.76 2.6 14.95
2/5/2017 1:15:00 PM -0.07 31.874 0.158 7.72 2.5 14.93
2/5/2017 1:30:00 PM -0.08 31.856 0.157 7.71 2.4 14.93
2/5/2017 1:45:00 PM -0.07 31.874 0.157 7.71 2.5 14.93
2/5/2017 2:00:00 PM -0.06 31.892 0.157 7.72 2.4 14.95
2/5/2017 2:15:00 PM -0.06 31.892 0.157 7.76 2.8 14.97
2/5/2017 2:30:00 PM -0.05 31.91 0.157 7.74 2.6 14.96
2/5/2017 2:45:00 PM -0.07 31.874 0.156 7.75 2.6 14.94
2/5/2017 3:00:00 PM -0.06 31.892 0.156 7.73 2.8 14.91
2/5/2017 3:15:00 PM -0.07 31.874 0.156 7.73 2.8 14.89
2/5/2017 3:30:00 PM -0.07 31.874 0.156 7.71 2.6 14.87
2/5/2017 3:45:00 PM -0.07 31.874 0.156 7.71 2.6 14.84
2/5/2017 4:00:00 PM -0.08 31.856 0.156 7.68 2.8 14.8
2/5/2017 4:15:00 PM -0.09 31.838 0.156 7.67 2.9 14.75
2/5/2017 4:30:00 PM -0.09 31.838 0.156 7.63 2.8 14.69
2/5/2017 4:45:00 PM -0.1 31.82 0.156 7.61 3.1 14.63
2/5/2017 5:00:00 PM -0.11 31.802 0.156 7.58 2.9 14.54
2/5/2017 5:15:00 PM -0.11 31.802 0.156 7.55 2.8 14.46
2/5/2017 5:30:00 PM -0.12 31.784 0.156 7.5 2.9 14.36
2/5/2017 5:45:00 PM -0.13 31.766 0.156 7.49 3.1 14.27
2/5/2017 6:00:00 PM -0.14 31.748 0.155 7.46 2.8 14.21
2/5/2017 6:15:00 PM -0.13 31.766 0.155 7.4 2.8 14.15
2/5/2017 6:30:00 PM -0.13 31.766 0.155 7.37 2.7 14.11
2/5/2017 6:45:00 PM -0.13 31.766 0.156 7.36 2.8 14.07
2/5/2017 7:00:00 PM -0.12 31.784 0.156 7.36 2.6 14.04
2/5/2017 7:15:00 PM -0.12 31.784 0.156 7.35 2.6 14.02
2/5/2017 7:30:00 PM -0.11 31.802 0.157 7.32 2.8 14.02
2/5/2017 7:45:00 PM -0.11 31.802 0.157 7.32 2.8 13.99
2/5/2017 8:00:00 PM -0.1 31.82 0.157 7.31 2.7 13.98
2/5/2017 8:15:00 PM -0.09 31.838 0.157 7.3 2.9 13.97
2/5/2017 8:30:00 PM -0.08 31.856 0.157 7.31 2.9 13.97
2/5/2017 8:45:00 PM -0.08 31.856 0.157 7.31 2.8 13.96
2/5/2017 9:00:00 PM -0.07 31.874 0.157 7.3 3 13.94
2/5/2017 9:15:00 PM -0.06 31.892 0.158 7.33 2.9 13.95
2/5/2017 9:30:00 PM -0.05 31.91 0.158 7.29 2.9 13.95
2/5/2017 9:45:00 PM -0.06 31.892 0.158 7.32 2.9 13.94
2/5/2017 10:00:00 PM -0.04 31.928 0.158 7.29 2.7 13.93
2/5/2017 10:15:00 PM -0.04 31.928 0.158 7.3 2.9 13.94
2/5/2017 10:30:00 PM -0.03 31.946 0.158 7.29 2.4 13.93
2/5/2017 10:45:00 PM -0.03 31.946 0.158 7.29 2.7 13.94
2/5/2017 11:00:00 PM -0.02 31.964 0.158 7.28 2.7 13.94
2/5/2017 11:15:00 PM -0.02 31.964 0.159 7.3 3.1 13.94
2/5/2017 11:30:00 PM -0.01 31.982 0.159 7.28 2.7 13.94
2/5/2017 11:45:00 PM -0.01 31.982 0.159 7.28 2.7 13.93
2/6/2017 12:00:00 AM -0.01 31.982 0.159 7.28 2.9 13.95
2/6/2017 12:15:00 AM 0 32 0.159 7.28 2.7 13.94
2/6/2017 12:30:00 AM 0 32 0.159 7.28 2.8 13.94
2/6/2017 12:45:00 AM 0.01 32.018 0.159 7.28 2.9 13.93
2/6/2017 1:00:00 AM 0.01 32.018 0.159 7.28 2.6 13.95
2/6/2017 1:15:00 AM 0.01 32.018 0.159 7.28 2.7 13.94
2/6/2017 1:30:00 AM 0.01 32.018 0.158 7.31 2.9 13.94
2/6/2017 1:45:00 AM 0.02 32.036 0.157 7.29 2.8 13.94
2/6/2017 2:00:00 AM 0.02 32.036 0.156 7.28 5.1 13.94
2/6/2017 2:15:00 AM 0.02 32.036 0.156 7.29 2.7 13.95
2/6/2017 2:30:00 AM 0.02 32.036 0.155 7.28 2.4 13.95
2/6/2017 2:45:00 AM 0.01 32.018 0.155 7.29 2.4 13.96
2/6/2017 3:00:00 AM 0.01 32.018 0.155 7.29 2.7 13.96
2/6/2017 3:15:00 AM 0.01 32.018 0.155 7.29 2.3 13.96
2/6/2017 3:30:00 AM 0.01 32.018 0.155 7.29 4.4 13.97
2/6/2017 3:45:00 AM 0.01 32.018 0.155 7.28 2.6 13.98
2/6/2017 4:00:00 AM 0 32 0.155 7.29 2.7 13.98
2/6/2017 4:15:00 AM 0 32 0.155 7.28 2.9 13.98
2/6/2017 4:30:00 AM 0 32 0.156 7.29 2.8 13.99
2/6/2017 4:45:00 AM 0 32 0.157 7.29 2.6 13.99
2/6/2017 5:00:00 AM -0.01 31.982 0.158 7.29 2.5 13.99
2/6/2017 5:15:00 AM -0.02 31.964 0.159 7.31 2.5 13.99
2/6/2017 5:30:00 AM -0.01 31.982 0.159 7.28 2.5 14
2/6/2017 5:45:00 AM -0.01 31.982 0.159 7.28 2.4 14
2/6/2017 6:00:00 AM -0.02 31.964 0.159 7.29 2.5 14
2/6/2017 6:15:00 AM -0.04 31.928 0.16 7.29 2.5 14
2/6/2017 6:30:00 AM -0.06 31.892 0.16 7.29 2.4 14.01
2/6/2017 6:45:00 AM -0.09 31.838 0.16 7.28 2.6 14.01
2/6/2017 7:00:00 AM -0.1 31.82 0.16 7.28 2.3 14.03
2/6/2017 7:15:00 AM -0.12 31.784 0.16 7.29 2.5 14.06
2/6/2017 7:30:00 AM -0.12 31.784 0.16 7.29 2.5 14.07
2/6/2017 7:45:00 AM -0.12 31.784 0.16 7.29 2.5 14.12
2/6/2017 8:00:00 AM -0.09 31.838 0.16 7.32 2.7 14.23
2/6/2017 8:15:00 AM -0.09 31.838 0.16 7.34 2.5 14.33
2/6/2017 8:30:00 AM -0.07 31.874 0.159 7.36 2.4 14.48
2/6/2017 8:45:00 AM -0.04 31.928 0.158 7.41 2.6 14.6
2/6/2017 9:00:00 AM -0.02 31.964 0.157 7.47 2.3 14.72
2/6/2017 9:15:00 AM 0.04 32.072 0.156 7.49 2.5 14.84
2/6/2017 9:30:00 AM 0.1 32.18 0.155 7.53 2.8 14.93
2/6/2017 9:45:00 AM 0.14 32.252 0.155 7.56 2.4 14.98
2/6/2017 10:00:00 AM 0.18 32.324 0.155 7.6 2.4 15
2/6/2017 10:15:00 AM 0.24 32.432 0.154 7.63 2.3 15
2/6/2017 10:30:00 AM 0.32 32.576 0.154 7.68 2.3 15.02
2/6/2017 10:45:00 AM 0.43 32.774 0.154 7.72 2.3 15.03
2/6/2017 11:00:00 AM 0.54 32.972 0.153 7.74 2.3 15.03
2/6/2017 11:15:00 AM 0.64 33.152 0.154 7.77 2.3 15.03
2/6/2017 11:30:00 AM 0.73 33.314 0.155 7.84 2.3 15.03
2/6/2017 11:45:00 AM 0.81 33.458 0.155 7.84 2.4 15.03
2/6/2017 12:00:00 PM 0.85 33.53 0.156 7.85 2.4 14.98
2/6/2017 12:15:00 PM 0.96 33.728 0.156 7.88 2.5 14.95
2/6/2017 12:30:00 PM 1.1 33.98 0.156 7.88 2.3 14.91
2/6/2017 12:45:00 PM 1.19 34.142 0.156 7.93 2.5 14.88
2/6/2017 1:00:00 PM 1.31 34.358 0.156 7.92 2.3 14.82
2/6/2017 1:15:00 PM 1.43 34.574 0.156 7.94 2.4 14.78
2/6/2017 1:30:00 PM 1.58 34.844 0.156 7.96 2.7 14.75
2/6/2017 1:45:00 PM 1.68 35.024 0.156 7.98 2.3 14.73
2/6/2017 2:00:00 PM 1.77 35.186 0.156 7.99 2.6 14.69
2/6/2017 2:15:00 PM 1.82 35.276 0.156 8 2.6 14.64
2/6/2017 2:30:00 PM 1.88 35.384 0.156 8.03 2.4 14.6
2/6/2017 2:45:00 PM 1.92 35.456 0.156 8 2.8 14.57
2/6/2017 3:00:00 PM 1.95 35.51 0.155 8.01 2.4 14.54
2/6/2017 3:15:00 PM 1.99 35.582 0.155 8.01 2.6 14.52
2/6/2017 3:30:00 PM 2 35.6 0.155 8.01 2.5 14.49
2/6/2017 3:45:00 PM 2 35.6 0.155 8 2.6 14.46
2/6/2017 4:00:00 PM 2.01 35.618 0.155 7.99 2.4 14.42
2/6/2017 4:15:00 PM 2 35.6 0.155 7.96 2.6 14.38
2/6/2017 4:30:00 PM 1.96 35.528 0.156 7.96 2.6 14.32
2/6/2017 4:45:00 PM 1.91 35.438 0.156 7.9 2.8 14.25
2/6/2017 5:00:00 PM 1.84 35.312 0.156 7.84 2.5 14.14
2/6/2017 5:15:00 PM 1.76 35.168 0.156 7.75 2.8 14.02
2/6/2017 5:30:00 PM 1.7 35.06 0.157 7.67 3 13.9
2/6/2017 5:45:00 PM 1.65 34.97 0.157 7.61 2.9 13.77
2/6/2017 6:00:00 PM 1.58 34.844 0.157 7.55 3.3 13.67
2/6/2017 6:15:00 PM 1.56 34.808 0.157 7.49 3.3 13.59
2/6/2017 6:30:00 PM 1.53 34.754 0.157 7.47 3.6 13.54
2/6/2017 6:45:00 PM 1.48 34.664 0.157 7.44 3.9 13.51
2/6/2017 7:00:00 PM 1.44 34.592 0.157 7.42 4.5 13.5
2/6/2017 7:15:00 PM 1.38 34.484 0.157 7.39 4.4 13.49
2/6/2017 7:30:00 PM 1.32 34.376 0.158 7.38 5.6 13.51
2/6/2017 7:45:00 PM 1.26 34.268 0.158 7.36 5.6 13.51
2/6/2017 8:00:00 PM 1.19 34.142 0.157 7.35 5.6 13.53
2/6/2017 8:15:00 PM 1.12 34.016 0.158 7.37 5.2 13.55
2/6/2017 8:30:00 PM 1.07 33.926 0.158 7.33 4.6 13.56
2/6/2017 8:45:00 PM 1.03 33.854 0.158 7.32 5 13.59
2/6/2017 9:00:00 PM 0.98 33.764 0.158 7.32 4.2 13.6
2/6/2017 9:15:00 PM 0.94 33.692 0.158 7.32 4.1 13.61
2/6/2017 9:30:00 PM 0.89 33.602 0.158 7.31 4 13.64
2/6/2017 9:45:00 PM 0.85 33.53 0.158 7.31 4 13.64
2/6/2017 10:00:00 PM 0.81 33.458 0.158 7.31 3.9 13.66
2/6/2017 10:15:00 PM 0.77 33.386 0.158 7.31 3.7 13.68
2/6/2017 10:30:00 PM 0.72 33.296 0.158 7.31 3.7 13.7
2/6/2017 10:45:00 PM 0.68 33.224 0.158 7.29 3.4 13.71
2/6/2017 11:00:00 PM 0.64 33.152 0.158 7.3 3.6 13.72
2/6/2017 11:15:00 PM 0.6 33.08 0.158 7.29 3.4 13.74
2/6/2017 11:30:00 PM 0.56 33.008 0.158 7.3 3.4 13.74
2/6/2017 11:45:00 PM 0.53 32.954 0.158 7.29 3.6 13.75
2/7/2017 12:00:00 AM 0.5 32.9 0.158 7.31 3.7 13.77
2/7/2017 12:15:00 AM 0.48 32.864 0.158 7.28 3.4 13.77
2/7/2017 12:30:00 AM 0.44 32.792 0.158 7.28 3.4 13.78
2/7/2017 12:45:00 AM 0.4 32.72 0.158 7.27 3.4 13.79
2/7/2017 1:00:00 AM 0.37 32.666 0.158 7.3 3.3 13.79
2/7/2017 1:15:00 AM 0.33 32.594 0.158 7.28 3.5 13.81
2/7/2017 1:30:00 AM 0.29 32.522 0.158 7.28 3 13.82
2/7/2017 1:45:00 AM 0.26 32.468 0.158 7.28 3.1 13.83
2/7/2017 2:00:00 AM 0.24 32.432 0.158 7.28 3.3 13.83
2/7/2017 2:15:00 AM 0.24 32.432 0.158 7.27 5.4 13.84
2/7/2017 2:30:00 AM 0.25 32.45 0.158 7.28 3.2 13.84
2/7/2017 2:45:00 AM 0.27 32.486 0.158 7.28 3.1 13.84
2/7/2017 3:00:00 AM 0.29 32.522 0.158 7.28 3.4 13.84
2/7/2017 3:15:00 AM 0.31 32.558 0.158 7.28 3.3 13.83
2/7/2017 3:30:00 AM 0.32 32.576 0.159 7.28 2.9 13.82
2/7/2017 3:45:00 AM 0.33 32.594 0.158 7.3 2.8 13.83
2/7/2017 4:00:00 AM 0.35 32.63 0.158 7.28 2.9 13.81
2/7/2017 4:15:00 AM 0.36 32.648 0.158 7.28 2.8 13.81
2/7/2017 4:30:00 AM 0.37 32.666 0.157 7.28 2.8 13.8
2/7/2017 4:45:00 AM 0.39 32.702 0.157 7.3 2.7 13.8
2/7/2017 5:00:00 AM 0.4 32.72 0.156 7.27 3.4 13.79
2/7/2017 5:15:00 AM 0.42 32.756 0.155 7.28 2.6 13.78
2/7/2017 5:30:00 AM 0.43 32.774 0.155 7.27 2.5 13.78
2/7/2017 5:45:00 AM 0.44 32.792 0.155 7.28 2.7 13.77
2/7/2017 6:00:00 AM 0.46 32.828 0.154 7.3 2.7 13.76
2/7/2017 6:15:00 AM 0.48 32.864 0.154 7.28 2.4 13.75
2/7/2017 6:30:00 AM 0.5 32.9 0.154 7.28 2.5 13.74
2/7/2017 6:45:00 AM 0.51 32.918 0.154 7.27 2.7 13.75
2/7/2017 7:00:00 AM 0.53 32.954 0.154 7.28 2.5 13.74
2/7/2017 7:15:00 AM 0.55 32.99 0.154 7.28 2.4 13.72
2/7/2017 7:30:00 AM 0.56 33.008 0.154 7.3 2.5 13.72
2/7/2017 7:45:00 AM 0.58 33.044 0.154 7.29 2.5 13.73
2/7/2017 8:00:00 AM 0.6 33.08 0.154 7.3 2.5 13.76
2/7/2017 8:15:00 AM 0.63 33.134 0.155 7.29 2.6 13.8
2/7/2017 8:30:00 AM 0.65 33.17 0.156 7.31 2.4 13.86
2/7/2017 8:45:00 AM 0.68 33.224 0.157 7.33 2.6 13.93
2/7/2017 9:00:00 AM 0.72 33.296 0.157 7.36 2.4 14.02
2/7/2017 9:15:00 AM 0.75 33.35 0.158 7.37 2.4 14.08
2/7/2017 9:30:00 AM 0.78 33.404 0.158 7.39 2.4 14.16
2/7/2017 9:45:00 AM 0.82 33.476 0.157 7.43 2.7 14.21
2/7/2017 10:00:00 AM 0.85 33.53 0.156 7.45 2.5 14.27
2/7/2017 10:15:00 AM 0.89 33.602 0.155 7.48 2.5 14.35
2/7/2017 10:30:00 AM 0.93 33.674 0.155 7.52 2.4 14.39
2/7/2017 10:45:00 AM 0.98 33.764 0.155 7.54 2.5 14.44
2/7/2017 11:00:00 AM 1.01 33.818 0.155 7.58 2.5 14.47
2/7/2017 11:15:00 AM 1.03 33.854 0.154 7.62 2.5 14.47
2/7/2017 11:30:00 AM 1.08 33.944 0.153 7.62 2.5 14.48
2/7/2017 11:45:00 AM 1.11 33.998 0.153 7.63 2.6 14.51
2/7/2017 12:00:00 PM 1.15 34.07 0.153 7.65 2.7 14.51
2/7/2017 12:15:00 PM 1.18 34.124 0.153 7.67 2.9 14.5
2/7/2017 12:30:00 PM 1.21 34.178 0.153 7.7 3.1 14.49
2/7/2017 12:45:00 PM 1.23 34.214 0.153 7.71 2.9 14.45
2/7/2017 1:00:00 PM 1.26 34.268 0.153 7.69 2.8 14.43
2/7/2017 1:15:00 PM 1.3 34.34 0.153 7.69 2.7 14.4
2/7/2017 1:30:00 PM 1.33 34.394 0.154 7.69 3.3 14.4
2/7/2017 1:45:00 PM 1.35 34.43 0.154 7.7 3.7 14.38
2/7/2017 2:00:00 PM 1.35 34.43 0.153 7.7 3.6 14.32
2/7/2017 2:15:00 PM 1.35 34.43 0.154 7.67 3.6 14.25
2/7/2017 2:30:00 PM 1.35 34.43 0.154 7.65 3.6 14.16
2/7/2017 2:45:00 PM 1.36 34.448 0.154 7.62 4 14.15
2/7/2017 3:00:00 PM 1.36 34.448 0.155 7.64 5.2 14.16
2/7/2017 3:15:00 PM 1.36 34.448 0.155 7.61 5.3 14.12
2/7/2017 3:30:00 PM 1.35 34.43 0.155 7.58 6.3 14.04
2/7/2017 3:45:00 PM 1.34 34.412 0.155 7.56 5.4 13.98
2/7/2017 4:00:00 PM 1.34 34.412 0.156 7.54 6.1 13.95
2/7/2017 4:15:00 PM 1.33 34.394 0.158 7.53 6.8 13.93
2/7/2017 4:30:00 PM 1.34 34.412 0.159 7.53 9.6 13.96
2/7/2017 4:45:00 PM 1.33 34.394 0.16 7.5 9.1 13.91
2/7/2017 5:00:00 PM 1.31 34.358 0.159 7.48 9.2 13.84
2/7/2017 5:15:00 PM 1.25 34.25 0.157 7.46 9.9 13.76
2/7/2017 5:30:00 PM 1.19 34.142 0.154 7.42 9.7 13.71
2/7/2017 5:45:00 PM 1.11 33.998 0.152 7.39 9.7 13.65
2/7/2017 6:00:00 PM 1.03 33.854 0.15 7.35 9.9 13.64
2/7/2017 6:15:00 PM 0.96 33.728 0.148 7.33 10.9 13.62
2/7/2017 6:30:00 PM 0.89 33.602 0.147 7.31 10.6 13.62
2/7/2017 6:45:00 PM 0.81 33.458 0.145 7.32 10.8 13.64
2/7/2017 7:00:00 PM 0.76 33.368 0.146 7.27 9.3 13.65
2/7/2017 7:15:00 PM 0.7 33.26 0.147 7.26 12.3 13.66
2/7/2017 7:30:00 PM 0.64 33.152 0.147 7.25 12.3 13.69
2/7/2017 7:45:00 PM 0.58 33.044 0.148 7.23 12 13.71
2/7/2017 8:00:00 PM 0.53 32.954 0.15 7.25 12.7 13.73
2/7/2017 8:15:00 PM 0.49 32.882 0.151 7.24 14.5 13.75
2/7/2017 8:30:00 PM 0.46 32.828 0.152 7.26 14.6 13.77
2/7/2017 8:45:00 PM 0.43 32.774 0.154 7.23 16.1 13.79
2/7/2017 9:00:00 PM 0.42 32.756 0.155 7.22 16.7 13.8
2/7/2017 9:15:00 PM 0.41 32.738 0.157 7.24 18.8 13.8
2/7/2017 9:30:00 PM 0.38 32.684 0.16 7.22 20.7 13.81
2/7/2017 9:45:00 PM 0.37 32.666 0.161 7.22 20.5 13.81
2/7/2017 10:00:00 PM 0.38 32.684 0.16 7.24 22.1 13.82
2/7/2017 10:15:00 PM 0.38 32.684 0.158 7.22 24.6 13.82
2/7/2017 10:30:00 PM 0.37 32.666 0.157 7.25 24.5 13.83
2/7/2017 10:45:00 PM 0.38 32.684 0.155 7.22 26.6 13.82
2/7/2017 11:00:00 PM 0.37 32.666 0.154 7.21 28.8 13.83
2/7/2017 11:15:00 PM 0.35 32.63 0.153 7.22 29.6 13.83
2/7/2017 11:30:00 PM 0.34 32.612 0.152 7.21 31.9 13.84
2/7/2017 11:45:00 PM 0.34 32.612 0.151 7.21 34 13.86
2/8/2017 12:00:00 AM 0.33 32.594 0.15 7.2 37.4 13.85
2/8/2017 12:15:00 AM 0.33 32.594 0.148 7.19 41.5 13.86
2/8/2017 12:30:00 AM 0.33 32.594 0.147 7.18 40.7 13.86
2/8/2017 12:45:00 AM 0.34 32.612 0.146 7.18 44.6 13.86
2/8/2017 1:00:00 AM 0.35 32.63 0.145 7.2 50.3 13.86
2/8/2017 1:15:00 AM 0.37 32.666 0.144 7.19 50.4 13.85
2/8/2017 1:30:00 AM 0.4 32.72 0.143 7.19 46.3 13.85
2/8/2017 1:45:00 AM 0.42 32.756 0.141 7.18 49.2 13.85
2/8/2017 2:00:00 AM 0.42 32.756 0.14 7.19 53.7 13.84
2/8/2017 2:15:00 AM 0.43 32.774 0.139 7.2 54.2 13.84
2/8/2017 2:30:00 AM 0.45 32.81 0.138 7.18 53 13.83
2/8/2017 2:45:00 AM 0.46 32.828 0.137 7.16 57.6 13.82
2/8/2017 3:00:00 AM 0.43 32.774 0.135 7.17 59.9 13.82
2/8/2017 3:15:00 AM 0.43 32.774 0.134 7.15 60.2 13.83
2/8/2017 3:30:00 AM 0.45 32.81 0.134 7.16 55.9 13.81
2/8/2017 3:45:00 AM 0.48 32.864 0.133 7.15 57.6 13.81
2/8/2017 4:00:00 AM 0.51 32.918 0.132 7.14 54.8 13.81
2/8/2017 4:15:00 AM 0.56 33.008 0.131 7.17 56.9 13.8
2/8/2017 4:30:00 AM 0.6 33.08 0.13 7.14 55.6 13.77
2/8/2017 4:45:00 AM 0.63 33.134 0.13 7.14 60 13.77
2/8/2017 5:00:00 AM 0.68 33.224 0.129 7.14 51.5 13.75
2/8/2017 5:15:00 AM 0.74 33.332 0.128 7.14 46.8 13.73
2/8/2017 5:30:00 AM 0.82 33.476 0.128 7.14 49.1 13.71
2/8/2017 5:45:00 AM 0.89 33.602 0.127 7.12 48.1 13.7
2/8/2017 6:00:00 AM 0.94 33.692 0.127 7.16 44.7 13.69
2/8/2017 6:15:00 AM 1 33.8 0.126 7.14 49.2 13.66
2/8/2017 6:30:00 AM 1.06 33.908 0.126 7.14 45.3 13.65
2/8/2017 6:45:00 AM 1.1 33.98 0.126 7.13 38.6 13.65
2/8/2017 7:00:00 AM 1.14 34.052 0.125 7.14 40.9 13.63
2/8/2017 7:15:00 AM 1.17 34.106 0.125 7.13 35.8 13.62
2/8/2017 7:30:00 AM 1.2 34.16 0.125 7.13 34.4 13.61
2/8/2017 7:45:00 AM 1.24 34.232 0.125 7.13 32.8 13.6
2/8/2017 8:00:00 AM 1.26 34.268 0.125 7.12 31.8 13.6
2/8/2017 8:15:00 AM 1.28 34.304 0.125 7.14 31.6 13.59
2/8/2017 8:30:00 AM 1.31 34.358 0.125 7.14 34 13.62
2/8/2017 8:45:00 AM 1.34 34.412 0.125 7.14 29.7 13.62
2/8/2017 9:00:00 AM 1.35 34.43 0.124 7.14 27.6 13.63
2/8/2017 9:15:00 AM 1.37 34.466 0.124 7.15 27.6 13.64
2/8/2017 9:30:00 AM 1.4 34.52 0.124 7.18 25.9 13.67
2/8/2017 9:45:00 AM 1.43 34.574 0.124 7.19 27.5 13.7
2/8/2017 10:00:00 AM 1.49 34.682 0.124 7.16 26.5 13.73
2/8/2017 10:15:00 AM 1.55 34.79 0.124 7.17 25.6 13.75
2/8/2017 10:30:00 AM 1.62 34.916 0.124 7.19 27.4 13.79
2/8/2017 10:45:00 AM 1.67 35.006 0.124 7.2 26.7 13.78
2/8/2017 11:00:00 AM 1.71 35.078 0.124 7.22 23.1 13.79
2/8/2017 11:15:00 AM 1.78 35.204 0.124 7.23 24.2 13.79
2/8/2017 11:30:00 AM 1.86 35.348 0.124 7.23 24.6 13.8
2/8/2017 11:45:00 AM 1.94 35.492 0.124 7.26 26.8 13.82
2/8/2017 12:00:00 PM 2 35.6 0.124 7.26 28.2 13.8
2/8/2017 12:15:00 PM 2.07 35.726 0.124 7.26 25.2 13.78
2/8/2017 12:30:00 PM 2.13 35.834 0.124 7.27 25.3 13.78
2/8/2017 12:45:00 PM 2.2 35.96 0.124 7.28 22.8 13.74
2/8/2017 1:00:00 PM 2.26 36.068 0.124 7.28 23.8 13.73
2/8/2017 1:15:00 PM 2.3 36.14 0.124 7.28 23 13.71
2/8/2017 1:30:00 PM 2.35 36.23 0.124 7.32 22.4 13.7
2/8/2017 1:45:00 PM 2.38 36.284 0.124 7.3 23.4 13.67
2/8/2017 2:00:00 PM 2.43 36.374 0.124 7.3 23.9 13.63
2/8/2017 2:15:00 PM 2.46 36.428 0.124 7.31 23.6 13.64
2/8/2017 2:30:00 PM 2.49 36.482 0.124 7.31 23.5 13.63
2/8/2017 2:45:00 PM 2.52 36.536 0.124 7.31 22.7 13.59
2/8/2017 3:00:00 PM 2.53 36.554 0.124 7.3 22.2 13.56
2/8/2017 3:15:00 PM 2.53 36.554 0.124 7.29 21.4 13.58
2/8/2017 3:30:00 PM 2.54 36.572 0.124 7.3 21.1 13.58
2/8/2017 3:45:00 PM 2.53 36.554 0.124 7.29 19.9 13.54
2/8/2017 4:00:00 PM 2.52 36.536 0.124 7.29 19.5 13.52
2/8/2017 4:15:00 PM 2.51 36.518 0.124 7.28 18.3 13.47
2/8/2017 4:30:00 PM 2.49 36.482 0.124 7.26 17.1 13.47
2/8/2017 4:45:00 PM 2.46 36.428 0.124 7.26 16.1 13.44
2/8/2017 5:00:00 PM 2.42 36.356 0.124 7.24 16.8 13.41
2/8/2017 5:15:00 PM 2.36 36.248 0.125 7.24 16 13.38
2/8/2017 5:30:00 PM 2.33 36.194 0.125 7.21 15.7 13.35
2/8/2017 5:45:00 PM 2.29 36.122 0.125 7.2 15.5 13.32
2/8/2017 6:00:00 PM 2.24 36.032 0.125 7.18 15.1 13.31
2/8/2017 6:15:00 PM 2.18 35.924 0.125 7.18 12.7 13.3
2/8/2017 6:30:00 PM 2.14 35.852 0.126 7.17 13.5 13.31
2/8/2017 6:45:00 PM 2.09 35.762 0.126 7.15 12.8 13.32
2/8/2017 7:00:00 PM 2.04 35.672 0.126 7.15 12.8 13.32
2/8/2017 7:15:00 PM 2.01 35.618 0.126 7.15 11.6 13.33
2/8/2017 7:30:00 PM 1.96 35.528 0.126 7.15 12.4 13.34
2/8/2017 7:45:00 PM 1.92 35.456 0.127 7.14 12.7 13.36
2/8/2017 8:00:00 PM 1.88 35.384 0.127 7.13 11.9 13.37
2/8/2017 8:15:00 PM 1.84 35.312 0.127 7.15 12.2 13.38
2/8/2017 8:30:00 PM 1.79 35.222 0.127 7.14 11.6 13.4
2/8/2017 8:45:00 PM 1.75 35.15 0.127 7.14 10.9 13.41
2/8/2017 9:00:00 PM 1.7 35.06 0.128 7.16 11.1 13.43
2/8/2017 9:15:00 PM 1.67 35.006 0.128 7.12 10.8 13.44
2/8/2017 9:30:00 PM 1.62 34.916 0.128 7.13 11 13.45
2/8/2017 9:45:00 PM 1.58 34.844 0.128 7.13 9.6 13.46
2/8/2017 10:00:00 PM 1.54 34.772 0.129 7.14 11.1 13.48
2/8/2017 10:15:00 PM 1.51 34.718 0.129 7.13 8.9 13.48
2/8/2017 10:30:00 PM 1.47 34.646 0.129 7.12 8.9 13.5
2/8/2017 10:45:00 PM 1.43 34.574 0.129 7.13 9.4 13.52
2/8/2017 11:00:00 PM 1.39 34.502 0.129 7.13 8.7 13.53
2/8/2017 11:15:00 PM 1.34 34.412 0.129 7.13 10 13.53
2/8/2017 11:30:00 PM 1.28 34.304 0.13 7.12 9.4 13.55
2/8/2017 11:45:00 PM 1.22 34.196 0.13 7.13 9.3 13.56
2/9/2017 12:00:00 AM 1.16 34.088 0.13 7.12 9 13.58
2/9/2017 12:15:00 AM 1.11 33.998 0.13 7.12 8.3 13.6
2/9/2017 12:30:00 AM 1.02 33.836 0.13 7.13 9.2 13.62
2/9/2017 12:45:00 AM 0.89 33.602 0.13 7.15 8.6 13.65
2/9/2017 1:00:00 AM 0.74 33.332 0.13 7.12 8.1 13.68
2/9/2017 1:15:00 AM 0.63 33.134 0.13 7.12 8 13.71
2/9/2017 1:30:00 AM 0.48 32.864 0.13 7.13 8.2 13.75
2/9/2017 1:45:00 AM 0.32 32.576 0.13 7.12 8.2 13.78
2/9/2017 2:00:00 AM 0.13 32.234 0.13 7.12 7.7 13.82
2/9/2017 2:15:00 AM -0.06 31.892 0.13 7.13 8.1 13.9
2/9/2017 2:30:00 AM -0.21 31.622 0.13 7.12 8.3 13.96
2/9/2017 2:45:00 AM -0.22 31.604 0.129 7.14 63.6 14.07
2/9/2017 3:00:00 AM -0.22 31.604 0.13 7.12 182.4 14.1
2/9/2017 3:15:00 AM -0.22 31.604 0.129 7.14 156.4 14.11
2/9/2017 3:30:00 AM -0.22 31.604 0.129 7.12 163.9 14.13
2/9/2017 3:45:00 AM -0.22 31.604 0.13 7.14 167.7 14.14
2/9/2017 4:00:00 AM -0.22 31.604 0.13 7.13 167.8 14.15
2/9/2017 4:15:00 AM -0.22 31.604 0.13 7.14 172.4 14.14
2/9/2017 4:30:00 AM -0.23 31.586 0.131 7.16 18.1 14.13
2/9/2017 4:45:00 AM -0.22 31.604 0.131 7.12 19.3 14.12
2/9/2017 5:00:00 AM -0.22 31.604 0.131 7.14 19.7 14.13
2/9/2017 5:15:00 AM -0.22 31.604 0.13 7.14 19 14.12
2/9/2017 5:30:00 AM -0.22 31.604 0.131 7.13 19.4 14.13
2/9/2017 5:45:00 AM -0.22 31.604 0.131 7.14 19.5 14.13
2/9/2017 6:00:00 AM -0.22 31.604 0.131 7.14 19.4 14.13
2/9/2017 6:15:00 AM -0.22 31.604 0.131 7.15 19.1 14.12
2/9/2017 6:30:00 AM -0.22 31.604 0.132 7.14 19.8 14.13
2/9/2017 6:45:00 AM -0.22 31.604 0.132 7.14 19.6 14.13
2/9/2017 7:00:00 AM -0.22 31.604 0.132 7.15 19.6 14.13
2/9/2017 7:15:00 AM -0.22 31.604 0.132 7.13 19.8 14.14
2/9/2017 7:30:00 AM -0.22 31.604 0.132 7.14 18.9 14.15
2/9/2017 7:45:00 AM -0.22 31.604 0.131 7.13 18.2 14.17
2/9/2017 8:00:00 AM -0.22 31.604 0.132 7.13 17.9 14.23
2/9/2017 8:15:00 AM -0.22 31.604 0.134 7.19 9.8 14.27
2/9/2017 8:30:00 AM -0.21 31.622 0.134 7.16 6.8 14.35
2/9/2017 8:45:00 AM -0.21 31.622 0.134 7.17 5.7 14.38
2/9/2017 9:00:00 AM -0.21 31.622 0.134 7.19 6.2 14.42
2/9/2017 9:15:00 AM -0.22 31.604 0.134 7.21 5.9 14.45
2/9/2017 9:30:00 AM -0.22 31.604 0.134 7.23 6.1 14.46
2/9/2017 9:45:00 AM -0.22 31.604 0.133 7.24 9.4 14.5
2/9/2017 10:00:00 AM -0.21 31.622 0.133 7.25 57.1 14.54
2/9/2017 10:15:00 AM -0.21 31.622 0.133 7.27 11.6 14.59
2/9/2017 10:30:00 AM -0.2 31.64 0.133 7.28 8 14.61
2/9/2017 10:45:00 AM -0.19 31.658 0.133 7.29 6.1 14.65
2/9/2017 11:00:00 AM -0.19 31.658 0.133 7.3 6.1 14.67
2/9/2017 11:15:00 AM -0.15 31.73 0.133 7.33 6 14.69
2/9/2017 11:30:00 AM -0.14 31.748 0.132 7.33 6.3 14.72
2/9/2017 11:45:00 AM -0.09 31.838 0.132 7.35 6 14.7
2/9/2017 12:00:00 PM -0.07 31.874 0.132 7.38 6.1 14.72
2/9/2017 12:15:00 PM -0.02 31.964 0.132 7.36 6.1 14.72
2/9/2017 12:30:00 PM -0.05 31.91 0.132 7.37 5.9 14.71
2/9/2017 12:45:00 PM -0.06 31.892 0.132 7.38 6 14.71
2/9/2017 1:00:00 PM -0.07 31.874 0.132 7.38 6.4 14.72
2/9/2017 1:15:00 PM -0.02 31.964 0.132 7.38 5.8 14.72
2/9/2017 1:30:00 PM 0.03 32.054 0.131 7.4 6.7 14.71
2/9/2017 1:45:00 PM 0.14 32.252 0.13 7.44 6 14.69
2/9/2017 2:00:00 PM 0.2 32.36 0.13 7.41 6 14.67
2/9/2017 2:15:00 PM 0.26 32.468 0.13 7.41 6 14.65
2/9/2017 2:30:00 PM 0.31 32.558 0.13 7.41 5.6 14.64
2/9/2017 2:45:00 PM 0.28 32.504 0.131 7.42 6.2 14.61
2/9/2017 3:00:00 PM 0.29 32.522 0.131 7.4 5.9 14.6
2/9/2017 3:15:00 PM 0.23 32.414 0.131 7.41 5.6 14.61
2/9/2017 3:30:00 PM 0.17 32.306 0.131 7.41 5.5 14.61
2/9/2017 3:45:00 PM 0.2 32.36 0.131 7.43 5.9 14.63
2/9/2017 4:00:00 PM 0.22 32.396 0.131 7.4 6 14.64
2/9/2017 4:15:00 PM 0.2 32.36 0.131 7.4 6 14.63
2/9/2017 4:30:00 PM 0.12 32.216 0.131 7.39 5.7 14.58
2/9/2017 4:45:00 PM 0.07 32.126 0.131 7.36 6.5 14.56
2/9/2017 5:00:00 PM 0 32 0.132 7.35 5.9 14.5
2/9/2017 5:15:00 PM -0.09 31.838 0.132 7.32 5.5 14.45
2/9/2017 5:30:00 PM -0.17 31.694 0.132 7.3 5.9 14.42
2/9/2017 5:45:00 PM -0.24 31.568 0.133 7.27 5.7 14.37
2/9/2017 6:00:00 PM -0.23 31.586 0.134 7.26 6.2 14.37
2/9/2017 6:15:00 PM -0.22 31.604 0.111 7.25 9.3 14.36
2/9/2017 6:30:00 PM -0.22 31.604 0.111 7.23 10.2 14.33
2/9/2017 6:45:00 PM -0.22 31.604 0.111 7.21 11.6 14.34
2/9/2017 7:00:00 PM -0.22 31.604 0.112 7.21 9.8 14.31
2/9/2017 7:15:00 PM -0.22 31.604 0.113 7.2 11 14.31
2/9/2017 7:30:00 PM -0.23 31.586 0.113 7.21 8.1 14.31
2/9/2017 7:45:00 PM -0.22 31.604 0.114 7.18 7.6 14.3
2/9/2017 8:00:00 PM -0.22 31.604 0.114 7.19 7.6 14.3
2/9/2017 8:15:00 PM -0.22 31.604 0.115 7.18 7.5 14.29
2/9/2017 8:30:00 PM -0.22 31.604 0.115 7.17 7.1 14.29
2/9/2017 8:45:00 PM -0.22 31.604 0.115 7.16 7.8 14.29
2/9/2017 9:00:00 PM -0.22 31.604 0.116 7.17 7.6 14.3
2/9/2017 9:15:00 PM -0.22 31.604 0.116 7.17 7.5 14.29
2/9/2017 9:30:00 PM -0.22 31.604 0.116 7.17 6.7 14.3
2/9/2017 9:45:00 PM -0.22 31.604 0.116 7.17 7.2 14.3
2/9/2017 10:00:00 PM -0.22 31.604 0.117 7.16 7.2 14.29
2/9/2017 10:15:00 PM -0.22 31.604 0.117 7.16 7 14.29
2/9/2017 10:30:00 PM -0.22 31.604 0.117 7.17 6.8 14.28
2/9/2017 10:45:00 PM -0.22 31.604 0.118 7.16 6.1 14.28
2/9/2017 11:00:00 PM -0.22 31.604 0.118 7.17 6.9 14.28
2/9/2017 11:15:00 PM -0.23 31.586 0.118 7.2 7.1 14.28
2/9/2017 11:30:00 PM -0.22 31.604 0.119 7.18 6 14.3
2/9/2017 11:45:00 PM -0.22 31.604 0.119 7.18 6 14.28
2/10/2017 12:00:00 AM -0.22 31.604 0.12 7.18 5.9 14.29
2/10/2017 12:15:00 AM -0.22 31.604 0.12 7.18 5.7 14.3
2/10/2017 12:30:00 AM -0.22 31.604 0.12 7.17 5.7 14.3
2/10/2017 12:45:00 AM -0.22 31.604 0.12 7.17 5.7 14.29
2/10/2017 1:00:00 AM -0.22 31.604 0.12 7.18 5.4 14.28
2/10/2017 1:15:00 AM -0.22 31.604 0.119 7.18 5.6 14.28
2/10/2017 1:30:00 AM -0.22 31.604 0.119 7.18 5.6 14.28
2/10/2017 1:45:00 AM -0.22 31.604 0.119 7.17 5.5 14.3
2/10/2017 2:00:00 AM -0.22 31.604 0.119 7.18 5.7 14.29
2/10/2017 2:15:00 AM -0.22 31.604 0.119 7.18 5.5 14.29
2/10/2017 2:30:00 AM -0.22 31.604 0.119 7.18 5.7 14.29
2/10/2017 2:45:00 AM -0.22 31.604 0.119 7.17 5.5 14.3
2/10/2017 3:00:00 AM -0.23 31.586 0.119 7.2 5.6 14.29
2/10/2017 3:15:00 AM -0.22 31.604 0.12 7.17 5.4 14.29
2/10/2017 3:30:00 AM -0.22 31.604 0.12 7.18 5.5 14.28
2/10/2017 3:45:00 AM -0.22 31.604 0.121 7.18 5.3 14.3
2/10/2017 4:00:00 AM -0.22 31.604 0.121 7.17 5.5 14.3
2/10/2017 4:15:00 AM -0.22 31.604 0.121 7.18 5.5 14.3
2/10/2017 4:30:00 AM -0.22 31.604 0.121 7.18 5.3 14.31
2/10/2017 4:45:00 AM -0.22 31.604 0.121 7.17 5.3 14.3
2/10/2017 5:00:00 AM -0.22 31.604 0.121 7.17 5.5 14.31
2/10/2017 5:15:00 AM -0.22 31.604 0.121 7.18 5.5 14.31
2/10/2017 5:30:00 AM -0.22 31.604 0.121 7.17 5.4 14.31
2/10/2017 5:45:00 AM -0.22 31.604 0.121 7.18 5.3 14.31
2/10/2017 6:00:00 AM -0.22 31.604 0.12 7.16 5.3 14.32
2/10/2017 6:15:00 AM -0.22 31.604 0.12 7.16 5.3 14.31
2/10/2017 6:30:00 AM -0.22 31.604 0.12 7.17 5.3 14.31
2/10/2017 6:45:00 AM -0.23 31.586 0.12 7.19 5.4 14.3
2/10/2017 7:00:00 AM -0.22 31.604 0.12 7.17 5.2 14.32
2/10/2017 7:15:00 AM -0.22 31.604 0.12 7.16 5.1 14.32
2/10/2017 7:30:00 AM -0.22 31.604 0.12 7.16 5.1 14.34
2/10/2017 7:45:00 AM -0.22 31.604 0.12 7.18 5.2 14.36
2/10/2017 8:00:00 AM -0.22 31.604 0.12 7.18 5.2 14.41
2/10/2017 8:15:00 AM -0.22 31.604 0.12 7.19 5.2 14.46
2/10/2017 8:30:00 AM -0.22 31.604 0.12 7.21 5.1 14.49
2/10/2017 8:45:00 AM -0.22 31.604 0.12 7.22 5 14.54
2/10/2017 9:00:00 AM -0.22 31.604 0.12 7.23 4.9 14.59
2/10/2017 9:15:00 AM -0.22 31.604 0.12 7.23 5 14.65
2/10/2017 9:30:00 AM -0.22 31.604 0.12 7.25 5.1 14.7
2/10/2017 9:45:00 AM -0.22 31.604 0.12 7.28 5.1 14.74
2/10/2017 10:00:00 AM -0.22 31.604 0.12 7.29 5.3 14.77
2/10/2017 10:15:00 AM -0.22 31.604 0.121 7.32 5.2 14.8
2/10/2017 10:30:00 AM -0.23 31.586 0.121 7.36 5.4 14.82
2/10/2017 10:45:00 AM -0.22 31.604 0.121 7.35 5.4 14.86
2/10/2017 11:00:00 AM -0.22 31.604 0.121 7.36 5.2 14.86
2/10/2017 11:15:00 AM -0.22 31.604 0.121 7.37 5.6 14.89
2/10/2017 11:30:00 AM -0.22 31.604 0.121 7.39 5.4 14.9
2/10/2017 11:45:00 AM -0.22 31.604 0.121 7.41 5.5 14.9
2/10/2017 12:00:00 PM -0.22 31.604 0.121 7.42 5.6 14.91
2/10/2017 12:15:00 PM -0.22 31.604 0.12 7.43 5.5 14.91
2/10/2017 12:30:00 PM -0.22 31.604 0.12 7.44 5.9 14.9
2/10/2017 12:45:00 PM -0.22 31.604 0.119 7.45 6.2 14.9
2/10/2017 1:00:00 PM -0.22 31.604 0.119 7.44 6.3 14.89
2/10/2017 1:15:00 PM -0.22 31.604 0.119 7.47 7.3 14.91
2/10/2017 1:30:00 PM -0.22 31.604 0.118 7.44 7.6 14.9
2/10/2017 1:45:00 PM -0.22 31.604 0.119 7.44 8.7 14.91
2/10/2017 2:00:00 PM -0.22 31.604 0.119 7.44 9 14.9
2/10/2017 2:15:00 PM -0.23 31.586 0.119 7.47 10.1 14.9
2/10/2017 2:30:00 PM -0.22 31.604 0.119 7.43 10.2 14.93
2/10/2017 2:45:00 PM -0.22 31.604 0.119 7.41 11.7 14.89
2/10/2017 3:00:00 PM -0.21 31.622 0.127 7.4 10 14.89
2/10/2017 3:15:00 PM -0.2 31.64 0.131 7.43 12.3 14.86
2/10/2017 3:30:00 PM -0.19 31.658 0.134 7.42 6.4 14.86
2/10/2017 3:45:00 PM -0.19 31.658 0.134 7.41 6.1 14.84
2/10/2017 4:00:00 PM -0.2 31.64 0.134 7.38 5.9 14.81
2/10/2017 4:15:00 PM -0.19 31.658 0.134 7.37 6.5 14.78
2/10/2017 4:30:00 PM -0.2 31.64 0.134 7.37 6.2 14.74
2/10/2017 4:45:00 PM -0.2 31.64 0.134 7.35 5.5 14.69
2/10/2017 5:00:00 PM -0.21 31.622 0.134 7.33 5.7 14.62
2/10/2017 5:15:00 PM -0.21 31.622 0.134 7.31 5.5 14.57
2/10/2017 5:30:00 PM -0.22 31.604 0.134 7.27 5.2 14.53
2/10/2017 5:45:00 PM -0.22 31.604 0.134 7.27 6.3 14.46
2/10/2017 6:00:00 PM -0.23 31.586 0.135 7.27 5.8 14.41
2/10/2017 6:15:00 PM -0.22 31.604 0.135 7.22 5.9 14.36
2/10/2017 6:30:00 PM -0.22 31.604 0.135 7.21 5.8 14.34
2/10/2017 6:45:00 PM -0.22 31.604 0.135 7.2 5.5 14.31
2/10/2017 7:00:00 PM -0.22 31.604 0.135 7.2 12.1 14.31
2/10/2017 7:15:00 PM -0.22 31.604 0.133 7.18 87.8 14.29
2/10/2017 7:30:00 PM -0.22 31.604 0.135 7.17 21 14.27
2/10/2017 7:45:00 PM -0.22 31.604 0.134 7.19 9.3 14.25
2/10/2017 8:00:00 PM -0.22 31.604 0.136 7.18 9.8 14.25
2/10/2017 8:15:00 PM -0.22 31.604 0.135 7.16 5.6 14.25
2/10/2017 8:30:00 PM -0.22 31.604 0.135 7.15 5.4 14.23
2/10/2017 8:45:00 PM -0.21 31.622 0.135 7.15 4.8 14.22
2/10/2017 9:00:00 PM -0.21 31.622 0.135 7.16 4.8 14.22
2/10/2017 9:15:00 PM -0.22 31.604 0.135 7.15 4.5 14.22
2/10/2017 9:30:00 PM -0.21 31.622 0.135 7.16 4.8 14.22
2/10/2017 9:45:00 PM -0.22 31.604 0.135 7.18 4.9 14.21
2/10/2017 10:00:00 PM -0.21 31.622 0.135 7.15 4.8 14.21
2/10/2017 10:15:00 PM -0.21 31.622 0.136 7.16 4.8 14.19
2/10/2017 10:30:00 PM -0.21 31.622 0.137 7.17 4.6 14.19
2/10/2017 10:45:00 PM -0.21 31.622 0.137 7.16 5.3 14.17
2/10/2017 11:00:00 PM -0.21 31.622 0.137 7.15 4.8 14.18
2/10/2017 11:15:00 PM -0.21 31.622 0.137 7.15 4.3 14.17
2/10/2017 11:30:00 PM -0.21 31.622 0.137 7.15 4.5 14.17
2/10/2017 11:45:00 PM -0.21 31.622 0.137 7.15 4.3 14.16
2/11/2017 12:00:00 AM -0.21 31.622 0.138 7.15 4.5 14.15
2/11/2017 12:15:00 AM -0.21 31.622 0.138 7.15 4.5 14.14
2/11/2017 12:30:00 AM -0.21 31.622 0.138 7.16 4.3 14.16
2/11/2017 12:45:00 AM -0.21 31.622 0.138 7.16 4.8 14.15
2/11/2017 1:00:00 AM -0.21 31.622 0.138 7.15 4.4 14.14
2/11/2017 1:15:00 AM -0.2 31.64 0.138 7.16 5 14.14
2/11/2017 1:30:00 AM -0.21 31.622 0.138 7.18 4.3 14.14
2/11/2017 1:45:00 AM -0.2 31.64 0.137 7.15 5.3 14.14
2/11/2017 2:00:00 AM -0.2 31.64 0.137 7.16 4.3 14.13
2/11/2017 2:15:00 AM -0.2 31.64 0.136 7.15 4.2 14.12
2/11/2017 2:30:00 AM -0.2 31.64 0.136 7.16 4.5 14.13
2/11/2017 2:45:00 AM -0.2 31.64 0.136 7.16 4.1 14.12
2/11/2017 3:00:00 AM -0.2 31.64 0.136 7.15 4.4 14.12
2/11/2017 3:15:00 AM -0.19 31.658 0.136 7.14 5.1 14.11
2/11/2017 3:30:00 AM -0.19 31.658 0.136 7.15 4.4 14.12
2/11/2017 3:45:00 AM -0.19 31.658 0.136 7.18 4.6 14.11
2/11/2017 4:00:00 AM -0.19 31.658 0.136 7.16 4.6 14.11
2/11/2017 4:15:00 AM -0.19 31.658 0.136 7.15 4.2 14.1
2/11/2017 4:30:00 AM -0.19 31.658 0.136 7.16 4.2 14.1
2/11/2017 4:45:00 AM -0.19 31.658 0.136 7.16 4.3 14.09
2/11/2017 5:00:00 AM -0.19 31.658 0.137 7.15 4.4 14.11
2/11/2017 5:15:00 AM -0.2 31.64 0.137 7.18 4.5 14.09
2/11/2017 5:30:00 AM -0.19 31.658 0.137 7.15 4.5 14.1
2/11/2017 5:45:00 AM -0.2 31.64 0.137 7.18 4.6 14.09
2/11/2017 6:00:00 AM -0.2 31.64 0.138 7.19 4.5 14.11
2/11/2017 6:15:00 AM -0.21 31.622 0.138 7.16 4.7 14.08
2/11/2017 6:30:00 AM -0.21 31.622 0.138 7.16 4.2 14.08
2/11/2017 6:45:00 AM -0.21 31.622 0.138 7.14 4.3 14.09
2/11/2017 7:00:00 AM -0.2 31.64 0.138 7.14 4.5 14.1
2/11/2017 7:15:00 AM -0.2 31.64 0.138 7.19 4.4 14.09
2/11/2017 7:30:00 AM -0.2 31.64 0.137 7.2 4.1 14.12
2/11/2017 7:45:00 AM -0.19 31.658 0.137 7.18 4.3 14.17
2/11/2017 8:00:00 AM -0.2 31.64 0.136 7.19 4.2 14.24
2/11/2017 8:15:00 AM -0.19 31.658 0.136 7.2 4.2 14.31
2/11/2017 8:30:00 AM -0.16 31.712 0.136 7.22 4.3 14.42
2/11/2017 8:45:00 AM -0.13 31.766 0.135 7.25 4.3 14.5
2/11/2017 9:00:00 AM -0.12 31.784 0.135 7.29 4.4 14.55
2/11/2017 9:15:00 AM -0.08 31.856 0.135 7.3 4.7 14.61
2/11/2017 9:30:00 AM -0.05 31.91 0.135 7.32 4.6 14.65
2/11/2017 9:45:00 AM -0.02 31.964 0.135 7.33 4.5 14.69
2/11/2017 10:00:00 AM 0.02 32.036 0.135 7.37 4.4 14.71
2/11/2017 10:15:00 AM 0.08 32.144 0.135 7.42 4.5 14.73
2/11/2017 10:30:00 AM 0.13 32.234 0.135 7.4 4.8 14.73
2/11/2017 10:45:00 AM 0.19 32.342 0.135 7.43 4.5 14.74
2/11/2017 11:00:00 AM 0.25 32.45 0.136 7.45 4.6 14.73
2/11/2017 11:15:00 AM 0.33 32.594 0.136 7.47 4.2 14.71
2/11/2017 11:30:00 AM 0.4 32.72 0.136 7.48 4.2 14.71
2/11/2017 11:45:00 AM 0.49 32.882 0.136 7.5 4.3 14.66
2/11/2017 12:00:00 PM 0.57 33.026 0.136 7.5 4.4 14.65
2/11/2017 12:15:00 PM 0.67 33.206 0.136 7.51 4.5 14.62
2/11/2017 12:30:00 PM 0.74 33.332 0.136 7.53 4.4 14.6
2/11/2017 12:45:00 PM 0.8 33.44 0.135 7.56 4.3 14.56
2/11/2017 1:00:00 PM 0.88 33.584 0.135 7.54 4.1 14.54
2/11/2017 1:15:00 PM 0.97 33.746 0.135 7.54 4.4 14.51
2/11/2017 1:30:00 PM 1.07 33.926 0.135 7.56 4.5 14.49
2/11/2017 1:45:00 PM 1.17 34.106 0.135 7.56 4.3 14.47
2/11/2017 2:00:00 PM 1.22 34.196 0.135 7.56 4.2 14.45
2/11/2017 2:15:00 PM 1.25 34.25 0.135 7.55 4.3 14.43
2/11/2017 2:30:00 PM 1.29 34.322 0.134 7.56 4.5 14.44
2/11/2017 2:45:00 PM 1.32 34.376 0.134 7.55 4.8 14.4
2/11/2017 3:00:00 PM 1.34 34.412 0.134 7.55 4.5 14.37
2/11/2017 3:15:00 PM 1.39 34.502 0.134 7.55 4.9 14.37
2/11/2017 3:30:00 PM 1.41 34.538 0.134 7.56 4.5 14.38
2/11/2017 3:45:00 PM 1.42 34.556 0.134 7.55 5.1 14.37
2/11/2017 4:00:00 PM 1.42 34.556 0.134 7.56 4.5 14.36
2/11/2017 4:15:00 PM 1.39 34.502 0.134 7.54 4.7 14.32
2/11/2017 4:30:00 PM 1.34 34.412 0.133 7.54 4.9 14.28
2/11/2017 4:45:00 PM 1.32 34.376 0.132 7.49 4.9 14.26
2/11/2017 5:00:00 PM 1.29 34.322 0.132 7.47 4.8 14.22
2/11/2017 5:15:00 PM 1.24 34.232 0.132 7.43 5 14.14
2/11/2017 5:30:00 PM 1.19 34.142 0.132 7.4 4.8 14.05
2/11/2017 5:45:00 PM 1.14 34.052 0.133 7.36 4.7 13.96
2/11/2017 6:00:00 PM 1.09 33.962 0.133 7.31 4.8 13.9
2/11/2017 6:15:00 PM 1.05 33.89 0.134 7.28 4.7 13.88
2/11/2017 6:30:00 PM 1.01 33.818 0.135 7.27 5 13.85
2/11/2017 6:45:00 PM 0.98 33.764 0.135 7.25 5.5 13.83
2/11/2017 7:00:00 PM 0.95 33.71 0.135 7.22 5.3 13.83
2/11/2017 7:15:00 PM 0.91 33.638 0.135 7.22 5.5 13.81
2/11/2017 7:30:00 PM 0.89 33.602 0.135 7.21 5.2 13.82
2/11/2017 7:45:00 PM 0.86 33.548 0.135 7.21 5 13.82
2/11/2017 8:00:00 PM 0.84 33.512 0.135 7.19 4.8 13.83
2/11/2017 8:15:00 PM 0.8 33.44 0.135 7.21 4.6 13.84
2/11/2017 8:30:00 PM 0.79 33.422 0.135 7.17 5.1 13.84
2/11/2017 8:45:00 PM 0.77 33.386 0.135 7.18 4.8 13.85
2/11/2017 9:00:00 PM 0.76 33.368 0.135 7.18 4.4 13.85
2/11/2017 9:15:00 PM 0.75 33.35 0.135 7.16 4.3 13.87
2/11/2017 9:30:00 PM 0.73 33.314 0.135 7.16 4.5 13.87
2/11/2017 9:45:00 PM 0.73 33.314 0.135 7.15 5.4 13.88
2/11/2017 10:00:00 PM 0.72 33.296 0.135 7.19 5 13.88
2/11/2017 10:15:00 PM 0.72 33.296 0.135 7.15 5.7 13.87
2/11/2017 10:30:00 PM 0.72 33.296 0.135 7.18 4.6 13.88
2/11/2017 10:45:00 PM 0.72 33.296 0.135 7.16 4.5 13.87
2/11/2017 11:00:00 PM 0.72 33.296 0.135 7.14 4.4 13.87
2/11/2017 11:15:00 PM 0.72 33.296 0.134 7.14 5.3 13.87
2/11/2017 11:30:00 PM 0.71 33.278 0.133 7.14 4.8 13.88
2/11/2017 11:45:00 PM 0.71 33.278 0.133 7.14 4.6 13.88
2/12/2017 12:00:00 AM 0.71 33.278 0.133 7.17 4.6 13.87
2/12/2017 12:15:00 AM 0.71 33.278 0.133 7.14 4.4 13.87
2/12/2017 12:30:00 AM 0.7 33.26 0.133 7.15 4.5 13.87
2/12/2017 12:45:00 AM 0.7 33.26 0.133 7.15 4.7 13.88
2/12/2017 1:00:00 AM 0.7 33.26 0.133 7.14 4.8 13.87
2/12/2017 1:15:00 AM 0.71 33.278 0.133 7.13 4.5 13.87
2/12/2017 1:30:00 AM 0.71 33.278 0.133 7.15 4.5 13.87
2/12/2017 1:45:00 AM 0.72 33.296 0.134 7.14 4.6 13.86
2/12/2017 2:00:00 AM 0.73 33.314 0.135 7.14 4.5 13.87
2/12/2017 2:15:00 AM 0.73 33.314 0.136 7.14 4.3 13.85
2/12/2017 2:30:00 AM 0.74 33.332 0.136 7.14 4.3 13.85
2/12/2017 2:45:00 AM 0.75 33.35 0.135 7.14 4.8 13.84
2/12/2017 3:00:00 AM 0.76 33.368 0.136 7.15 4.6 13.84
2/12/2017 3:15:00 AM 0.77 33.386 0.136 7.14 4.1 13.83
2/12/2017 3:30:00 AM 0.78 33.404 0.136 7.14 4.3 13.82
2/12/2017 3:45:00 AM 0.77 33.386 0.135 7.17 4.4 13.81
2/12/2017 4:00:00 AM 0.79 33.422 0.135 7.14 4.3 13.81
2/12/2017 4:15:00 AM 0.8 33.44 0.135 7.15 4.3 13.81
2/12/2017 4:30:00 AM 0.81 33.458 0.134 7.15 4.2 13.79
2/12/2017 4:45:00 AM 0.81 33.458 0.133 7.14 4.1 13.8
2/12/2017 5:00:00 AM 0.82 33.476 0.133 7.15 4.2 13.8
2/12/2017 5:15:00 AM 0.83 33.494 0.133 7.15 4.5 13.79
2/12/2017 5:30:00 AM 0.83 33.494 0.133 7.15 4.5 13.78
2/12/2017 5:45:00 AM 0.83 33.494 0.133 7.16 4.5 13.78
2/12/2017 6:00:00 AM 0.84 33.512 0.133 7.14 4.5 13.77
2/12/2017 6:15:00 AM 0.84 33.512 0.132 7.18 4.5 13.77
2/12/2017 6:30:00 AM 0.84 33.512 0.132 7.16 4.6 13.77
2/12/2017 6:45:00 AM 0.83 33.494 0.132 7.15 4.8 13.78
2/12/2017 7:00:00 AM 0.83 33.494 0.132 7.15 6 13.76
2/12/2017 7:15:00 AM 0.81 33.458 0.133 7.14 6.3 13.76
2/12/2017 7:30:00 AM 0.79 33.422 0.133 7.17 6.6 13.77
2/12/2017 7:45:00 AM 0.78 33.404 0.133 7.14 7.2 13.79
2/12/2017 8:00:00 AM 0.76 33.368 0.133 7.18 7.7 13.8
2/12/2017 8:15:00 AM 0.71 33.278 0.133 7.15 9.3 13.82
2/12/2017 8:30:00 AM 0.65 33.17 0.132 7.15 11 13.86
2/12/2017 8:45:00 AM 0.58 33.044 0.132 7.16 11.4 13.88
2/12/2017 9:00:00 AM 0.49 32.882 0.132 7.14 14.5 13.91
2/12/2017 9:15:00 AM 0.42 32.756 0.131 7.15 16.8 13.96
2/12/2017 9:30:00 AM 0.35 32.63 0.131 7.15 20.3 14.04
2/12/2017 9:45:00 AM 0.29 32.522 0.13 7.18 21.2 14.07
2/12/2017 10:00:00 AM 0.19 32.342 0.128 7.16 23 14.09
2/12/2017 10:15:00 AM 0.11 32.198 0.125 7.14 31 14.12
2/12/2017 10:30:00 AM 0.05 32.09 0.122 7.14 34.9 14.15
2/12/2017 10:45:00 AM 0 32 0.12 7.13 46.7 14.18
2/12/2017 11:00:00 AM -0.02 31.964 0.118 7.11 50.3 14.19
2/12/2017 11:15:00 AM -0.04 31.928 0.118 7.12 59.9 14.2
2/12/2017 11:30:00 AM -0.03 31.946 0.118 7.08 73.9 14.2
2/12/2017 11:45:00 AM -0.04 31.928 0.119 7.08 87.9 14.19
2/12/2017 12:00:00 PM -0.04 31.928 0.119 7.07 111.4 14.18
2/12/2017 12:15:00 PM -0.03 31.946 0.12 7.06 138.2 14.18
2/12/2017 12:30:00 PM -0.02 31.964 0.121 7.1 172.8 14.15
2/12/2017 12:45:00 PM 0.01 32.018 0.122 7.07 192.6 14.15
2/12/2017 1:00:00 PM 0.04 32.072 0.121 7.07 215.4 14.15
2/12/2017 1:15:00 PM 0.07 32.126 0.12 7.07 208.9 14.12
2/12/2017 1:30:00 PM 0.11 32.198 0.119 7.07 257 14.11
2/12/2017 1:45:00 PM 0.15 32.27 0.118 7.07 258 14.09
2/12/2017 2:00:00 PM 0.18 32.324 0.116 7.06 286.7 14.08
2/12/2017 2:15:00 PM 0.21 32.378 0.114 7.03 277.8 14.07
2/12/2017 2:30:00 PM 0.25 32.45 0.113 7 259.2 14.06
2/12/2017 2:45:00 PM 0.3 32.54 0.112 7.01 235 14.06
2/12/2017 3:00:00 PM 0.33 32.594 0.111 7.04 228.4 14.03
2/12/2017 3:15:00 PM 0.38 32.684 0.111 7.02 199.1 14.02
2/12/2017 3:30:00 PM 0.43 32.774 0.111 7.03 186 14.01
2/12/2017 3:45:00 PM 0.47 32.846 0.111 7.02 161.1 14
2/12/2017 4:00:00 PM 0.5 32.9 0.112 7.02 153.5 13.98
2/12/2017 4:15:00 PM 0.54 32.972 0.112 7.03 135.1 13.97
2/12/2017 4:30:00 PM 0.57 33.026 0.112 7.05 126.5 13.96
2/12/2017 4:45:00 PM 0.61 33.098 0.112 7.04 120.5 13.95
2/12/2017 5:00:00 PM 0.64 33.152 0.113 7.04 112.7 13.93
2/12/2017 5:15:00 PM 0.66 33.188 0.113 7.05 112 13.92
2/12/2017 5:30:00 PM 0.69 33.242 0.113 7.04 96.9 13.9
2/12/2017 5:45:00 PM 0.71 33.278 0.113 7.05 91.6 13.89
2/12/2017 6:00:00 PM 0.72 33.296 0.113 7.08 86.2 13.88
2/12/2017 6:15:00 PM 0.74 33.332 0.113 7.06 88.3 13.87
2/12/2017 6:30:00 PM 0.76 33.368 0.114 7.06 78.1 13.86
2/12/2017 6:45:00 PM 0.76 33.368 0.114 7.08 74.1 13.85
2/12/2017 7:00:00 PM 0.78 33.404 0.114 7.06 71.2 13.86
2/12/2017 7:15:00 PM 0.8 33.44 0.114 7.06 61.2 13.86
2/12/2017 7:30:00 PM 0.82 33.476 0.114 7.05 73.4 13.83
2/12/2017 7:45:00 PM 0.83 33.494 0.114 7.06 62.2 13.83
2/12/2017 8:00:00 PM 0.85 33.53 0.114 7.06 57.1 13.82
2/12/2017 8:15:00 PM 0.86 33.548 0.114 7.07 54 13.82
2/12/2017 8:30:00 PM 0.87 33.566 0.114 7.07 59.4 13.83
2/12/2017 8:45:00 PM 0.89 33.602 0.114 7.05 49.5 13.8
2/12/2017 9:00:00 PM 0.9 33.62 0.115 7.06 49.3 13.79
2/12/2017 9:15:00 PM 0.91 33.638 0.115 7.07 43.5 13.78
2/12/2017 9:30:00 PM 0.91 33.638 0.115 7.06 46 13.78
2/12/2017 9:45:00 PM 0.92 33.656 0.115 7.08 41.5 13.76
2/12/2017 10:00:00 PM 0.92 33.656 0.115 7.06 40.1 13.76
2/12/2017 10:15:00 PM 0.93 33.674 0.116 7.07 40.1 13.76
2/12/2017 10:30:00 PM 0.91 33.638 0.116 7.09 35.5 13.78
2/12/2017 10:45:00 PM 0.9 33.62 0.116 7.07 36.9 13.76
2/12/2017 11:00:00 PM 0.86 33.548 0.116 7.07 33.3 13.78
2/12/2017 11:15:00 PM 0.85 33.53 0.116 7.08 35.9 13.78
2/12/2017 11:30:00 PM 0.84 33.512 0.116 7.07 39.1 13.78
2/12/2017 11:45:00 PM 0.81 33.458 0.116 7.06 32.4 13.8
2/13/2017 12:00:00 AM 0.78 33.404 0.116 7.08 32.4 13.81
2/13/2017 12:15:00 AM 0.74 33.332 0.116 7.08 32.9 13.83
2/13/2017 12:30:00 AM 0.73 33.314 0.116 7.06 28.3 13.84
2/13/2017 12:45:00 AM 0.69 33.242 0.116 7.08 32 13.86
2/13/2017 1:00:00 AM 0.66 33.188 0.116 7.06 28.1 13.87
2/13/2017 1:15:00 AM 0.62 33.116 0.116 7.06 26.3 13.9
2/13/2017 1:30:00 AM 0.58 33.044 0.116 7.06 25.3 13.91
2/13/2017 1:45:00 AM 0.55 32.99 0.117 7.06 25.6 13.92
2/13/2017 2:00:00 AM 0.52 32.936 0.117 7.06 23.8 13.94
2/13/2017 2:15:00 AM 0.49 32.882 0.117 7.09 25.7 13.95
2/13/2017 2:30:00 AM 0.48 32.864 0.117 7.07 22.9 13.96
2/13/2017 2:45:00 AM 0.45 32.81 0.118 7.06 24.2 13.97
2/13/2017 3:00:00 AM 0.42 32.756 0.118 7.06 22.6 13.97
2/13/2017 3:15:00 AM 0.41 32.738 0.118 7.06 23.7 13.99
2/13/2017 3:30:00 AM 0.39 32.702 0.118 7.06 21.8 14
2/13/2017 3:45:00 AM 0.36 32.648 0.118 7.05 20.7 14
2/13/2017 4:00:00 AM 0.34 32.612 0.118 7.07 20.3 14.01
2/13/2017 4:15:00 AM 0.32 32.576 0.118 7.07 20.4 14.02
2/13/2017 4:30:00 AM 0.3 32.54 0.118 7.06 19.6 14.03
2/13/2017 4:45:00 AM 0.28 32.504 0.118 7.06 20.1 14.04
2/13/2017 5:00:00 AM 0.26 32.468 0.118 7.05 17.9 14.04
2/13/2017 5:15:00 AM 0.24 32.432 0.118 7.1 17.8 14.05
2/13/2017 5:30:00 AM 0.23 32.414 0.119 7.06 17.2 14.06
2/13/2017 5:45:00 AM 0.22 32.396 0.119 7.07 16.9 14.07
2/13/2017 6:00:00 AM 0.2 32.36 0.119 7.09 16.2 14.08
2/13/2017 6:15:00 AM 0.21 32.378 0.119 7.06 16.4 14.09
2/13/2017 6:30:00 AM 0.2 32.36 0.119 7.07 16.1 14.09
2/13/2017 6:45:00 AM 0.19 32.342 0.119 7.1 13.4 14.1
2/13/2017 7:00:00 AM 0.19 32.342 0.119 7.06 15.4 14.1
2/13/2017 7:15:00 AM 0.18 32.324 0.119 7.06 15.9 14.11
2/13/2017 7:30:00 AM 0.18 32.324 0.119 7.1 14.3 14.12
2/13/2017 7:45:00 AM 0.19 32.342 0.119 7.04 13.9 14.12
2/13/2017 8:00:00 AM 0.2 32.36 0.119 7.06 14.5 14.14
2/13/2017 8:15:00 AM 0.2 32.36 0.119 7.08 13.9 14.14
2/13/2017 8:30:00 AM 0.22 32.396 0.119 7.09 13.6 14.16
2/13/2017 8:45:00 AM 0.23 32.414 0.12 7.08 13.3 14.16
2/13/2017 9:00:00 AM 0.24 32.432 0.12 7.08 12.4 14.19
2/13/2017 9:15:00 AM 0.25 32.45 0.12 7.09 11.5 14.19
2/13/2017 9:30:00 AM 0.27 32.486 0.12 7.1 12.8 14.21
2/13/2017 9:45:00 AM 0.29 32.522 0.12 7.12 12.7 14.23
2/13/2017 10:00:00 AM 0.33 32.594 0.12 7.12 12.7 14.24
2/13/2017 10:15:00 AM 0.38 32.684 0.12 7.11 11.6 14.24
2/13/2017 10:30:00 AM 0.46 32.828 0.12 7.13 12.4 14.24
2/13/2017 10:45:00 AM 0.56 33.008 0.12 7.14 11.7 14.23
2/13/2017 11:00:00 AM 0.65 33.17 0.12 7.14 10.6 14.22
2/13/2017 11:15:00 AM 0.76 33.368 0.12 7.15 11.4 14.19
2/13/2017 11:30:00 AM 0.84 33.512 0.12 7.13 11.8 14.16
2/13/2017 11:45:00 AM 0.95 33.71 0.121 7.16 11.2 14.15
2/13/2017 12:00:00 PM 1.1 33.98 0.121 7.17 11.1 14.12
2/13/2017 12:15:00 PM 1.14 34.052 0.122 7.16 10.9 14.09
2/13/2017 12:30:00 PM 1.13 34.034 0.122 7.17 12.3 14.07
2/13/2017 12:45:00 PM 1.22 34.196 0.122 7.17 11 14.05
2/13/2017 1:00:00 PM 1.34 34.412 0.122 7.17 10.4 14.02
2/13/2017 1:15:00 PM 1.49 34.682 0.123 7.17 10.5 13.98
2/13/2017 1:30:00 PM 1.58 34.844 0.123 7.21 10.8 13.95
2/13/2017 1:45:00 PM 1.54 34.772 0.123 7.2 11 13.94
2/13/2017 2:00:00 PM 1.49 34.682 0.124 7.18 10.6 13.93
2/13/2017 2:15:00 PM 1.45 34.61 0.124 7.18 11.2 13.93
2/13/2017 2:30:00 PM 1.39 34.502 0.124 7.18 10.6 13.95
2/13/2017 2:45:00 PM 1.36 34.448 0.124 7.18 9.9 13.95
2/13/2017 3:00:00 PM 1.33 34.394 0.124 7.17 9.7 13.95
2/13/2017 3:15:00 PM 1.3 34.34 0.124 7.18 10.2 13.96
2/13/2017 3:30:00 PM 1.28 34.304 0.125 7.18 10.4 13.96
2/13/2017 3:45:00 PM 1.27 34.286 0.125 7.18 10.9 13.99
2/13/2017 4:00:00 PM 1.23 34.214 0.125 7.17 8.9 13.96
2/13/2017 4:15:00 PM 1.19 34.142 0.126 7.17 9.4 13.97
2/13/2017 4:30:00 PM 1.14 34.052 0.126 7.17 10.2 13.94
2/13/2017 4:45:00 PM 1.1 33.98 0.126 7.16 10.3 13.94
2/13/2017 5:00:00 PM 1.05 33.89 0.126 7.14 9.6 13.93
2/13/2017 5:15:00 PM 1.01 33.818 0.126 7.16 9.1 13.92
2/13/2017 5:30:00 PM 0.97 33.746 0.126 7.11 9.2 13.92
2/13/2017 5:45:00 PM 0.92 33.656 0.126 7.11 8.6 13.91
2/13/2017 6:00:00 PM 0.88 33.584 0.126 7.13 10 13.91
2/13/2017 6:15:00 PM 0.82 33.476 0.126 7.12 9.1 13.93
2/13/2017 6:30:00 PM 0.78 33.404 0.126 7.12 9.1 13.93
2/13/2017 6:45:00 PM 0.75 33.35 0.126 7.1 9.3 13.96
2/13/2017 7:00:00 PM 0.72 33.296 0.126 7.1 8.6 13.95
2/13/2017 7:15:00 PM 0.68 33.224 0.126 7.1 9.1 13.95
2/13/2017 7:30:00 PM 0.65 33.17 0.126 7.11 8.7 13.97
2/13/2017 7:45:00 PM 0.62 33.116 0.126 7.1 8.1 13.98
2/13/2017 8:00:00 PM 0.6 33.08 0.126 7.1 8.9 13.99
2/13/2017 8:15:00 PM 0.58 33.044 0.126 7.1 9.3 14
2/13/2017 8:30:00 PM 0.56 33.008 0.127 7.11 8.3 14.01
2/13/2017 8:45:00 PM 0.54 32.972 0.127 7.09 8.8 14.01
2/13/2017 9:00:00 PM 0.51 32.918 0.127 7.13 8.6 14.02
2/13/2017 9:15:00 PM 0.51 32.918 0.127 7.09 9.5 14.02
2/13/2017 9:30:00 PM 0.49 32.882 0.127 7.12 8.3 14.03
2/13/2017 9:45:00 PM 0.48 32.864 0.127 7.09 8.3 14.03
2/13/2017 10:00:00 PM 0.47 32.846 0.127 7.09 8.3 14.04
2/13/2017 10:15:00 PM 0.46 32.828 0.127 7.08 8.3 14.03
2/13/2017 10:30:00 PM 0.45 32.81 0.127 7.08 8.7 14.04
2/13/2017 10:45:00 PM 0.44 32.792 0.127 7.09 9 14.04
2/13/2017 11:00:00 PM 0.43 32.774 0.127 7.09 7.9 14.04
2/13/2017 11:15:00 PM 0.42 32.756 0.127 7.1 7.7 14.04
2/13/2017 11:30:00 PM 0.41 32.738 0.127 7.1 7.1 14.04
2/13/2017 11:45:00 PM 0.41 32.738 0.127 7.09 7.7 14.05
2/14/2017 12:00:00 AM 0.4 32.72 0.127 7.1 7.9 14.05
2/14/2017 12:15:00 AM 0.38 32.684 0.126 7.09 7.3 14.04
2/14/2017 12:30:00 AM 0.38 32.684 0.126 7.1 8.1 14.05
2/14/2017 12:45:00 AM 0.36 32.648 0.126 7.12 7.7 14.07
2/14/2017 1:00:00 AM 0.35 32.63 0.126 7.1 7.6 14.06
2/14/2017 1:15:00 AM 0.34 32.612 0.127 7.1 7.5 14.06
2/14/2017 1:30:00 AM 0.33 32.594 0.127 7.1 7.2 14.07
2/14/2017 1:45:00 AM 0.32 32.576 0.127 7.09 8 14.06
2/14/2017 2:00:00 AM 0.31 32.558 0.127 7.1 6.9 14.08
2/14/2017 2:15:00 AM 0.31 32.558 0.128 7.1 7.3 14.07
2/14/2017 2:30:00 AM 0.29 32.522 0.128 7.1 7 14.06
2/14/2017 2:45:00 AM 0.27 32.486 0.128 7.1 7.1 14.08
2/14/2017 3:00:00 AM 0.23 32.414 0.128 7.09 6.9 14.09
2/14/2017 3:15:00 AM 0.2 32.36 0.128 7.1 7 14.09
2/14/2017 3:30:00 AM 0.16 32.288 0.128 7.1 7.3 14.1
2/14/2017 3:45:00 AM 0.11 32.198 0.128 7.1 7.2 14.1
2/14/2017 4:00:00 AM 0.06 32.108 0.128 7.09 7.4 14.12
2/14/2017 4:15:00 AM 0.01 32.018 0.128 7.09 7.4 14.13
2/14/2017 4:30:00 AM -0.06 31.892 0.128 7.12 7.4 14.16
2/14/2017 4:45:00 AM -0.1 31.82 0.128 7.09 7.2 14.17
2/14/2017 5:00:00 AM -0.14 31.748 0.128 7.1 7 14.19
2/14/2017 5:15:00 AM -0.19 31.658 0.128 7.08 7.6 14.21
2/14/2017 5:30:00 AM -0.23 31.586 0.128 7.09 7.1 14.23
2/14/2017 5:45:00 AM -0.22 31.604 0.128 7.1 6.8 14.25
2/14/2017 6:00:00 AM -0.23 31.586 0.128 7.13 7.4 14.28
2/14/2017 6:15:00 AM -0.23 31.586 0.128 7.13 7.7 14.27
2/14/2017 6:30:00 AM -0.23 31.586 0.129 7.12 6.7 14.26
2/14/2017 6:45:00 AM -0.23 31.586 0.129 7.13 7.3 14.28
2/14/2017 7:00:00 AM -0.23 31.586 0.13 7.12 7.5 14.27
2/14/2017 7:15:00 AM -0.22 31.604 0.13 7.12 7.7 14.28
2/14/2017 7:30:00 AM -0.22 31.604 0.13 7.14 10.1 14.28
2/14/2017 7:45:00 AM -0.22 31.604 0.13 7.14 10.1 14.29
2/14/2017 8:00:00 AM -0.21 31.622 0.131 7.15 9.6 14.33
2/14/2017 8:15:00 AM -0.22 31.604 0.131 7.17 6.7 14.34
2/14/2017 8:30:00 AM -0.22 31.604 0.131 7.14 7 14.38
2/14/2017 8:45:00 AM -0.22 31.604 0.131 7.15 6.2 14.37
2/14/2017 9:00:00 AM -0.21 31.622 0.131 7.12 6.4 14.39
2/14/2017 9:15:00 AM -0.21 31.622 0.131 7.15 6.5 14.4
2/14/2017 9:30:00 AM -0.2 31.64 0.131 7.15 6.5 14.41
2/14/2017 9:45:00 AM -0.17 31.694 0.13 7.17 6.4 14.41
2/14/2017 10:00:00 AM -0.12 31.784 0.13 7.16 6.4 14.42
2/14/2017 10:15:00 AM -0.06 31.892 0.131 7.16 6.3 14.4
2/14/2017 10:30:00 AM -0.01 31.982 0.13 7.21 6.3 14.39
2/14/2017 10:45:00 AM 0.05 32.09 0.13 7.18 6.9 14.38
2/14/2017 11:00:00 AM 0.17 32.306 0.13 7.18 6.6 14.35
2/14/2017 11:15:00 AM 0.33 32.594 0.13 7.18 5.7 14.31
2/14/2017 11:30:00 AM 0.49 32.882 0.129 7.19 6.2 14.28
2/14/2017 11:45:00 AM 0.65 33.17 0.129 7.21 6.4 14.23
2/14/2017 12:00:00 PM 0.81 33.458 0.129 7.23 6.5 14.18
2/14/2017 12:15:00 PM 0.96 33.728 0.128 7.21 6.3 14.13
2/14/2017 12:30:00 PM 1.1 33.98 0.128 7.21 7.1 14.09
2/14/2017 12:45:00 PM 1.26 34.268 0.128 7.22 7 14.04
2/14/2017 1:00:00 PM 1.42 34.556 0.128 7.22 6.7 13.98
2/14/2017 1:15:00 PM 1.59 34.862 0.127 7.23 7.1 13.91
2/14/2017 1:30:00 PM 1.76 35.168 0.127 7.24 7.2 13.87
2/14/2017 1:45:00 PM 1.91 35.438 0.127 7.25 7.4 13.8
2/14/2017 2:00:00 PM 2.06 35.708 0.127 7.24 7.3 13.74
2/14/2017 2:15:00 PM 2.18 35.924 0.127 7.25 8.1 13.69
2/14/2017 2:30:00 PM 2.29 36.122 0.127 7.25 7.8 13.65
2/14/2017 2:45:00 PM 2.38 36.284 0.128 7.26 7.7 13.6
2/14/2017 3:00:00 PM 2.44 36.392 0.128 7.26 8 13.57
2/14/2017 3:15:00 PM 2.48 36.464 0.128 7.27 9.8 13.54
2/14/2017 3:30:00 PM 2.5 36.5 0.128 7.27 10 13.51
2/14/2017 3:45:00 PM 2.49 36.482 0.128 7.28 10.2 13.5
2/14/2017 4:00:00 PM 2.47 36.446 0.128 7.26 10.7 13.47
2/14/2017 4:15:00 PM 2.42 36.356 0.128 7.25 10.7 13.45
2/14/2017 4:30:00 PM 2.37 36.266 0.128 7.24 12 13.44
2/14/2017 4:45:00 PM 2.31 36.158 0.127 7.24 13.2 13.43
2/14/2017 5:00:00 PM 2.26 36.068 0.127 7.23 12.3 13.43
2/14/2017 5:15:00 PM 2.19 35.942 0.127 7.21 12.3 13.41
2/14/2017 5:30:00 PM 2.11 35.798 0.127 7.2 12.5 13.39
2/14/2017 5:45:00 PM 2.02 35.636 0.127 7.18 10.9 13.38
2/14/2017 6:00:00 PM 1.95 35.51 0.126 7.16 11.1 13.37
2/14/2017 6:15:00 PM 1.88 35.384 0.126 7.15 10.9 13.37
2/14/2017 6:30:00 PM 1.82 35.276 0.126 7.15 10.1 13.38
2/14/2017 6:45:00 PM 1.76 35.168 0.126 7.13 9.1 13.39
2/14/2017 7:00:00 PM 1.72 35.096 0.126 7.12 10 13.4
2/14/2017 7:15:00 PM 1.68 35.024 0.126 7.11 9.5 13.41
2/14/2017 7:30:00 PM 1.64 34.952 0.126 7.15 9.3 13.41
2/14/2017 7:45:00 PM 1.63 34.934 0.126 7.12 8.8 13.42
2/14/2017 8:00:00 PM 1.61 34.898 0.126 7.11 9 13.43
2/14/2017 8:15:00 PM 1.59 34.862 0.126 7.11 8.7 13.44
2/14/2017 8:30:00 PM 1.58 34.844 0.126 7.11 9.5 13.43
2/14/2017 8:45:00 PM 1.56 34.808 0.126 7.11 9.2 13.43
2/14/2017 9:00:00 PM 1.54 34.772 0.126 7.11 8.8 13.44
2/14/2017 9:15:00 PM 1.52 34.736 0.126 7.11 8.2 13.45
2/14/2017 9:30:00 PM 1.5 34.7 0.126 7.1 8 13.46
2/14/2017 9:45:00 PM 1.48 34.664 0.126 7.12 8.5 13.46
2/14/2017 10:00:00 PM 1.45 34.61 0.126 7.11 7.3 13.45
2/14/2017 10:15:00 PM 1.43 34.574 0.126 7.1 8 13.47
2/14/2017 10:30:00 PM 1.41 34.538 0.127 7.1 7.9 13.46
2/14/2017 10:45:00 PM 1.4 34.52 0.128 7.11 7.6 13.46
2/14/2017 11:00:00 PM 1.39 34.502 0.128 7.12 7.2 13.46
2/14/2017 11:15:00 PM 1.37 34.466 0.128 7.13 7.8 13.49
2/14/2017 11:30:00 PM 1.37 34.466 0.128 7.1 7.4 13.47
2/14/2017 11:45:00 PM 1.37 34.466 0.128 7.11 7.1 13.48
2/15/2017 12:00:00 AM 1.36 34.448 0.128 7.1 7.3 13.49
2/15/2017 12:15:00 AM 1.36 34.448 0.128 7.11 6.7 13.47
2/15/2017 12:30:00 AM 1.36 34.448 0.127 7.1 7.1 13.48
2/15/2017 12:45:00 AM 1.35 34.43 0.126 7.1 7.3 13.47
2/15/2017 1:00:00 AM 1.35 34.43 0.126 7.11 6.8 13.48
2/15/2017 1:15:00 AM 1.35 34.43 0.126 7.1 8.3 13.47
2/15/2017 1:30:00 AM 1.35 34.43 0.126 7.09 6.9 13.48
2/15/2017 1:45:00 AM 1.35 34.43 0.126 7.1 7 13.47
2/15/2017 2:00:00 AM 1.35 34.43 0.126 7.11 6.4 13.47
2/15/2017 2:15:00 AM 1.35 34.43 0.126 7.09 6.8 13.47
2/15/2017 2:30:00 AM 1.33 34.394 0.127 7.11 6.9 13.46
2/15/2017 2:45:00 AM 1.31 34.358 0.128 7.11 6.6 13.47
2/15/2017 3:00:00 AM 1.28 34.304 0.128 7.13 6.7 13.46
2/15/2017 3:15:00 AM 1.27 34.286 0.128 7.11 6.7 13.47
2/15/2017 3:30:00 AM 1.25 34.25 0.128 7.11 6.7 13.48
2/15/2017 3:45:00 AM 1.23 34.214 0.128 7.1 6.9 13.48
2/15/2017 4:00:00 AM 1.22 34.196 0.127 7.11 6.2 13.48
2/15/2017 4:15:00 AM 1.21 34.178 0.127 7.11 7.8 13.48
2/15/2017 4:30:00 AM 1.2 34.16 0.127 7.11 6.3 13.49
2/15/2017 4:45:00 AM 1.19 34.142 0.127 7.11 6.2 13.5
2/15/2017 5:00:00 AM 1.18 34.124 0.127 7.1 6.1 13.5
2/15/2017 5:15:00 AM 1.17 34.106 0.127 7.13 5.9 13.49
2/15/2017 5:30:00 AM 1.16 34.088 0.127 7.12 5.7 13.5
2/15/2017 5:45:00 AM 1.15 34.07 0.127 7.11 6.3 13.5
2/15/2017 6:00:00 AM 1.14 34.052 0.127 7.1 6 13.5
2/15/2017 6:15:00 AM 1.13 34.034 0.127 7.11 6.2 13.5
2/15/2017 6:30:00 AM 1.13 34.034 0.127 7.1 5.8 13.5
2/15/2017 6:45:00 AM 1.12 34.016 0.129 7.13 7 13.5
2/15/2017 7:00:00 AM 1.13 34.034 0.129 7.11 6.1 13.5
2/15/2017 7:15:00 AM 1.11 33.998 0.128 7.1 5.8 13.52
2/15/2017 7:30:00 AM 1.09 33.962 0.127 7.12 5.9 13.52
2/15/2017 7:45:00 AM 1.07 33.926 0.127 7.11 6.1 13.54
2/15/2017 8:00:00 AM 1.07 33.926 0.127 7.12 5.5 13.57
2/15/2017 8:15:00 AM 1.08 33.944 0.127 7.14 5.5 13.6
2/15/2017 8:30:00 AM 1.12 34.016 0.127 7.15 5.7 13.64
2/15/2017 8:45:00 AM 1.17 34.106 0.127 7.15 5.6 13.67
2/15/2017 9:00:00 AM 1.2 34.16 0.127 7.2 5.6 13.69
2/15/2017 9:15:00 AM 1.21 34.178 0.127 7.19 6.1 13.66
2/15/2017 9:30:00 AM 1.23 34.214 0.127 7.18 5.6 13.67
2/15/2017 9:45:00 AM 1.26 34.268 0.127 7.19 5.8 13.67
2/15/2017 10:00:00 AM 1.26 34.268 0.127 7.19 5.2 13.66
2/15/2017 10:15:00 AM 1.27 34.286 0.127 7.21 5.4 13.67
2/15/2017 10:30:00 AM 1.3 34.34 0.127 7.23 5.3 13.67
2/15/2017 10:45:00 AM 1.38 34.484 0.127 7.21 5.8 13.71
2/15/2017 11:00:00 AM 1.43 34.574 0.127 7.21 5.3 13.69
2/15/2017 11:15:00 AM 1.51 34.718 0.127 7.22 5.2 13.69
2/15/2017 11:30:00 AM 1.51 34.718 0.127 7.24 5.8 13.69
2/15/2017 11:45:00 AM 1.61 34.898 0.127 7.25 5.9 13.69
2/15/2017 12:00:00 PM 1.67 35.006 0.127 7.29 5.9 13.71
2/15/2017 12:15:00 PM 1.68 35.024 0.127 7.26 5.5 13.65
2/15/2017 12:30:00 PM 1.65 34.97 0.127 7.25 5.7 13.63
2/15/2017 12:45:00 PM 1.67 35.006 0.127 7.26 6.3 13.64
2/15/2017 1:00:00 PM 1.71 35.078 0.127 7.26 6.6 13.65
2/15/2017 1:15:00 PM 1.79 35.222 0.127 7.27 7 13.65
2/15/2017 1:30:00 PM 1.83 35.294 0.126 7.28 6 13.64
2/15/2017 1:45:00 PM 1.86 35.348 0.126 7.28 6.6 13.63
2/15/2017 2:00:00 PM 1.88 35.384 0.127 7.28 6.9 13.64
2/15/2017 2:15:00 PM 1.88 35.384 0.127 7.32 6.4 13.65
2/15/2017 2:30:00 PM 1.91 35.438 0.127 7.29 6.9 13.64
2/15/2017 2:45:00 PM 1.97 35.546 0.128 7.28 7.1 13.63
2/15/2017 3:00:00 PM 2.03 35.654 0.128 7.3 6.7 13.64
2/15/2017 3:15:00 PM 2.05 35.69 0.128 7.29 7 13.6
2/15/2017 3:30:00 PM 2.05 35.69 0.129 7.29 6.9 13.57
2/15/2017 3:45:00 PM 2.04 35.672 0.129 7.28 6.2 13.56
2/15/2017 4:00:00 PM 2.07 35.726 0.128 7.29 7.1 13.54
2/15/2017 4:15:00 PM 2.08 35.744 0.128 7.3 8.9 13.54
2/15/2017 4:30:00 PM 2.04 35.672 0.128 7.28 8 13.52
2/15/2017 4:45:00 PM 1.98 35.564 0.128 7.26 7.8 13.5
2/15/2017 5:00:00 PM 1.93 35.474 0.128 7.26 7.2 13.46
2/15/2017 5:15:00 PM 1.9 35.42 0.128 7.24 6.7 13.44
2/15/2017 5:30:00 PM 1.89 35.402 0.128 7.22 7.9 13.41
2/15/2017 5:45:00 PM 1.85 35.33 0.128 7.21 7.1 13.37
2/15/2017 6:00:00 PM 1.8 35.24 0.128 7.23 7.5 13.34
2/15/2017 6:15:00 PM 1.76 35.168 0.128 7.2 7.7 13.34
2/15/2017 6:30:00 PM 1.71 35.078 0.128 7.18 6.9 13.34
2/15/2017 6:45:00 PM 1.53 34.754 0.128 7.18 6.9 13.34
2/15/2017 7:00:00 PM 1.43 34.574 0.128 7.17 6.8 13.37
2/15/2017 7:15:00 PM 1.31 34.358 0.129 7.16 6.5 13.39
2/15/2017 7:30:00 PM 1.27 34.286 0.129 7.16 5.7 13.42
2/15/2017 7:45:00 PM 1.23 34.214 0.13 7.14 6.6 13.46
2/15/2017 8:00:00 PM 1.2 34.16 0.131 7.15 6.1 13.47
2/15/2017 8:15:00 PM 1.17 34.106 0.131 7.14 5.9 13.49
2/15/2017 8:30:00 PM 1.13 34.034 0.131 7.14 5.9 13.51
2/15/2017 8:45:00 PM 1.08 33.944 0.131 7.13 5.9 13.52
2/15/2017 9:00:00 PM 1.03 33.854 0.132 7.13 6.3 13.56
2/15/2017 9:15:00 PM 0.97 33.746 0.132 7.13 6.1 13.57
2/15/2017 9:30:00 PM 0.91 33.638 0.132 7.13 5.7 13.59
2/15/2017 9:45:00 PM 0.85 33.53 0.132 7.15 5.9 13.61
2/15/2017 10:00:00 PM 0.81 33.458 0.132 7.13 6.8 13.62
2/15/2017 10:15:00 PM 0.77 33.386 0.132 7.13 6 13.66
2/15/2017 10:30:00 PM 0.74 33.332 0.132 7.12 5.8 13.66
2/15/2017 10:45:00 PM 0.71 33.278 0.133 7.12 6.1 13.67
2/15/2017 11:00:00 PM 0.68 33.224 0.133 7.13 5.7 13.69
2/15/2017 11:15:00 PM 0.64 33.152 0.133 7.14 6.7 13.71
2/15/2017 11:30:00 PM 0.59 33.062 0.133 7.14 6 13.71
2/15/2017 11:45:00 PM 0.57 33.026 0.133 7.12 5.9 13.74
2/16/2017 12:00:00 AM 0.53 32.954 0.133 7.12 6.1 13.75
2/16/2017 12:15:00 AM 0.5 32.9 0.133 7.13 6 13.75
2/16/2017 12:30:00 AM 0.47 32.846 0.133 7.12 5.7 13.78
2/16/2017 12:45:00 AM 0.44 32.792 0.133 7.14 6.2 13.78
2/16/2017 1:00:00 AM 0.4 32.72 0.133 7.14 5.6 13.8
2/16/2017 1:15:00 AM 0.36 32.648 0.133 7.13 5.3 13.81
2/16/2017 1:30:00 AM 0.32 32.576 0.133 7.16 5.8 13.82
2/16/2017 1:45:00 AM 0.29 32.522 0.133 7.14 6 13.84
2/16/2017 2:00:00 AM 0.26 32.468 0.133 7.14 5.4 13.85
2/16/2017 2:15:00 AM 0.23 32.414 0.133 7.12 6.4 13.86
2/16/2017 2:30:00 AM 0.18 32.324 0.133 7.13 5.7 13.87
2/16/2017 2:45:00 AM 0.15 32.27 0.132 7.14 5.9 13.9
2/16/2017 3:00:00 AM 0.12 32.216 0.132 7.12 5.9 13.9
2/16/2017 3:15:00 AM 0.09 32.162 0.132 7.12 5.5 13.91
2/16/2017 3:30:00 AM 0.07 32.126 0.132 7.12 5.7 13.92
2/16/2017 3:45:00 AM 0.03 32.054 0.132 7.13 5.9 13.94
2/16/2017 4:00:00 AM 0.01 32.018 0.132 7.12 5.6 13.95
2/16/2017 4:15:00 AM -0.01 31.982 0.132 7.16 5.5 13.96
2/16/2017 4:30:00 AM -0.02 31.964 0.132 7.13 5 13.98
2/16/2017 4:45:00 AM -0.03 31.946 0.132 7.12 5.1 13.97
2/16/2017 5:00:00 AM -0.05 31.91 0.132 7.13 5.3 13.98
2/16/2017 5:15:00 AM -0.07 31.874 0.133 7.16 5.2 13.99
2/16/2017 5:30:00 AM -0.07 31.874 0.133 7.13 5.4 13.99
2/16/2017 5:45:00 AM -0.09 31.838 0.134 7.12 5.3 13.99
2/16/2017 6:00:00 AM -0.09 31.838 0.134 7.13 5 14
2/16/2017 6:15:00 AM -0.1 31.82 0.134 7.13 4.9 14
2/16/2017 6:30:00 AM -0.11 31.802 0.134 7.13 5.1 14.01
2/16/2017 6:45:00 AM -0.15 31.73 0.134 7.13 5.2 14.01
2/16/2017 7:00:00 AM -0.18 31.676 0.134 7.17 5.1 14.03
2/16/2017 7:15:00 AM -0.22 31.604 0.134 7.15 5.1 14.05
2/16/2017 7:30:00 AM -0.23 31.586 0.134 7.14 5.2 14.09
2/16/2017 7:45:00 AM -0.22 31.604 0.134 7.17 5.5 14.13
2/16/2017 8:00:00 AM -0.2 31.64 0.134 7.15 5 14.18
2/16/2017 8:15:00 AM -0.2 31.64 0.134 7.16 4.9 14.24
2/16/2017 8:30:00 AM -0.17 31.694 0.134 7.18 5 14.28
2/16/2017 8:45:00 AM -0.15 31.73 0.134 7.22 5 14.3
2/16/2017 9:00:00 AM -0.15 31.73 0.134 7.24 5.1 14.33
2/16/2017 9:15:00 AM -0.11 31.802 0.134 7.22 5.2 14.35
2/16/2017 9:30:00 AM -0.06 31.892 0.134 7.22 4.9 14.36
2/16/2017 9:45:00 AM -0.02 31.964 0.133 7.24 5.1 14.38
2/16/2017 10:00:00 AM 0.02 32.036 0.133 7.25 4.7 14.38
2/16/2017 10:15:00 AM 0.1 32.18 0.133 7.25 4.8 14.37
2/16/2017 10:30:00 AM 0.2 32.36 0.133 7.27 5 14.36
2/16/2017 10:45:00 AM 0.27 32.486 0.134 7.28 4.4 14.35
2/16/2017 11:00:00 AM 0.31 32.558 0.134 7.27 4.5 14.33
2/16/2017 11:15:00 AM 0.34 32.612 0.134 7.28 4.6 14.32
2/16/2017 11:30:00 AM 0.34 32.612 0.134 7.29 4.4 14.32
2/16/2017 11:45:00 AM 0.37 32.666 0.134 7.32 4.7 14.31
2/16/2017 12:00:00 PM 0.44 32.792 0.134 7.29 4.8 14.3
2/16/2017 12:15:00 PM 0.5 32.9 0.134 7.3 4.7 14.29
2/16/2017 12:30:00 PM 0.52 32.936 0.133 7.29 4.5 14.27
2/16/2017 12:45:00 PM 0.54 32.972 0.133 7.33 4.8 14.27
2/16/2017 1:00:00 PM 0.6 33.08 0.133 7.31 4.9 14.28
2/16/2017 1:15:00 PM 0.63 33.134 0.133 7.34 4.6 14.25
2/16/2017 1:30:00 PM 0.71 33.278 0.133 7.32 4.6 14.23
2/16/2017 1:45:00 PM 0.76 33.368 0.133 7.31 4.7 14.22
2/16/2017 2:00:00 PM 0.85 33.53 0.133 7.31 4.9 14.18
2/16/2017 2:15:00 PM 0.88 33.584 0.133 7.32 4.4 14.15
2/16/2017 2:30:00 PM 1.01 33.818 0.132 7.31 4.6 14.12
2/16/2017 2:45:00 PM 1.26 34.268 0.132 7.32 4.7 14.09
2/16/2017 3:00:00 PM 1.52 34.736 0.132 7.32 4.9 14.02
2/16/2017 3:15:00 PM 1.61 34.898 0.132 7.34 4.9 13.96
2/16/2017 3:30:00 PM 1.64 34.952 0.133 7.35 5.3 13.92
2/16/2017 3:45:00 PM 1.54 34.772 0.133 7.34 5 13.9
2/16/2017 4:00:00 PM 1.48 34.664 0.134 7.34 4.7 13.9
2/16/2017 4:15:00 PM 1.41 34.538 0.134 7.33 5.2 13.92
2/16/2017 4:30:00 PM 1.26 34.268 0.134 7.34 5.5 13.93
2/16/2017 4:45:00 PM 1.13 34.034 0.134 7.3 5.4 13.94
2/16/2017 5:00:00 PM 1.04 33.872 0.134 7.29 5.6 13.94
2/16/2017 5:15:00 PM 0.98 33.764 0.134 7.29 4.9 13.92
2/16/2017 5:30:00 PM 0.91 33.638 0.134 7.26 5 13.9
2/16/2017 5:45:00 PM 0.83 33.494 0.134 7.25 4.8 13.86
2/16/2017 6:00:00 PM 0.77 33.386 0.134 7.23 5 13.86
2/16/2017 6:15:00 PM 0.68 33.224 0.134 7.22 5.6 13.84
2/16/2017 6:30:00 PM 0.6 33.08 0.134 7.21 4.8 13.86
2/16/2017 6:45:00 PM 0.51 32.918 0.134 7.2 4.8 13.87
2/16/2017 7:00:00 PM 0.44 32.792 0.135 7.2 5.2 13.89
2/16/2017 7:15:00 PM 0.36 32.648 0.135 7.19 5.2 13.92
2/16/2017 7:30:00 PM 0.28 32.504 0.135 7.19 5.1 13.94
2/16/2017 7:45:00 PM 0.19 32.342 0.135 7.17 4.8 13.97
2/16/2017 8:00:00 PM 0.12 32.216 0.135 7.18 4.8 13.99
2/16/2017 8:15:00 PM 0.04 32.072 0.136 7.2 4.8 14.03
2/16/2017 8:30:00 PM 0 32 0.135 7.17 5.1 14.04
2/16/2017 8:45:00 PM -0.05 31.91 0.135 7.16 4.8 14.06
2/16/2017 9:00:00 PM -0.1 31.82 0.136 7.16 4.9 14.09
2/16/2017 9:15:00 PM -0.13 31.766 0.136 7.17 4.2 14.1
2/16/2017 9:30:00 PM -0.15 31.73 0.135 7.16 4.5 14.11
2/16/2017 9:45:00 PM -0.17 31.694 0.135 7.16 5 14.13
2/16/2017 10:00:00 PM -0.17 31.694 0.135 7.17 6.3 14.14
2/16/2017 10:15:00 PM -0.18 31.676 0.135 7.15 4.7 14.14
2/16/2017 10:30:00 PM -0.19 31.658 0.135 7.15 4.9 14.14
2/16/2017 10:45:00 PM -0.19 31.658 0.135 7.15 4.5 14.14
2/16/2017 11:00:00 PM -0.18 31.676 0.136 7.16 4.7 14.14
2/16/2017 11:15:00 PM -0.18 31.676 0.137 7.15 4.4 14.14
2/16/2017 11:30:00 PM -0.17 31.694 0.137 7.16 4.6 14.14
2/16/2017 11:45:00 PM -0.17 31.694 0.137 7.15 4.5 14.14
2/17/2017 12:00:00 AM -0.19 31.658 0.137 7.19 4.4 14.14
2/17/2017 12:15:00 AM -0.17 31.694 0.138 7.16 4.5 14.13
2/17/2017 12:30:00 AM -0.17 31.694 0.137 7.15 4.2 14.13
2/17/2017 12:45:00 AM -0.17 31.694 0.137 7.15 4.1 14.14
2/17/2017 1:00:00 AM -0.17 31.694 0.137 7.17 4.4 14.14
2/17/2017 1:15:00 AM -0.17 31.694 0.138 7.17 4.6 14.14
2/17/2017 1:30:00 AM -0.17 31.694 0.138 7.16 4.3 14.14
2/17/2017 1:45:00 AM -0.17 31.694 0.138 7.15 4.3 14.14
2/17/2017 2:00:00 AM -0.17 31.694 0.138 7.17 4.3 14.14
2/17/2017 2:15:00 AM -0.17 31.694 0.138 7.17 4.4 14.14
2/17/2017 2:30:00 AM -0.18 31.676 0.138 7.15 4.3 14.15
2/17/2017 2:45:00 AM -0.18 31.676 0.138 7.17 4.6 14.15
2/17/2017 3:00:00 AM -0.18 31.676 0.138 7.17 4.4 14.15
2/17/2017 3:15:00 AM -0.19 31.658 0.138 7.17 4.3 14.15
2/17/2017 3:30:00 AM -0.19 31.658 0.138 7.16 4.7 14.15
2/17/2017 3:45:00 AM -0.2 31.64 0.137 7.2 4.2 14.16
2/17/2017 4:00:00 AM -0.19 31.658 0.137 7.17 4 14.16
2/17/2017 4:15:00 AM -0.19 31.658 0.136 7.16 4.2 14.15
2/17/2017 4:30:00 AM -0.2 31.64 0.136 7.17 4.2 14.15
2/17/2017 4:45:00 AM -0.19 31.658 0.136 7.17 4 14.16
2/17/2017 5:00:00 AM -0.19 31.658 0.136 7.16 4.2 14.16
2/17/2017 5:15:00 AM -0.19 31.658 0.136 7.15 4.3 14.16
2/17/2017 5:30:00 AM -0.19 31.658 0.137 7.15 4.5 14.16
2/17/2017 5:45:00 AM -0.19 31.658 0.137 7.16 4.1 14.16
2/17/2017 6:00:00 AM -0.19 31.658 0.137 7.16 4.2 14.15
2/17/2017 6:15:00 AM -0.19 31.658 0.137 7.17 4.1 14.16
2/17/2017 6:30:00 AM -0.19 31.658 0.137 7.17 3.9 14.16
2/17/2017 6:45:00 AM -0.19 31.658 0.137 7.16 4 14.17
2/17/2017 7:00:00 AM -0.19 31.658 0.138 7.17 3.8 14.15
2/17/2017 7:15:00 AM -0.18 31.676 0.139 7.17 4 14.17
2/17/2017 7:30:00 AM -0.19 31.658 0.139 7.2 4.1 14.19
2/17/2017 7:45:00 AM -0.17 31.694 0.139 7.19 4.2 14.24
2/17/2017 8:00:00 AM -0.17 31.694 0.139 7.2 4.2 14.3
2/17/2017 8:15:00 AM -0.18 31.676 0.139 7.2 4 14.33
2/17/2017 8:30:00 AM -0.18 31.676 0.138 7.21 4.2 14.37
2/17/2017 8:45:00 AM -0.16 31.712 0.138 7.24 4 14.42
2/17/2017 9:00:00 AM -0.14 31.748 0.138 7.24 3.7 14.44
2/17/2017 9:15:00 AM -0.11 31.802 0.138 7.25 4.2 14.47
2/17/2017 9:30:00 AM -0.07 31.874 0.138 7.27 4 14.48
2/17/2017 9:45:00 AM 0 32 0.138 7.28 4.1 14.48
2/17/2017 10:00:00 AM 0.08 32.144 0.138 7.28 4.2 14.48
2/17/2017 10:15:00 AM 0.16 32.288 0.138 7.3 3.5 14.47
2/17/2017 10:30:00 AM 0.26 32.468 0.138 7.31 3.9 14.46
2/17/2017 10:45:00 AM 0.36 32.648 0.138 7.32 3.9 14.45
2/17/2017 11:00:00 AM 0.47 32.846 0.138 7.31 4 14.41
2/17/2017 11:15:00 AM 0.57 33.026 0.138 7.35 4.1 14.39
2/17/2017 11:30:00 AM 0.68 33.224 0.138 7.34 3.7 14.37
2/17/2017 11:45:00 AM 0.79 33.422 0.138 7.34 3.6 14.33
2/17/2017 12:00:00 PM 0.92 33.656 0.138 7.35 3.9 14.3
2/17/2017 12:15:00 PM 1.07 33.926 0.137 7.35 3.8 14.25
2/17/2017 12:30:00 PM 1.21 34.178 0.137 7.34 3.7 14.21
2/17/2017 12:45:00 PM 1.36 34.448 0.136 7.36 3.9 14.17
2/17/2017 1:00:00 PM 1.52 34.736 0.136 7.36 4 14.12
2/17/2017 1:15:00 PM 1.68 35.024 0.136 7.37 4.5 14.07
2/17/2017 1:30:00 PM 1.83 35.294 0.135 7.37 4.5 14.02
2/17/2017 1:45:00 PM 1.96 35.528 0.135 7.37 4.8 13.98
2/17/2017 2:00:00 PM 2.08 35.744 0.135 7.37 5.1 13.93
2/17/2017 2:15:00 PM 2.21 35.978 0.135 7.38 4.5 13.88
2/17/2017 2:30:00 PM 2.32 36.176 0.135 7.38 5.1 13.85
2/17/2017 2:45:00 PM 2.43 36.374 0.134 7.4 5.2 13.79
2/17/2017 3:00:00 PM 2.47 36.446 0.135 7.42 5.4 13.75
2/17/2017 3:15:00 PM 2.55 36.59 0.135 7.41 5 13.72
2/17/2017 3:30:00 PM 2.61 36.698 0.135 7.41 5.6 13.7
2/17/2017 3:45:00 PM 2.63 36.734 0.135 7.44 6 13.66
2/17/2017 4:00:00 PM 2.62 36.716 0.135 7.41 6.6 13.63
2/17/2017 4:15:00 PM 2.59 36.662 0.135 7.39 6.8 13.61
2/17/2017 4:30:00 PM 2.55 36.59 0.135 7.4 7.3 13.59
2/17/2017 4:45:00 PM 2.49 36.482 0.135 7.39 8 13.57
2/17/2017 5:00:00 PM 2.42 36.356 0.135 7.38 8.2 13.53
2/17/2017 5:15:00 PM 2.34 36.212 0.135 7.35 8.6 13.48
2/17/2017 5:30:00 PM 2.26 36.068 0.135 7.32 8.6 13.45
2/17/2017 5:45:00 PM 2.16 35.888 0.135 7.3 9.8 13.42
2/17/2017 6:00:00 PM 2.06 35.708 0.135 7.28 8.8 13.41
2/17/2017 6:15:00 PM 1.95 35.51 0.136 7.26 8.1 13.4
2/17/2017 6:30:00 PM 1.84 35.312 0.135 7.26 8.3 13.44
2/17/2017 6:45:00 PM 1.71 35.078 0.135 7.26 8.3 13.43
2/17/2017 7:00:00 PM 1.61 34.898 0.135 7.23 6.6 13.47
2/17/2017 7:15:00 PM 1.51 34.718 0.136 7.21 6.1 13.49
2/17/2017 7:30:00 PM 1.4 34.52 0.135 7.22 6 13.53
2/17/2017 7:45:00 PM 1.3 34.34 0.135 7.2 5.5 13.56
2/17/2017 8:00:00 PM 1.21 34.178 0.135 7.21 5.6 13.6
2/17/2017 8:15:00 PM 1.12 34.016 0.136 7.2 5.1 13.61
2/17/2017 8:30:00 PM 1.04 33.872 0.136 7.19 5.2 13.64
2/17/2017 8:45:00 PM 0.97 33.746 0.135 7.18 4.9 13.66
2/17/2017 9:00:00 PM 0.9 33.62 0.136 7.18 4.8 13.69
2/17/2017 9:15:00 PM 0.83 33.494 0.136 7.17 4.7 13.72
2/17/2017 9:30:00 PM 0.77 33.386 0.136 7.17 4.9 13.74
2/17/2017 9:45:00 PM 0.72 33.296 0.136 7.17 5 13.76
2/17/2017 10:00:00 PM 0.67 33.206 0.136 7.18 4.7 13.78
2/17/2017 10:15:00 PM 0.63 33.134 0.136 7.18 4.7 13.79
2/17/2017 10:30:00 PM 0.57 33.026 0.136 7.2 4.5 13.82
2/17/2017 10:45:00 PM 0.54 32.972 0.136 7.18 3.9 13.82
2/17/2017 11:00:00 PM 0.51 32.918 0.136 7.17 4.8 13.84
2/17/2017 11:15:00 PM 0.46 32.828 0.136 7.16 4.2 13.86
2/17/2017 11:30:00 PM 0.42 32.756 0.136 7.17 4.4 13.86
2/17/2017 11:45:00 PM 0.39 32.702 0.135 7.18 4.4 13.88
2/18/2017 12:00:00 AM 0.35 32.63 0.135 7.16 4.5 13.89
2/18/2017 12:15:00 AM 0.31 32.558 0.135 7.17 5 13.91
2/18/2017 12:30:00 AM 0.27 32.486 0.136 7.17 4.2 13.92
2/18/2017 12:45:00 AM 0.25 32.45 0.136 7.17 4.6 13.94
2/18/2017 1:00:00 AM 0.23 32.414 0.136 7.2 4.1 13.95
2/18/2017 1:15:00 AM 0.21 32.378 0.136 7.18 4.3 13.95
2/18/2017 1:30:00 AM 0.2 32.36 0.136 7.17 4.2 13.96
2/18/2017 1:45:00 AM 0.2 32.36 0.136 7.17 4.5 13.97
2/18/2017 2:00:00 AM 0.2 32.36 0.137 7.16 4 13.96
2/18/2017 2:15:00 AM 0.19 32.342 0.138 7.2 4.3 13.97
2/18/2017 2:30:00 AM 0.2 32.36 0.138 7.18 4.1 13.97
2/18/2017 2:45:00 AM 0.21 32.378 0.138 7.16 4.1 13.96
2/18/2017 3:00:00 AM 0.22 32.396 0.138 7.2 4.2 13.95
2/18/2017 3:15:00 AM 0.22 32.396 0.139 7.16 4.2 13.94
2/18/2017 3:30:00 AM 0.22 32.396 0.139 7.17 4.3 13.95
2/18/2017 3:45:00 AM 0.2 32.36 0.138 7.18 4 13.95
2/18/2017 4:00:00 AM 0.18 32.324 0.138 7.17 4.3 13.95
2/18/2017 4:15:00 AM 0.16 32.288 0.139 7.16 4.1 13.95
2/18/2017 4:30:00 AM 0.13 32.234 0.138 7.17 4 13.95
2/18/2017 4:45:00 AM 0.11 32.198 0.138 7.17 4 13.96
2/18/2017 5:00:00 AM 0.09 32.162 0.138 7.16 3.7 13.97
2/18/2017 5:15:00 AM 0.07 32.126 0.139 7.17 3.6 13.97
2/18/2017 5:30:00 AM 0.05 32.09 0.139 7.17 3.8 14
2/18/2017 5:45:00 AM 0.04 32.072 0.138 7.17 4.3 14
2/18/2017 6:00:00 AM 0.01 32.018 0.139 7.19 3.8 14.01
2/18/2017 6:15:00 AM 0.01 32.018 0.139 7.17 3.9 14
2/18/2017 6:30:00 AM -0.01 31.982 0.139 7.17 3.9 14.01
2/18/2017 6:45:00 AM -0.03 31.946 0.138 7.17 4.3 14.01
2/18/2017 7:00:00 AM -0.04 31.928 0.138 7.16 4 14.02
2/18/2017 7:15:00 AM -0.04 31.928 0.138 7.16 3.8 14.04
2/18/2017 7:30:00 AM -0.05 31.91 0.138 7.17 4 14.08
2/18/2017 7:45:00 AM -0.05 31.91 0.137 7.18 3.9 14.13
2/18/2017 8:00:00 AM -0.05 31.91 0.137 7.2 4 14.17
2/18/2017 8:15:00 AM -0.03 31.946 0.137 7.22 3.8 14.21
2/18/2017 8:30:00 AM 0.01 32.018 0.137 7.21 3.9 14.26
2/18/2017 8:45:00 AM 0.06 32.108 0.137 7.24 3.6 14.29
2/18/2017 9:00:00 AM 0.13 32.234 0.137 7.26 3.7 14.32
2/18/2017 9:15:00 AM 0.22 32.396 0.137 7.27 3.8 14.33
2/18/2017 9:30:00 AM 0.34 32.612 0.137 7.28 3.9 14.34
2/18/2017 9:45:00 AM 0.46 32.828 0.137 7.33 3.6 14.34
2/18/2017 10:00:00 AM 0.62 33.116 0.136 7.32 3.9 14.33
2/18/2017 10:15:00 AM 0.76 33.368 0.136 7.33 4.1 14.31
2/18/2017 10:30:00 AM 0.87 33.566 0.136 7.33 3.9 14.26
2/18/2017 10:45:00 AM 1.04 33.872 0.137 7.38 3.7 14.22
2/18/2017 11:00:00 AM 1.27 34.286 0.137 7.4 3.6 14.17
2/18/2017 11:15:00 AM 1.49 34.682 0.137 7.38 3.9 14.11
2/18/2017 11:30:00 AM 1.69 35.042 0.137 7.38 3.9 14.04
2/18/2017 11:45:00 AM 1.89 35.402 0.137 7.39 3.9 14
2/18/2017 12:00:00 PM 2.1 35.78 0.137 7.39 3.7 13.92
2/18/2017 12:15:00 PM 2.34 36.212 0.137 7.4 4.2 13.85
2/18/2017 12:30:00 PM 2.58 36.644 0.137 7.41 4.1 13.78
2/18/2017 12:45:00 PM 2.78 37.004 0.137 7.43 4.6 13.71
2/18/2017 1:00:00 PM 3.01 37.418 0.137 7.44 4.6 13.64
2/18/2017 1:15:00 PM 3.22 37.796 0.137 7.45 5.3 13.57
2/18/2017 1:30:00 PM 3.4 38.12 0.137 7.48 7.4 13.49
2/18/2017 1:45:00 PM 3.55 38.39 0.137 7.48 9.6 13.42
2/18/2017 2:00:00 PM 3.68 38.624 0.136 7.48 9.8 13.37
2/18/2017 2:15:00 PM 3.86 38.948 0.136 7.48 9.5 13.3
2/18/2017 2:30:00 PM 4.07 39.326 0.136 7.5 13.3 13.25
2/18/2017 2:45:00 PM 4.26 39.668 0.136 7.51 12.6 13.18
2/18/2017 3:00:00 PM 4.39 39.902 0.136 7.5 22.6 13.12
2/18/2017 3:15:00 PM 4.42 39.956 0.135 7.51 24.4 13.07
2/18/2017 3:30:00 PM 4.44 39.992 0.134 7.49 31.1 13.02
2/18/2017 3:45:00 PM 4.45 40.01 0.133 7.47 26.3 12.99
2/18/2017 4:00:00 PM 4.48 40.064 0.132 7.46 25.4 12.92
2/18/2017 4:15:00 PM 4.47 40.046 0.131 7.44 29.7 12.88
2/18/2017 4:30:00 PM 4.4 39.92 0.129 7.42 38.2 12.86
2/18/2017 4:45:00 PM 4.27 39.686 0.129 7.39 35.6 12.85
2/18/2017 5:00:00 PM 4.13 39.434 0.128 7.35 33.5 12.83
2/18/2017 5:15:00 PM 3.99 39.182 0.126 7.34 40.8 12.83
2/18/2017 5:30:00 PM 3.87 38.966 0.126 7.31 35.7 12.81
2/18/2017 5:45:00 PM 3.73 38.714 0.125 7.28 32.4 12.82
2/18/2017 6:00:00 PM 3.58 38.444 0.126 7.26 31.9 12.82
2/18/2017 6:15:00 PM 3.44 38.192 0.127 7.24 30.7 12.84
2/18/2017 6:30:00 PM 3.32 37.976 0.127 7.23 34.4 12.86
2/18/2017 6:45:00 PM 3.2 37.76 0.127 7.22 33.6 12.89
2/18/2017 7:00:00 PM 3.08 37.544 0.126 7.22 37.1 12.92
2/18/2017 7:15:00 PM 2.96 37.328 0.125 7.21 32.4 12.96
2/18/2017 7:30:00 PM 2.84 37.112 0.125 7.2 34.8 12.99
2/18/2017 7:45:00 PM 2.74 36.932 0.124 7.18 31.4 13.04
2/18/2017 8:00:00 PM 2.64 36.752 0.124 7.19 30.8 13.08
2/18/2017 8:15:00 PM 2.55 36.59 0.124 7.17 31.7 13.1
2/18/2017 8:30:00 PM 2.47 36.446 0.124 7.17 25.8 13.15
2/18/2017 8:45:00 PM 2.4 36.32 0.124 7.16 26.6 13.16
2/18/2017 9:00:00 PM 2.32 36.176 0.124 7.19 23.7 13.19
2/18/2017 9:15:00 PM 2.26 36.068 0.124 7.15 20.1 13.21
2/18/2017 9:30:00 PM 2.2 35.96 0.124 7.15 21.4 13.23
2/18/2017 9:45:00 PM 2.15 35.87 0.124 7.15 20.2 13.26
2/18/2017 10:00:00 PM 2.09 35.762 0.123 7.15 19.7 13.27
2/18/2017 10:15:00 PM 2.03 35.654 0.123 7.15 16.3 13.3
2/18/2017 10:30:00 PM 1.98 35.564 0.124 7.14 17.5 13.32
2/18/2017 10:45:00 PM 1.93 35.474 0.124 7.15 16.3 13.33
2/18/2017 11:00:00 PM 1.88 35.384 0.124 7.14 13.9 13.35
2/18/2017 11:15:00 PM 1.84 35.312 0.124 7.13 14.6 13.37
2/18/2017 11:30:00 PM 1.79 35.222 0.124 7.13 14.1 13.38
2/18/2017 11:45:00 PM 1.75 35.15 0.124 7.13 14.1 13.39
2/19/2017 12:00:00 AM 1.7 35.06 0.124 7.17 13.2 13.41
2/19/2017 12:15:00 AM 1.66 34.988 0.124 7.14 12.4 13.44
2/19/2017 12:30:00 AM 1.63 34.934 0.124 7.14 12.5 13.45
2/19/2017 12:45:00 AM 1.58 34.844 0.124 7.17 12.5 13.46
2/19/2017 1:00:00 AM 1.55 34.79 0.123 7.14 11.7 13.48
2/19/2017 1:15:00 AM 1.52 34.736 0.123 7.13 11 13.48
2/19/2017 1:30:00 AM 1.48 34.664 0.123 7.12 11.3 13.49
2/19/2017 1:45:00 AM 1.45 34.61 0.123 7.14 10.8 13.5
2/19/2017 2:00:00 AM 1.42 34.556 0.123 7.14 10.1 13.52
2/19/2017 2:15:00 AM 1.39 34.502 0.123 7.13 11.6 13.54
2/19/2017 2:30:00 AM 1.36 34.448 0.123 7.13 9.7 13.54
2/19/2017 2:45:00 AM 1.33 34.394 0.123 7.12 9.2 13.56
2/19/2017 3:00:00 AM 1.3 34.34 0.123 7.13 9.5 13.57
2/19/2017 3:15:00 AM 1.27 34.286 0.123 7.12 9.7 13.57
2/19/2017 3:30:00 AM 1.24 34.232 0.123 7.12 9 13.59
2/19/2017 3:45:00 AM 1.2 34.16 0.123 7.11 8.5 13.61
2/19/2017 4:00:00 AM 1.18 34.124 0.123 7.12 7.9 13.61
2/19/2017 4:15:00 AM 1.15 34.07 0.123 7.12 9 13.62
2/19/2017 4:30:00 AM 1.12 34.016 0.123 7.14 8.3 13.64
2/19/2017 4:45:00 AM 1.11 33.998 0.123 7.12 8.2 13.64
2/19/2017 5:00:00 AM 1.09 33.962 0.123 7.1 8.3 13.65
2/19/2017 5:15:00 AM 1.07 33.926 0.123 7.11 7.5 13.66
2/19/2017 5:30:00 AM 1.06 33.908 0.123 7.11 8.1 13.67
2/19/2017 5:45:00 AM 1.04 33.872 0.123 7.1 7.6 13.7
2/19/2017 6:00:00 AM 1.03 33.854 0.123 7.11 7.7 13.68
2/19/2017 6:15:00 AM 1.01 33.818 0.123 7.12 6.8 13.69
2/19/2017 6:30:00 AM 1 33.8 0.123 7.1 7.1 13.69
2/19/2017 6:45:00 AM 0.98 33.764 0.124 7.11 7.5 13.71
2/19/2017 7:00:00 AM 0.97 33.746 0.124 7.11 7.5 13.71
2/19/2017 7:15:00 AM 0.96 33.728 0.124 7.12 6.7 13.72
2/19/2017 7:30:00 AM 0.95 33.71 0.123 7.12 7.5 13.76
2/19/2017 7:45:00 AM 0.96 33.728 0.123 7.13 7.4 13.81
2/19/2017 8:00:00 AM 0.99 33.782 0.123 7.14 6.9 13.84
2/19/2017 8:15:00 AM 1.01 33.818 0.123 7.17 7.1 13.88
2/19/2017 8:30:00 AM 1.06 33.908 0.123 7.15 6.5 13.9
2/19/2017 8:45:00 AM 1.11 33.998 0.123 7.16 7.3 13.93
2/19/2017 9:00:00 AM 1.17 34.106 0.123 7.17 6.4 13.96
2/19/2017 9:15:00 AM 1.25 34.25 0.123 7.19 6 13.98
2/19/2017 9:30:00 AM 1.36 34.448 0.123 7.21 6.4 14
2/19/2017 9:45:00 AM 1.52 34.736 0.123 7.24 6.5 14
2/19/2017 10:00:00 AM 1.64 34.952 0.123 7.24 6.7 13.98
2/19/2017 10:15:00 AM 1.73 35.114 0.123 7.26 6.3 13.95
2/19/2017 10:30:00 AM 1.88 35.384 0.123 7.27 6.7 13.91
2/19/2017 10:45:00 AM 2.07 35.726 0.124 7.28 6.4 13.88
2/19/2017 11:00:00 AM 2.24 36.032 0.124 7.28 6.6 13.83
2/19/2017 11:15:00 AM 2.41 36.338 0.124 7.29 6.8 13.78
2/19/2017 11:30:00 AM 2.58 36.644 0.123 7.32 7.6 13.74
2/19/2017 11:45:00 AM 2.78 37.004 0.124 7.32 7.9 13.68
2/19/2017 12:00:00 PM 2.98 37.364 0.124 7.35 7.9 13.63
2/19/2017 12:15:00 PM 3.19 37.742 0.123 7.34 8.4 13.56
2/19/2017 12:30:00 PM 3.42 38.156 0.123 7.34 9.9 13.5
2/19/2017 12:45:00 PM 3.64 38.552 0.123 7.35 10.2 13.44
2/19/2017 1:00:00 PM 3.85 38.93 0.123 7.37 13.3 13.36
2/19/2017 1:15:00 PM 4.06 39.308 0.123 7.38 13.1 13.3
2/19/2017 1:30:00 PM 4.27 39.686 0.123 7.39 14.8 13.23
2/19/2017 1:45:00 PM 4.45 40.01 0.123 7.38 16.2 13.17
2/19/2017 2:00:00 PM 4.62 40.316 0.123 7.4 14.9 13.12
2/19/2017 2:15:00 PM 4.78 40.604 0.123 7.4 14.9 13.05
2/19/2017 2:30:00 PM 4.91 40.838 0.123 7.4 15.8 13
2/19/2017 2:45:00 PM 5.02 41.036 0.123 7.42 18.4 12.94
2/19/2017 3:00:00 PM 5.1 41.18 0.123 7.41 20.1 12.92
2/19/2017 3:15:00 PM 5.15 41.27 0.123 7.42 22.3 12.86
2/19/2017 3:30:00 PM 5.18 41.324 0.122 7.41 19.6 12.85
2/19/2017 3:45:00 PM 5.17 41.306 0.122 7.43 18.7 12.79
2/19/2017 4:00:00 PM 5.16 41.288 0.122 7.4 23.7 12.77
2/19/2017 4:15:00 PM 5.11 41.198 0.122 7.37 22.7 12.74
2/19/2017 4:30:00 PM 5.04 41.072 0.121 7.36 25.1 12.7
2/19/2017 4:45:00 PM 4.97 40.946 0.121 7.34 25.1 12.68
2/19/2017 5:00:00 PM 4.89 40.802 0.121 7.32 24.2 12.64
2/19/2017 5:15:00 PM 4.79 40.622 0.121 7.3 17.4 12.62
2/19/2017 5:30:00 PM 4.68 40.424 0.121 7.28 19.3 12.61
2/19/2017 5:45:00 PM 4.57 40.226 0.121 7.27 14.9 12.6
2/19/2017 6:00:00 PM 4.45 40.01 0.121 7.24 15.4 12.6
2/19/2017 6:15:00 PM 4.34 39.812 0.121 7.23 14.3 12.61
2/19/2017 6:30:00 PM 4.23 39.614 0.121 7.2 15.1 12.63
2/19/2017 6:45:00 PM 4.13 39.434 0.121 7.2 14.8 12.64
2/19/2017 7:00:00 PM 4.02 39.236 0.121 7.18 12.5 12.67
2/19/2017 7:15:00 PM 3.94 39.092 0.121 7.18 13.5 12.68
2/19/2017 7:30:00 PM 3.85 38.93 0.122 7.19 11 12.72
2/19/2017 7:45:00 PM 3.79 38.822 0.122 7.16 10.5 12.74
2/19/2017 8:00:00 PM 3.72 38.696 0.122 7.16 10.3 12.76
2/19/2017 8:15:00 PM 3.65 38.57 0.121 7.15 11.6 12.79
2/19/2017 8:30:00 PM 3.58 38.444 0.121 7.14 10.1 12.81
2/19/2017 8:45:00 PM 3.52 38.336 0.122 7.14 9.8 12.83
2/19/2017 9:00:00 PM 3.45 38.21 0.122 7.13 9.1 12.85
2/19/2017 9:15:00 PM 3.4 38.12 0.121 7.15 9.6 12.87
2/19/2017 9:30:00 PM 3.35 38.03 0.121 7.13 8.8 12.89
2/19/2017 9:45:00 PM 3.3 37.94 0.122 7.14 8.5 12.91
2/19/2017 10:00:00 PM 3.24 37.832 0.122 7.13 8.7 12.95
2/19/2017 10:15:00 PM 3.18 37.724 0.122 7.12 8.5 12.95
2/19/2017 10:30:00 PM 3.11 37.598 0.122 7.14 8.3 12.98
2/19/2017 10:45:00 PM 3.05 37.49 0.122 7.13 7.9 13
2/19/2017 11:00:00 PM 2.99 37.382 0.122 7.12 8.3 13.02
2/19/2017 11:15:00 PM 2.93 37.274 0.122 7.15 8.7 13.04
2/19/2017 11:30:00 PM 2.9 37.22 0.122 7.12 8.7 13.07
2/19/2017 11:45:00 PM 2.86 37.148 0.122 7.12 8.4 13.08
2/20/2017 12:00:00 AM 2.83 37.094 0.122 7.13 7.7 13.09
2/20/2017 12:15:00 AM 2.79 37.022 0.122 7.13 7.5 13.11
2/20/2017 12:30:00 AM 2.75 36.95 0.122 7.14 7.8 13.13
2/20/2017 12:45:00 AM 2.7 36.86 0.122 7.14 7.3 13.14
2/20/2017 1:00:00 AM 2.63 36.734 0.122 7.14 7.1 13.17
2/20/2017 1:15:00 AM 2.57 36.626 0.122 7.14 6.7 13.18
2/20/2017 1:30:00 AM 2.5 36.5 0.122 7.12 6.9 13.21
2/20/2017 1:45:00 AM 2.45 36.41 0.123 7.12 7.1 13.22
2/20/2017 2:00:00 AM 2.4 36.32 0.123 7.12 6.9 13.23
2/20/2017 2:15:00 AM 2.35 36.23 0.123 7.13 6.7 13.26
2/20/2017 2:30:00 AM 2.31 36.158 0.123 7.13 7 13.27
2/20/2017 2:45:00 AM 2.26 36.068 0.123 7.12 6.6 13.3
2/20/2017 3:00:00 AM 2.2 35.96 0.123 7.15 6.8 13.31
2/20/2017 3:15:00 AM 2.16 35.888 0.123 7.12 6.8 13.33
2/20/2017 3:30:00 AM 2.11 35.798 0.123 7.13 6.4 13.35
2/20/2017 3:45:00 AM 2.06 35.708 0.124 7.12 6.6 13.37
2/20/2017 4:00:00 AM 2.01 35.618 0.124 7.13 6.3 13.39
2/20/2017 4:15:00 AM 1.97 35.546 0.124 7.13 6.2 13.41
2/20/2017 4:30:00 AM 1.92 35.456 0.124 7.13 6.3 13.43
2/20/2017 4:45:00 AM 1.88 35.384 0.124 7.13 5.6 13.44
2/20/2017 5:00:00 AM 1.84 35.312 0.124 7.13 6.6 13.46
2/20/2017 5:15:00 AM 1.8 35.24 0.124 7.13 6.1 13.48
2/20/2017 5:30:00 AM 1.75 35.15 0.124 7.12 6.3 13.49
2/20/2017 5:45:00 AM 1.71 35.078 0.124 7.11 6.1 13.53
2/20/2017 6:00:00 AM 1.67 35.006 0.124 7.12 6.2 13.54
2/20/2017 6:15:00 AM 1.65 34.97 0.124 7.13 5.8 13.55
2/20/2017 6:30:00 AM 1.63 34.934 0.124 7.12 5.6 13.58
2/20/2017 6:45:00 AM 1.6 34.88 0.125 7.15 5.9 13.6
2/20/2017 7:00:00 AM 1.6 34.88 0.125 7.11 5.8 13.6
2/20/2017 7:15:00 AM 1.6 34.88 0.125 7.12 5.5 13.62
2/20/2017 7:30:00 AM 1.58 34.844 0.124 7.13 5.5 13.65
2/20/2017 7:45:00 AM 1.58 34.844 0.124 7.13 6.2 13.71
2/20/2017 8:00:00 AM 1.59 34.862 0.124 7.14 6.9 13.74
2/20/2017 8:15:00 AM 1.61 34.898 0.124 7.15 5.3 13.77
2/20/2017 8:30:00 AM 1.64 34.952 0.124 7.17 5.3 13.79
2/20/2017 8:45:00 AM 1.69 35.042 0.125 7.19 5.5 13.83
2/20/2017 9:00:00 AM 1.74 35.132 0.125 7.2 5.6 13.87
2/20/2017 9:15:00 AM 1.81 35.258 0.124 7.22 6 13.9
2/20/2017 9:30:00 AM 1.89 35.402 0.124 7.27 5.6 13.95
2/20/2017 9:45:00 AM 1.97 35.546 0.124 7.27 5.3 13.96
2/20/2017 10:00:00 AM 2.05 35.69 0.124 7.31 5.3 13.99
2/20/2017 10:15:00 AM 2.12 35.816 0.123 7.31 5.5 13.99
2/20/2017 10:30:00 AM 2.2 35.96 0.123 7.34 5.3 14.01
2/20/2017 10:45:00 AM 2.33 36.194 0.123 7.33 5.8 13.97
2/20/2017 11:00:00 AM 2.52 36.536 0.123 7.34 4.9 13.94
2/20/2017 11:15:00 AM 2.6 36.68 0.123 7.35 5.5 13.92
2/20/2017 11:30:00 AM 2.68 36.824 0.123 7.36 5.5 13.9
2/20/2017 11:45:00 AM 2.77 36.986 0.123 7.37 5.5 13.87
2/20/2017 12:00:00 PM 2.9 37.22 0.124 7.38 5.3 13.87
2/20/2017 12:15:00 PM 3.09 37.562 0.124 7.38 5.2 13.81
2/20/2017 12:30:00 PM 3.29 37.922 0.124 7.4 5.4 13.76
2/20/2017 12:45:00 PM 3.48 38.264 0.124 7.41 5.1 13.69
2/20/2017 1:00:00 PM 3.65 38.57 0.124 7.41 5.3 13.66
2/20/2017 1:15:00 PM 3.81 38.858 0.124 7.42 4.9 13.61
2/20/2017 1:30:00 PM 3.98 39.164 0.123 7.42 5.4 13.54
2/20/2017 1:45:00 PM 4.15 39.47 0.123 7.45 4.9 13.49
2/20/2017 2:00:00 PM 4.29 39.722 0.124 7.45 5.1 13.44
2/20/2017 2:15:00 PM 4.4 39.92 0.124 7.48 6 13.4
2/20/2017 2:30:00 PM 4.51 40.118 0.123 7.46 7.1 13.35
2/20/2017 2:45:00 PM 4.6 40.28 0.123 7.47 6.8 13.32
2/20/2017 3:00:00 PM 4.67 40.406 0.123 7.47 5.7 13.28
2/20/2017 3:15:00 PM 4.73 40.514 0.123 7.48 5.5 13.24
2/20/2017 3:30:00 PM 4.75 40.55 0.123 7.46 5.3 13.22
2/20/2017 3:45:00 PM 4.73 40.514 0.123 7.46 5.8 13.19
2/20/2017 4:00:00 PM 4.68 40.424 0.124 7.45 5.8 13.17
2/20/2017 4:15:00 PM 4.6 40.28 0.124 7.45 5.8 13.13
2/20/2017 4:30:00 PM 4.49 40.082 0.124 7.41 5.6 13.1
2/20/2017 4:45:00 PM 4.39 39.902 0.124 7.4 5.6 13.07
2/20/2017 5:00:00 PM 4.28 39.704 0.124 7.38 6 13.07
2/20/2017 5:15:00 PM 4.17 39.506 0.124 7.35 6 13.02
2/20/2017 5:30:00 PM 4.05 39.29 0.124 7.33 6.6 13.01
2/20/2017 5:45:00 PM 3.91 39.038 0.124 7.31 14.4 12.99
2/20/2017 6:00:00 PM 3.77 38.786 0.124 7.29 8.8 12.98
2/20/2017 6:15:00 PM 3.64 38.552 0.124 7.25 7.4 12.98
2/20/2017 6:30:00 PM 3.5 38.3 0.124 7.24 7.9 12.99
2/20/2017 6:45:00 PM 3.36 38.048 0.124 7.22 6.4 13.02
2/20/2017 7:00:00 PM 3.23 37.814 0.125 7.21 7 13.05
2/20/2017 7:15:00 PM 3.12 37.616 0.125 7.2 6.7 13.07
2/20/2017 7:30:00 PM 3 37.4 0.125 7.19 6.7 13.1
2/20/2017 7:45:00 PM 2.9 37.22 0.125 7.18 6.5 13.13
2/20/2017 8:00:00 PM 2.81 37.058 0.125 7.18 6.9 13.16
2/20/2017 8:15:00 PM 2.72 36.896 0.125 7.17 6.4 13.18
2/20/2017 8:30:00 PM 2.63 36.734 0.125 7.17 6.4 13.22
2/20/2017 8:45:00 PM 2.55 36.59 0.125 7.17 6.4 13.24
2/20/2017 9:00:00 PM 2.47 36.446 0.125 7.16 6.1 13.27
2/20/2017 9:15:00 PM 2.4 36.32 0.125 7.15 6.4 13.29
2/20/2017 9:30:00 PM 2.33 36.194 0.125 7.15 6.8 13.32
2/20/2017 9:45:00 PM 2.25 36.05 0.125 7.17 6.2 13.35
2/20/2017 10:00:00 PM 2.19 35.942 0.126 7.16 5.9 13.38
2/20/2017 10:15:00 PM 2.13 35.834 0.126 7.14 6.3 13.39
2/20/2017 10:30:00 PM 2.06 35.708 0.126 7.15 6.1 13.42
2/20/2017 10:45:00 PM 2 35.6 0.126 7.17 6.3 13.45
2/20/2017 11:00:00 PM 1.94 35.492 0.126 7.14 5.9 13.47
2/20/2017 11:15:00 PM 1.89 35.402 0.126 7.14 5.5 13.48
2/20/2017 11:30:00 PM 1.84 35.312 0.126 7.14 5.7 13.51
2/20/2017 11:45:00 PM 1.8 35.24 0.126 7.15 5.8 13.52
2/21/2017 12:00:00 AM 1.76 35.168 0.126 7.15 5.7 13.54
2/21/2017 12:15:00 AM 1.73 35.114 0.126 7.14 5.8 13.55
2/21/2017 12:30:00 AM 1.7 35.06 0.126 7.14 6.3 13.57
2/21/2017 12:45:00 AM 1.66 34.988 0.126 7.15 5.6 13.59
2/21/2017 1:00:00 AM 1.62 34.916 0.126 7.13 6.2 13.59
2/21/2017 1:15:00 AM 1.59 34.862 0.126 7.15 6.1 13.6
2/21/2017 1:30:00 AM 1.55 34.79 0.126 7.16 5.5 13.63
2/21/2017 1:45:00 AM 1.52 34.736 0.126 7.14 5.1 13.62
2/21/2017 2:00:00 AM 1.49 34.682 0.126 7.13 5.5 13.64
2/21/2017 2:15:00 AM 1.44 34.592 0.126 7.14 5.5 13.66
2/21/2017 2:30:00 AM 1.39 34.502 0.126 7.13 5.4 13.67
2/21/2017 2:45:00 AM 1.34 34.412 0.126 7.14 4.9 13.68
2/21/2017 3:00:00 AM 1.3 34.34 0.126 7.13 4.9 13.7
2/21/2017 3:15:00 AM 1.26 34.268 0.126 7.14 5.3 13.71
2/21/2017 3:30:00 AM 1.21 34.178 0.126 7.13 4.8 13.72
2/21/2017 3:45:00 AM 1.16 34.088 0.126 7.13 5.3 13.74
2/21/2017 4:00:00 AM 1.12 34.016 0.127 7.14 4.7 13.75
2/21/2017 4:15:00 AM 1.09 33.962 0.127 7.13 5.3 13.77
2/21/2017 4:30:00 AM 1.05 33.89 0.126 7.13 4.7 13.78
2/21/2017 4:45:00 AM 1.02 33.836 0.126 7.13 4.7 13.81
2/21/2017 5:00:00 AM 1 33.8 0.127 7.16 4.7 13.81
2/21/2017 5:15:00 AM 0.97 33.746 0.127 7.16 4.7 13.83
2/21/2017 5:30:00 AM 0.96 33.728 0.126 7.15 4.5 13.82
2/21/2017 5:45:00 AM 0.93 33.674 0.126 7.13 4.6 13.83
2/21/2017 6:00:00 AM 0.91 33.638 0.126 7.13 4.5 13.85
2/21/2017 6:15:00 AM 0.89 33.602 0.125 7.14 5 13.86
2/21/2017 6:30:00 AM 0.88 33.584 0.125 7.13 4.4 13.86
2/21/2017 6:45:00 AM 0.87 33.566 0.125 7.13 4.6 13.86
2/21/2017 7:00:00 AM 0.87 33.566 0.125 7.14 4.7 13.87
2/21/2017 7:15:00 AM 0.87 33.566 0.125 7.14 4.8 13.9
2/21/2017 7:30:00 AM 0.88 33.584 0.125 7.15 4.6 13.95
2/21/2017 7:45:00 AM 0.89 33.602 0.125 7.15 4.7 14.01
2/21/2017 8:00:00 AM 0.92 33.656 0.125 7.18 5 14.08
2/21/2017 8:15:00 AM 0.96 33.728 0.125 7.2 4.4 14.12
2/21/2017 8:30:00 AM 1.01 33.818 0.125 7.21 4.5 14.18
2/21/2017 8:45:00 AM 1.08 33.944 0.125 7.23 4.5 14.22
2/21/2017 9:00:00 AM 1.15 34.07 0.125 7.29 4.4 14.26
2/21/2017 9:15:00 AM 1.24 34.232 0.125 7.29 4.5 14.28
2/21/2017 9:30:00 AM 1.31 34.358 0.125 7.3 4.4 14.3
2/21/2017 9:45:00 AM 1.39 34.502 0.125 7.33 4.6 14.28
2/21/2017 10:00:00 AM 1.51 34.718 0.125 7.36 4.4 14.29
2/21/2017 10:15:00 AM 1.64 34.952 0.126 7.38 4 14.27
2/21/2017 10:30:00 AM 1.75 35.15 0.126 7.38 4.8 14.26
2/21/2017 10:45:00 AM 1.85 35.33 0.125 7.4 4.6 14.24
2/21/2017 11:00:00 AM 1.95 35.51 0.125 7.42 5.1 14.21
2/21/2017 11:15:00 AM 2.07 35.726 0.125 7.44 4.9 14.19
2/21/2017 11:30:00 AM 2.23 36.014 0.125 7.45 4.9 14.16
2/21/2017 11:45:00 AM 2.4 36.32 0.125 7.47 4.9 14.13
2/21/2017 12:00:00 PM 2.59 36.662 0.125 7.48 4.9 14.08
2/21/2017 12:15:00 PM 2.73 36.914 0.125 7.49 5 14.03
2/21/2017 12:30:00 PM 2.82 37.076 0.125 7.5 5.3 13.98
2/21/2017 12:45:00 PM 2.91 37.238 0.125 7.53 5.4 13.96
2/21/2017 1:00:00 PM 3.09 37.562 0.125 7.52 5.5 13.9
2/21/2017 1:15:00 PM 3.31 37.958 0.125 7.52 6.1 13.86
2/21/2017 1:30:00 PM 3.45 38.21 0.125 7.54 6.2 13.78
2/21/2017 1:45:00 PM 3.46 38.228 0.124 7.54 5.8 13.72
2/21/2017 2:00:00 PM 3.42 38.156 0.124 7.53 5.7 13.68
2/21/2017 2:15:00 PM 3.43 38.174 0.123 7.51 6.4 13.65
2/21/2017 2:30:00 PM 3.51 38.318 0.124 7.53 5.6 13.64
2/21/2017 2:45:00 PM 3.61 38.498 0.124 7.53 6.7 13.61
2/21/2017 3:00:00 PM 3.66 38.588 0.124 7.53 5.9 13.57
2/21/2017 3:15:00 PM 3.67 38.606 0.124 7.53 6.2 13.55
2/21/2017 3:30:00 PM 3.68 38.624 0.124 7.52 6 13.53
2/21/2017 3:45:00 PM 3.71 38.678 0.124 7.53 6.1 13.53
2/21/2017 4:00:00 PM 3.74 38.732 0.124 7.53 6 13.53
2/21/2017 4:15:00 PM 3.71 38.678 0.124 7.52 6.4 13.47
2/21/2017 4:30:00 PM 3.65 38.57 0.124 7.51 5.6 13.4
2/21/2017 4:45:00 PM 3.6 38.48 0.124 7.46 5.3 13.35
2/21/2017 5:00:00 PM 3.55 38.39 0.124 7.42 5.4 13.29
2/21/2017 5:15:00 PM 3.5 38.3 0.125 7.39 5.5 13.23
2/21/2017 5:30:00 PM 3.45 38.21 0.125 7.37 4.9 13.19
2/21/2017 5:45:00 PM 3.4 38.12 0.124 7.36 4.8 13.14
2/21/2017 6:00:00 PM 3.34 38.012 0.125 7.31 4.9 13.09
2/21/2017 6:15:00 PM 3.29 37.922 0.125 7.27 5.3 13.05
2/21/2017 6:30:00 PM 3.24 37.832 0.125 7.26 4.9 13.02
2/21/2017 6:45:00 PM 3.19 37.742 0.125 7.25 5.4 13.01
2/21/2017 7:00:00 PM 3.15 37.67 0.125 7.23 5.7 13.01
2/21/2017 7:15:00 PM 3.12 37.616 0.125 7.23 5.1 13.01
2/21/2017 7:30:00 PM 3.09 37.562 0.125 7.21 4.8 13.02
2/21/2017 7:45:00 PM 3.06 37.508 0.125 7.2 5 13.01
2/21/2017 8:00:00 PM 3.04 37.472 0.125 7.19 4.9 13.01
2/21/2017 8:15:00 PM 3.01 37.418 0.125 7.22 4.9 13.01
2/21/2017 8:30:00 PM 3 37.4 0.125 7.18 4.9 13.02
2/21/2017 8:45:00 PM 2.98 37.364 0.125 7.19 4.9 13.03
2/21/2017 9:00:00 PM 2.98 37.364 0.125 7.18 4.8 13.02
2/21/2017 9:15:00 PM 2.97 37.346 0.125 7.18 5 13.02
2/21/2017 9:30:00 PM 2.96 37.328 0.125 7.18 5 13.02
2/21/2017 9:45:00 PM 2.96 37.328 0.125 7.18 5.3 13.01
2/21/2017 10:00:00 PM 2.95 37.31 0.125 7.18 5.2 13.02
2/21/2017 10:15:00 PM 2.94 37.292 0.126 7.17 5.2 13.01
2/21/2017 10:30:00 PM 2.93 37.274 0.125 7.17 6.4 13.01
2/21/2017 10:45:00 PM 2.93 37.274 0.125 7.18 5.5 13.01
2/21/2017 11:00:00 PM 2.92 37.256 0.125 7.17 5.3 13.01
2/21/2017 11:15:00 PM 2.92 37.256 0.126 7.16 5.4 13.01
2/21/2017 11:30:00 PM 2.92 37.256 0.126 7.17 4.9 13.02
2/21/2017 11:45:00 PM 2.92 37.256 0.125 7.17 5 13.01
2/22/2017 12:00:00 AM 2.9 37.22 0.126 7.19 5.2 13.01
2/22/2017 12:15:00 AM 2.92 37.256 0.126 7.16 5.4 13.01
2/22/2017 12:30:00 AM 2.93 37.274 0.126 7.16 4.7 13
2/22/2017 12:45:00 AM 2.94 37.292 0.126 7.17 5.2 12.99
2/22/2017 1:00:00 AM 2.94 37.292 0.126 7.16 5.1 12.99
2/22/2017 1:15:00 AM 2.95 37.31 0.126 7.17 5.3 13
2/22/2017 1:30:00 AM 2.95 37.31 0.126 7.16 5.1 13
2/22/2017 1:45:00 AM 2.94 37.292 0.126 7.17 6.8 13
2/22/2017 2:00:00 AM 2.92 37.256 0.126 7.16 6.6 13.01
2/22/2017 2:15:00 AM 2.91 37.238 0.126 7.18 5.4 13
2/22/2017 2:30:00 AM 2.91 37.238 0.126 7.16 5 13
2/22/2017 2:45:00 AM 2.91 37.238 0.126 7.16 5 13
2/22/2017 3:00:00 AM 2.9 37.22 0.126 7.17 5.5 12.99
2/22/2017 3:15:00 AM 2.9 37.22 0.126 7.16 5.2 13
2/22/2017 3:30:00 AM 2.87 37.166 0.126 7.17 4.9 13
2/22/2017 3:45:00 AM 2.83 37.094 0.126 7.18 4.8 13
2/22/2017 4:00:00 AM 2.81 37.058 0.126 7.16 4.7 13
2/22/2017 4:15:00 AM 2.79 37.022 0.126 7.16 4.5 13.01
2/22/2017 4:30:00 AM 2.76 36.968 0.125 7.16 4.6 13.02
2/22/2017 4:45:00 AM 2.73 36.914 0.125 7.15 4.9 13.03
2/22/2017 5:00:00 AM 2.71 36.878 0.124 7.15 4.6 13.03
2/22/2017 5:15:00 AM 2.68 36.824 0.124 7.16 5 13.05
2/22/2017 5:30:00 AM 2.68 36.824 0.124 7.16 4.9 13.05
2/22/2017 5:45:00 AM 2.67 36.806 0.124 7.16 4.4 13.06
2/22/2017 6:00:00 AM 2.65 36.77 0.124 7.18 4.7 13.06
2/22/2017 6:15:00 AM 2.63 36.734 0.124 7.16 4.3 13.07
2/22/2017 6:30:00 AM 2.6 36.68 0.124 7.15 4.7 13.07
2/22/2017 6:45:00 AM 2.58 36.644 0.124 7.16 4.6 13.08
2/22/2017 7:00:00 AM 2.56 36.608 0.124 7.15 4.9 13.1
2/22/2017 7:15:00 AM 2.56 36.608 0.124 7.16 4.3 13.12
2/22/2017 7:30:00 AM 2.57 36.626 0.125 7.19 4.8 13.18
2/22/2017 7:45:00 AM 2.59 36.662 0.125 7.18 4.6 13.22
2/22/2017 8:00:00 AM 2.62 36.716 0.125 7.2 4.4 13.31
2/22/2017 8:15:00 AM 2.65 36.77 0.124 7.22 4.4 13.39
2/22/2017 8:30:00 AM 2.7 36.86 0.125 7.25 4.3 13.47
2/22/2017 8:45:00 AM 2.77 36.986 0.125 7.3 4.7 13.55
2/22/2017 9:00:00 AM 2.82 37.076 0.124 7.31 11 13.59
2/22/2017 9:15:00 AM 2.88 37.184 0.124 7.34 7 13.62
2/22/2017 9:30:00 AM 2.96 37.328 0.125 7.37 5.2 13.65
2/22/2017 9:45:00 AM 3.08 37.544 0.125 7.4 4.8 13.68
2/22/2017 10:00:00 AM 3.2 37.76 0.125 7.42 5.1 13.69
2/22/2017 10:15:00 AM 3.28 37.904 0.125 7.46 5.4 13.66
2/22/2017 10:30:00 AM 3.35 38.03 0.125 7.47 5.8 13.62
2/22/2017 10:45:00 AM 3.41 38.138 0.124 7.47 6.3 13.59
2/22/2017 11:00:00 AM 3.48 38.264 0.124 7.5 6.7 13.56
2/22/2017 11:15:00 AM 3.63 38.534 0.124 7.52 7.3 13.57
2/22/2017 11:30:00 AM 3.76 38.768 0.124 7.52 7.9 13.57
2/22/2017 11:45:00 AM 3.89 39.002 0.124 7.54 7.8 13.54
2/22/2017 12:00:00 PM 3.98 39.164 0.125 7.56 9.2 13.52
2/22/2017 12:15:00 PM 4.07 39.326 0.125 7.58 9.9 13.49
2/22/2017 12:30:00 PM 4.23 39.614 0.125 7.59 11.7 13.47
2/22/2017 12:45:00 PM 4.39 39.902 0.125 7.61 12.4 13.44
2/22/2017 1:00:00 PM 4.54 40.172 0.125 7.63 14 13.42
2/22/2017 1:15:00 PM 4.69 40.442 0.125 7.65 13.7 13.38
2/22/2017 1:30:00 PM 4.82 40.676 0.125 7.66 15.1 13.33
2/22/2017 1:45:00 PM 4.92 40.856 0.125 7.68 14.2 13.27
2/22/2017 2:00:00 PM 5.03 41.054 0.125 7.67 14.8 13.24
2/22/2017 2:15:00 PM 5.11 41.198 0.125 7.68 19.4 13.2
2/22/2017 2:30:00 PM 5.19 41.342 0.125 7.67 16.7 13.12
2/22/2017 2:45:00 PM 5.26 41.468 0.125 7.66 15 13.08
2/22/2017 3:00:00 PM 5.29 41.522 0.125 7.67 17.1 13.01
2/22/2017 3:15:00 PM 5.29 41.522 0.125 7.64 15.3 12.96
2/22/2017 3:30:00 PM 5.33 41.594 0.125 7.61 20.2 12.9
2/22/2017 3:45:00 PM 5.42 41.756 0.125 7.61 15.6 12.91
2/22/2017 4:00:00 PM 5.42 41.756 0.125 7.61 14.3 12.89
2/22/2017 4:15:00 PM 5.41 41.738 0.125 7.59 12.1 12.83
2/22/2017 4:30:00 PM 5.42 41.756 0.125 7.58 13.6 12.78
2/22/2017 4:45:00 PM 5.4 41.72 0.125 7.54 14.3 12.71
2/22/2017 5:00:00 PM 5.38 41.684 0.125 7.49 14.6 12.57
2/22/2017 5:15:00 PM 5.36 41.648 0.126 7.45 17.3 12.51
2/22/2017 5:30:00 PM 5.32 41.576 0.125 7.41 13.1 12.44
2/22/2017 5:45:00 PM 5.28 41.504 0.125 7.36 13 12.36
2/22/2017 6:00:00 PM 5.25 41.45 0.126 7.33 15.1 12.3
2/22/2017 6:15:00 PM 5.21 41.378 0.126 7.3 13.1 12.27
2/22/2017 6:30:00 PM 5.18 41.324 0.126 7.28 13.5 12.24
2/22/2017 6:45:00 PM 5.13 41.234 0.126 7.27 11.7 12.23
2/22/2017 7:00:00 PM 5.1 41.18 0.126 7.24 13.3 12.22
2/22/2017 7:15:00 PM 5.05 41.09 0.126 7.23 14.2 12.21
2/22/2017 7:30:00 PM 4.99 40.982 0.126 7.22 16.5 12.22
2/22/2017 7:45:00 PM 4.93 40.874 0.126 7.2 15.3 12.24
2/22/2017 8:00:00 PM 4.86 40.748 0.126 7.19 12 12.23
2/22/2017 8:15:00 PM 4.79 40.622 0.126 7.19 11.4 12.26
2/22/2017 8:30:00 PM 4.73 40.514 0.126 7.19 10.5 12.28
2/22/2017 8:45:00 PM 4.67 40.406 0.126 7.19 11.8 12.3
2/22/2017 9:00:00 PM 4.61 40.298 0.126 7.18 9.6 12.31
2/22/2017 9:15:00 PM 4.56 40.208 0.126 7.18 10.2 12.33
2/22/2017 9:30:00 PM 4.51 40.118 0.126 7.17 9.2 12.33
2/22/2017 9:45:00 PM 4.47 40.046 0.125 7.17 8.4 12.34
2/22/2017 10:00:00 PM 4.42 39.956 0.124 7.17 7.6 12.38
2/22/2017 10:15:00 PM 4.36 39.848 0.124 7.16 8.1 12.39
2/22/2017 10:30:00 PM 4.3 39.74 0.124 7.18 7.7 12.39
2/22/2017 10:45:00 PM 4.26 39.668 0.124 7.17 7.5 12.42
2/22/2017 11:00:00 PM 4.21 39.578 0.124 7.16 6.9 12.42
2/22/2017 11:15:00 PM 4.16 39.488 0.124 7.16 8.3 12.45
2/22/2017 11:30:00 PM 4.13 39.434 0.125 7.15 7.5 12.46
2/22/2017 11:45:00 PM 4.09 39.362 0.126 7.16 7.9 12.48
2/23/2017 12:00:00 AM 4.04 39.272 0.127 7.16 7.4 12.49
2/23/2017 12:15:00 AM 3.98 39.164 0.127 7.16 6.7 12.5
2/23/2017 12:30:00 AM 3.93 39.074 0.127 7.16 6.4 12.52
2/23/2017 12:45:00 AM 3.88 38.984 0.127 7.16 6.6 12.53
2/23/2017 1:00:00 AM 3.83 38.894 0.127 7.15 6.8 12.55
2/23/2017 1:15:00 AM 3.78 38.804 0.127 7.16 6.4 12.56
2/23/2017 1:30:00 AM 3.73 38.714 0.126 7.15 7 12.58
2/23/2017 1:45:00 AM 3.68 38.624 0.125 7.15 6.3 12.61
2/23/2017 2:00:00 AM 3.63 38.534 0.125 7.15 6.4 12.61
2/23/2017 2:15:00 AM 3.57 38.426 0.124 7.18 6.2 12.62
2/23/2017 2:30:00 AM 3.54 38.372 0.124 7.15 5.8 12.64
2/23/2017 2:45:00 AM 3.49 38.282 0.124 7.15 5.6 12.66
2/23/2017 3:00:00 AM 3.45 38.21 0.124 7.15 5.5 12.66
2/23/2017 3:15:00 AM 3.41 38.138 0.124 7.16 5.8 12.68
2/23/2017 3:30:00 AM 3.37 38.066 0.124 7.15 5.4 12.69
2/23/2017 3:45:00 AM 3.32 37.976 0.124 7.16 5.4 12.71
2/23/2017 4:00:00 AM 3.28 37.904 0.124 7.16 5.9 12.72
2/23/2017 4:15:00 AM 3.25 37.85 0.124 7.15 5.7 12.74
2/23/2017 4:30:00 AM 3.21 37.778 0.125 7.14 5.8 12.74
2/23/2017 4:45:00 AM 3.17 37.706 0.126 7.16 5.5 12.76
2/23/2017 5:00:00 AM 3.14 37.652 0.127 7.16 5.8 12.77
2/23/2017 5:15:00 AM 3.14 37.652 0.127 7.15 5.6 12.78
2/23/2017 5:30:00 AM 3.14 37.652 0.127 7.16 5.6 12.79
2/23/2017 5:45:00 AM 3.13 37.634 0.127 7.16 5.9 12.79
2/23/2017 6:00:00 AM 3.13 37.634 0.127 7.18 6.1 12.8
2/23/2017 6:15:00 AM 3.14 37.652 0.127 7.16 6.6 12.79
2/23/2017 6:30:00 AM 3.12 37.616 0.126 7.16 6.2 12.79
2/23/2017 6:45:00 AM 3.1 37.58 0.125 7.16 5.5 12.8
2/23/2017 7:00:00 AM 3.08 37.544 0.125 7.15 5.7 12.81
2/23/2017 7:15:00 AM 3.07 37.526 0.125 7.16 5.2 12.85
2/23/2017 7:30:00 AM 3.07 37.526 0.125 7.18 5.2 12.9
2/23/2017 7:45:00 AM 3.08 37.544 0.125 7.18 5.2 12.97
2/23/2017 8:00:00 AM 3.09 37.562 0.125 7.21 7.1 13.04
2/23/2017 8:15:00 AM 3.11 37.598 0.125 7.23 6 13.11
2/23/2017 8:30:00 AM 3.19 37.742 0.124 7.25 5.7 13.21
2/23/2017 8:45:00 AM 3.29 37.922 0.124 7.29 6.4 13.3
2/23/2017 9:00:00 AM 3.36 38.048 0.124 7.33 5.7 13.32
2/23/2017 9:15:00 AM 3.48 38.264 0.125 7.36 5.4 13.35
2/23/2017 9:30:00 AM 3.64 38.552 0.125 7.4 5.8 13.41
2/23/2017 9:45:00 AM 3.77 38.786 0.125 7.46 5.6 13.41
2/23/2017 10:00:00 AM 3.92 39.056 0.124 7.45 5.6 13.39
2/23/2017 10:15:00 AM 4.15 39.47 0.125 7.49 5.8 13.44
2/23/2017 10:30:00 AM 4.26 39.668 0.125 7.52 5.9 13.41
2/23/2017 10:45:00 AM 4.32 39.776 0.125 7.53 5.8 13.32
2/23/2017 11:00:00 AM 4.39 39.902 0.125 7.54 6.2 13.26
2/23/2017 11:15:00 AM 4.49 40.082 0.125 7.55 6.2 13.24
2/23/2017 11:30:00 AM 4.63 40.334 0.125 7.57 7 13.2
2/23/2017 11:45:00 AM 4.81 40.658 0.125 7.59 6.6 13.21
2/23/2017 12:00:00 PM 4.99 40.982 0.124 7.62 6.5 13.19
2/23/2017 12:15:00 PM 5.24 41.432 0.124 7.67 7.2 13.18
2/23/2017 12:30:00 PM 5.54 41.972 0.124 7.71 10 13.16
2/23/2017 12:45:00 PM 5.8 42.44 0.124 7.74 8.3 13.09
2/23/2017 1:00:00 PM 6.01 42.818 0.124 7.76 9.2 13.03
2/23/2017 1:15:00 PM 6.14 43.052 0.124 7.79 8.7 12.96
2/23/2017 1:30:00 PM 6.22 43.196 0.124 7.81 10.1 12.88
2/23/2017 1:45:00 PM 6.33 43.394 0.124 7.78 10.9 12.87
2/23/2017 2:00:00 PM 6.52 43.736 0.124 7.8 10.9 12.83
2/23/2017 2:15:00 PM 6.7 44.06 0.124 7.85 9.2 12.79
2/23/2017 2:30:00 PM 6.78 44.204 0.124 7.84 11.4 12.68
2/23/2017 2:45:00 PM 6.84 44.312 0.124 7.8 11.6 12.57
2/23/2017 3:00:00 PM 6.89 44.402 0.124 7.74 10.4 12.42
2/23/2017 3:15:00 PM 6.93 44.474 0.125 7.67 11.5 12.27
2/23/2017 3:30:00 PM 6.98 44.564 0.125 7.61 9.4 12.17
2/23/2017 3:45:00 PM 7.02 44.636 0.125 7.57 9.6 12.11
2/23/2017 4:00:00 PM 7.05 44.69 0.125 7.54 10 12.09
2/23/2017 4:15:00 PM 7.08 44.744 0.125 7.53 9.2 12.09
2/23/2017 4:30:00 PM 7.15 44.87 0.125 7.56 8.5 12.2
2/23/2017 4:45:00 PM 7.21 44.978 0.124 7.6 8.8 12.29
2/23/2017 5:00:00 PM 7.19 44.942 0.124 7.61 8.1 12.23
2/23/2017 5:15:00 PM 7.13 44.834 0.125 7.58 7.8 12.09
2/23/2017 5:30:00 PM 7.09 44.762 0.125 7.53 7.8 12.04
2/23/2017 5:45:00 PM 7.01 44.618 0.125 7.49 7.3 11.97
2/23/2017 6:00:00 PM 6.92 44.456 0.125 7.44 7.4 11.86
2/23/2017 6:15:00 PM 6.84 44.312 0.125 7.39 9.2 11.81
2/23/2017 6:30:00 PM 6.74 44.132 0.125 7.35 9 11.74
2/23/2017 6:45:00 PM 6.65 43.97 0.125 7.34 8.4 11.72
2/23/2017 7:00:00 PM 6.54 43.772 0.125 7.3 8.5 11.72
2/23/2017 7:15:00 PM 6.45 43.61 0.126 7.27 7.5 11.71
2/23/2017 7:30:00 PM 6.36 43.448 0.126 7.26 8.2 11.74
2/23/2017 7:45:00 PM 6.27 43.286 0.126 7.25 7.3 11.75
2/23/2017 8:00:00 PM 6.17 43.106 0.126 7.24 7.6 11.79
2/23/2017 8:15:00 PM 6.07 42.926 0.126 7.22 9.3 11.81
2/23/2017 8:30:00 PM 5.98 42.764 0.126 7.21 8.2 11.83
2/23/2017 8:45:00 PM 5.89 42.602 0.126 7.21 7.5 11.85
2/23/2017 9:00:00 PM 5.79 42.422 0.126 7.22 18.4 11.86
2/23/2017 9:15:00 PM 5.71 42.278 0.127 7.2 9.7 11.89
2/23/2017 9:30:00 PM 5.63 42.134 0.127 7.2 12.1 11.93
2/23/2017 9:45:00 PM 5.55 41.99 0.127 7.2 16.1 11.96
2/23/2017 10:00:00 PM 5.48 41.864 0.127 7.19 67 11.97
2/23/2017 10:15:00 PM 5.41 41.738 0.127 7.19 14.5 11.99
2/23/2017 10:30:00 PM 5.35 41.63 0.127 7.18 37.1 12.01
2/23/2017 10:45:00 PM 5.29 41.522 0.127 7.18 6.1 12.02
2/23/2017 11:00:00 PM 5.24 41.432 0.127 7.18 6.2 12.03
2/23/2017 11:15:00 PM 5.19 41.342 0.127 7.18 6.2 12.07
2/23/2017 11:30:00 PM 5.14 41.252 0.128 7.18 5.6 12.06
2/23/2017 11:45:00 PM 5.12 41.216 0.127 7.17 5.6 12.09
2/24/2017 12:00:00 AM 5.1 41.18 0.127 7.17 6 12.1
2/24/2017 12:15:00 AM 5.09 41.162 0.128 7.18 5.6 12.11
2/24/2017 12:30:00 AM 5.06 41.108 0.128 7.17 5.5 12.12
2/24/2017 12:45:00 AM 5.02 41.036 0.128 7.19 5.6 12.14
2/24/2017 1:00:00 AM 5 41 0.128 7.17 5.4 12.13
2/24/2017 1:15:00 AM 4.98 40.964 0.128 7.17 5.4 12.16
2/24/2017 1:30:00 AM 4.97 40.946 0.128 7.18 5.8 12.15
2/24/2017 1:45:00 AM 4.95 40.91 0.128 7.19 5.1 12.16
2/24/2017 2:00:00 AM 4.94 40.892 0.128 7.17 5.7 12.17
2/24/2017 2:15:00 AM 4.92 40.856 0.128 7.17 5.3 12.16
2/24/2017 2:30:00 AM 4.9 40.82 0.128 7.17 5.5 12.17
2/24/2017 2:45:00 AM 4.89 40.802 0.128 7.17 5.7 12.17
2/24/2017 3:00:00 AM 4.87 40.766 0.128 7.16 5.5 12.18
2/24/2017 3:15:00 AM 4.86 40.748 0.128 7.17 4.9 12.19
2/24/2017 3:30:00 AM 4.86 40.748 0.128 7.16 5.5 12.19
2/24/2017 3:45:00 AM 4.84 40.712 0.128 7.16 5.3 12.19
2/24/2017 4:00:00 AM 4.83 40.694 0.128 7.17 5.1 12.19
2/24/2017 4:15:00 AM 4.82 40.676 0.129 7.16 4.9 12.2
2/24/2017 4:30:00 AM 4.8 40.64 0.129 7.18 5.4 12.19
2/24/2017 4:45:00 AM 4.79 40.622 0.128 7.17 4.9 12.2
2/24/2017 5:00:00 AM 4.78 40.604 0.127 7.15 4.9 12.2
2/24/2017 5:15:00 AM 4.77 40.586 0.127 7.15 4.8 12.21
2/24/2017 5:30:00 AM 4.76 40.568 0.127 7.15 5.8 12.21
2/24/2017 5:45:00 AM 4.74 40.532 0.127 7.15 5.7 12.22
2/24/2017 6:00:00 AM 4.72 40.496 0.127 7.15 5.3 12.21
2/24/2017 6:15:00 AM 4.71 40.478 0.127 7.16 5.2 12.22
2/24/2017 6:30:00 AM 4.7 40.46 0.127 7.14 5.8 12.23
2/24/2017 6:45:00 AM 4.69 40.442 0.127 7.15 5.6 12.23
2/24/2017 7:00:00 AM 4.69 40.442 0.127 7.15 5.5 12.25
2/24/2017 7:15:00 AM 4.68 40.424 0.127 7.16 5.3 12.29
2/24/2017 7:30:00 AM 4.69 40.442 0.126 7.18 5.3 12.33
2/24/2017 7:45:00 AM 4.7 40.46 0.126 7.18 5.5 12.42
2/24/2017 8:00:00 AM 4.72 40.496 0.126 7.21 5 12.54
2/24/2017 8:15:00 AM 4.73 40.514 0.127 7.27 5.1 12.64
2/24/2017 8:30:00 AM 4.75 40.55 0.128 7.27 5.4 12.71
2/24/2017 8:45:00 AM 4.79 40.622 0.128 7.29 5.2 12.8
2/24/2017 9:00:00 AM 4.85 40.73 0.127 7.34 4.8 12.91
2/24/2017 9:15:00 AM 4.94 40.892 0.127 7.38 5.8 13
2/24/2017 9:30:00 AM 5.03 41.054 0.127 7.43 5.2 13.03
2/24/2017 9:45:00 AM 5.18 41.324 0.127 7.49 5.2 13.08
2/24/2017 10:00:00 AM 5.3 41.54 0.126 7.54 5.3 13.1
2/24/2017 10:15:00 AM 5.45 41.81 0.126 7.58 5.1 13.11
2/24/2017 10:30:00 AM 5.55 41.99 0.126 7.64 4.9 13.11
2/24/2017 10:45:00 AM 5.7 42.26 0.126 7.68 4.8 13.1
2/24/2017 11:00:00 AM 5.88 42.584 0.126 7.73 5.6 13.08
2/24/2017 11:15:00 AM 6.06 42.908 0.126 7.76 5 13.08
2/24/2017 11:30:00 AM 6.28 43.304 0.126 7.82 5 13.02
2/24/2017 11:45:00 AM 6.54 43.772 0.126 7.86 5.3 13.03
2/24/2017 12:00:00 PM 6.8 44.24 0.126 7.92 5.4 12.94
2/24/2017 12:15:00 PM 7.07 44.726 0.126 7.93 5.5 12.87
2/24/2017 12:30:00 PM 7.32 45.176 0.125 7.97 5.3 12.83
2/24/2017 12:45:00 PM 7.58 45.644 0.126 7.99 5 12.75
2/24/2017 1:00:00 PM 7.83 46.094 0.125 8.02 5.6 12.68
2/24/2017 1:15:00 PM 8.03 46.454 0.125 8.05 5.6 12.63
2/24/2017 1:30:00 PM 8.22 46.796 0.125 8.08 5.8 12.57
2/24/2017 1:45:00 PM 8.39 47.102 0.125 8.09 6.5 12.51
2/24/2017 2:00:00 PM 8.59 47.462 0.125 8.12 6.4 12.47
2/24/2017 2:15:00 PM 8.78 47.804 0.125 8.14 6.5 12.43
2/24/2017 2:30:00 PM 8.95 48.11 0.125 8.14 6.7 12.33
2/24/2017 2:45:00 PM 9.11 48.398 0.125 8.16 6.1 12.27
2/24/2017 3:00:00 PM 9.16 48.488 0.125 8.15 5.8 12.16
2/24/2017 3:15:00 PM 9.22 48.596 0.125 8.12 5.7 12.11
2/24/2017 3:30:00 PM 9.29 48.722 0.125 8.13 5.7 12.11
2/24/2017 3:45:00 PM 9.38 48.884 0.125 8.17 5.8 12.09
2/24/2017 4:00:00 PM 9.46 49.028 0.125 8.16 5.9 12.05
2/24/2017 4:15:00 PM 9.52 49.136 0.125 8.16 6.3 12.01
2/24/2017 4:30:00 PM 9.51 49.118 0.126 8.14 6.6 11.95
2/24/2017 4:45:00 PM 9.44 48.992 0.126 8.07 7.1 11.83
2/24/2017 5:00:00 PM 9.34 48.812 0.126 7.96 6 11.65
2/24/2017 5:15:00 PM 9.26 48.668 0.126 7.84 6.7 11.48
2/24/2017 5:30:00 PM 9.18 48.524 0.126 7.72 6.4 11.36
2/24/2017 5:45:00 PM 9.08 48.344 0.127 7.63 6.3 11.27
2/24/2017 6:00:00 PM 8.98 48.164 0.127 7.54 5.7 11.16
2/24/2017 6:15:00 PM 8.87 47.966 0.127 7.48 6.5 11.09
2/24/2017 6:30:00 PM 8.76 47.768 0.127 7.43 6.4 11.05
2/24/2017 6:45:00 PM 8.63 47.534 0.127 7.38 6.2 11.04
2/24/2017 7:00:00 PM 8.5 47.3 0.128 7.35 5.6 11.05
2/24/2017 7:15:00 PM 8.39 47.102 0.128 7.32 6.1 11.04
2/24/2017 7:30:00 PM 8.26 46.868 0.128 7.33 5.8 11.06
2/24/2017 7:45:00 PM 8.16 46.688 0.128 7.3 6.1 11.09
2/24/2017 8:00:00 PM 8.04 46.472 0.128 7.28 6 11.13
2/24/2017 8:15:00 PM 7.94 46.292 0.128 7.27 5.8 11.13
2/24/2017 8:30:00 PM 7.84 46.112 0.129 7.26 6.5 11.15
2/24/2017 8:45:00 PM 7.75 45.95 0.129 7.25 5.8 11.18
2/24/2017 9:00:00 PM 7.68 45.824 0.129 7.25 5.9 11.19
2/24/2017 9:15:00 PM 7.61 45.698 0.129 7.24 6.3 11.21
2/24/2017 9:30:00 PM 7.54 45.572 0.129 7.24 6.1 11.24
2/24/2017 9:45:00 PM 7.48 45.464 0.129 7.23 6.1 11.24
2/24/2017 10:00:00 PM 7.4 45.32 0.129 7.24 5.9 11.28
2/24/2017 10:15:00 PM 7.36 45.248 0.129 7.23 5.6 11.27
2/24/2017 10:30:00 PM 7.32 45.176 0.129 7.23 5.5 11.28
2/24/2017 10:45:00 PM 7.27 45.086 0.129 7.23 5.6 11.29
2/24/2017 11:00:00 PM 7.24 45.032 0.129 7.23 5.1 11.31
2/24/2017 11:15:00 PM 7.19 44.942 0.129 7.25 5.3 11.3
2/24/2017 11:30:00 PM 7.15 44.87 0.129 7.22 5.4 11.33
2/24/2017 11:45:00 PM 7.11 44.798 0.129 7.22 5.4 11.34
2/25/2017 12:00:00 AM 7.08 44.744 0.129 7.22 5.5 11.35
2/25/2017 12:15:00 AM 7.06 44.708 0.129 7.22 5.3 11.35
2/25/2017 12:30:00 AM 7.05 44.69 0.13 7.23 5.5 11.37
2/25/2017 12:45:00 AM 7.03 44.654 0.13 7.25 22.1 11.36
2/25/2017 1:00:00 AM 7.01 44.618 0.13 7.24 7.7 11.36
2/25/2017 1:15:00 AM 7 44.6 0.13 7.23 5.7 11.37
2/25/2017 1:30:00 AM 6.98 44.564 0.13 7.22 6 11.37
2/25/2017 1:45:00 AM 6.97 44.546 0.13 7.22 5.7 11.36
2/25/2017 2:00:00 AM 6.97 44.546 0.13 7.22 5.8 11.37
2/25/2017 2:15:00 AM 6.98 44.564 0.13 7.23 5.5 11.37
2/25/2017 2:30:00 AM 6.97 44.546 0.13 7.23 6.4 11.38
2/25/2017 2:45:00 AM 6.96 44.528 0.13 7.23 6.2 11.36
2/25/2017 3:00:00 AM 6.95 44.51 0.13 7.24 6.1 11.35
2/25/2017 3:15:00 AM 6.95 44.51 0.13 7.23 5.9 11.38
2/25/2017 3:30:00 AM 6.95 44.51 0.13 7.23 5.3 11.37
2/25/2017 3:45:00 AM 6.95 44.51 0.13 7.22 6.1 11.36
2/25/2017 4:00:00 AM 6.96 44.528 0.13 7.23 5.6 11.37
2/25/2017 4:15:00 AM 6.96 44.528 0.129 7.23 5 11.36
2/25/2017 4:30:00 AM 6.96 44.528 0.129 7.23 5.6 11.35
2/25/2017 4:45:00 AM 6.97 44.546 0.129 7.23 5.8 11.36
2/25/2017 5:00:00 AM 6.98 44.564 0.128 7.23 6 11.34
2/25/2017 5:15:00 AM 6.98 44.564 0.128 7.23 5.7 11.34
2/25/2017 5:30:00 AM 6.98 44.564 0.128 7.23 5.2 11.34
2/25/2017 5:45:00 AM 6.98 44.564 0.128 7.23 5.9 11.36
2/25/2017 6:00:00 AM 6.97 44.546 0.128 7.23 7.4 11.34
2/25/2017 6:15:00 AM 6.97 44.546 0.128 7.23 5.9 11.35
2/25/2017 6:30:00 AM 6.97 44.546 0.128 7.23 5.2 11.34
2/25/2017 6:45:00 AM 6.97 44.546 0.128 7.25 5.3 11.32
2/25/2017 7:00:00 AM 6.97 44.546 0.128 7.23 5.1 11.36
2/25/2017 7:15:00 AM 6.99 44.582 0.128 7.24 5.2 11.42
2/25/2017 7:30:00 AM 7.01 44.618 0.128 7.27 5.2 11.52
2/25/2017 7:45:00 AM 7.03 44.654 0.128 7.29 5.1 11.64
2/25/2017 8:00:00 AM 7.06 44.708 0.129 7.32 5.2 11.7
2/25/2017 8:15:00 AM 7.1 44.78 0.129 7.33 5 11.68
2/25/2017 8:30:00 AM 7.14 44.852 0.13 7.33 5.3 11.68
2/25/2017 8:45:00 AM 7.22 44.996 0.13 7.37 5.3 11.81
2/25/2017 9:00:00 AM 7.32 45.176 0.13 7.41 5.2 11.95
2/25/2017 9:15:00 AM 7.4 45.32 0.13 7.45 5 11.96
2/25/2017 9:30:00 AM 7.46 45.428 0.13 7.47 5.1 11.93
2/25/2017 9:45:00 AM 7.55 45.59 0.13 7.5 4.7 11.97
2/25/2017 10:00:00 AM 7.63 45.734 0.13 7.54 5.8 12.04
2/25/2017 10:15:00 AM 7.7 45.86 0.13 7.57 5.1 11.99
2/25/2017 10:30:00 AM 7.74 45.932 0.13 7.6 5 11.93
2/25/2017 10:45:00 AM 7.77 45.986 0.13 7.58 5.1 11.89
2/25/2017 11:00:00 AM 7.78 46.004 0.13 7.55 5.5 11.74
2/25/2017 11:15:00 AM 7.85 46.13 0.129 7.52 5.5 11.69
2/25/2017 11:30:00 AM 7.9 46.22 0.129 7.51 6.4 11.69
2/25/2017 11:45:00 AM 7.94 46